Provisional Data: Tuscarora Creek near Woodhull, NY


Please select a monitoring station.
Please select start date.
Please select start date.

Toggle Unit: C/F Toggle Unit: C/F
Sample Time Temperature (C) Temperature (F) Specific Conductivity (mS/cm) pH   Turbidity (NTU+) DO (mg/L)
12/11/2021 12:00:00 AM 2.83 37.094 0.268 7.83 4.74 12.84
12/11/2021 12:15:00 AM 2.81 37.058 0.268 7.84 4.95 12.85
12/11/2021 12:30:00 AM 2.8 37.04 0.269 7.83 4.85 12.86
12/11/2021 12:45:00 AM 2.78 37.004 0.269 7.83 5.3 12.86
12/11/2021 1:00:00 AM 2.76 36.968 0.269 7.82 5.46 12.87
12/11/2021 1:15:00 AM 2.75 36.95 0.269 7.81 6.01 12.87
12/11/2021 1:30:00 AM 2.74 36.932 0.269 7.82 5.96 12.87
12/11/2021 1:45:00 AM 2.74 36.932 0.269 7.81 6.23 12.86
12/11/2021 2:00:00 AM 2.73 36.914 0.27 7.81 6.36 12.87
12/11/2021 2:15:00 AM 2.73 36.914 0.271 7.81 6.21 12.86
12/11/2021 2:30:00 AM 2.73 36.914 0.271 7.81 6.6 12.86
12/11/2021 2:45:00 AM 2.74 36.932 0.272 7.81 6.57 12.85
12/11/2021 3:00:00 AM 2.75 36.95 0.272 7.81 6.53 12.84
12/11/2021 3:15:00 AM 2.77 36.986 0.271 7.79 6.56 12.84
12/11/2021 3:30:00 AM 2.79 37.022 0.27 7.8 6.22 12.82
12/11/2021 3:45:00 AM 2.81 37.058 0.27 7.8 6.16 12.81
12/11/2021 4:00:00 AM 2.84 37.112 0.269 7.79 6.15 12.8
12/11/2021 4:15:00 AM 2.87 37.166 0.269 7.8 6.27 12.79
12/11/2021 4:30:00 AM 2.9 37.22 0.269 7.8 6.45 12.78
12/11/2021 4:45:00 AM 2.93 37.274 0.272 7.8 6.36 12.76
12/11/2021 5:00:00 AM 2.96 37.328 0.269 7.8 6.49 12.75
12/11/2021 5:15:00 AM 2.98 37.364 0.268 7.8 6.76 12.73
12/11/2021 5:30:00 AM 3.01 37.418 0.267 7.8 6.87 12.71
12/11/2021 5:45:00 AM 3.05 37.49 0.267 7.79 6.5 12.7
12/11/2021 6:00:00 AM 3.1 37.58 0.263 7.8 8.91 12.69
12/11/2021 6:15:00 AM 3.14 37.652 0.262 7.79 12.21 12.67
12/11/2021 6:30:00 AM 3.17 37.706 0.262 7.79 20.95 12.65
12/11/2021 6:45:00 AM 3.2 37.76 0.262 7.79 19.6 12.64
12/11/2021 7:00:00 AM 3.23 37.814 0.263 7.79 11.92 12.62
12/11/2021 7:15:00 AM 3.25 37.85 0.263 7.79 13.32 12.61
12/11/2021 7:30:00 AM 3.29 37.922 0.266 7.8 25.47 12.61
12/11/2021 7:45:00 AM 3.32 37.976 0.272 7.81 23.15 12.6
12/11/2021 8:00:00 AM 3.37 38.066 0.276 7.82 28.94 12.62
12/11/2021 8:15:00 AM 3.45 38.21 0.285 7.81 58.77 12.59
12/11/2021 8:30:00 AM 3.54 38.372 0.298 7.78 130.83 12.54
12/11/2021 8:45:00 AM 3.59 38.462 0.283 7.78 165.98 12.51
12/11/2021 9:00:00 AM 3.59 38.462 0.249 7.74 447.3 12.53
12/11/2021 9:15:00 AM 3.62 38.516 0.243 7.79 689.4 12.55
12/11/2021 9:30:00 AM 3.65 38.57 0.239 7.79 752.34 12.56
12/11/2021 9:45:00 AM 3.72 38.696 0.24 7.77 783.35 12.53
12/11/2021 10:00:00 AM 3.8 38.84 0.241 7.75 749.84 12.51
12/11/2021 10:15:00 AM 3.88 38.984 0.24 7.76 704.19 12.49
12/11/2021 10:30:00 AM 3.96 39.128 0.234 7.77 613.8 12.48
12/11/2021 10:45:00 AM 4.04 39.272 0.228 7.78 565.97 12.46
12/11/2021 11:00:00 AM 4.1 39.38 0.223 7.78 522.59 12.45
12/11/2021 11:15:00 AM 4.16 39.488 0.22 7.8 478.21 12.43
12/11/2021 11:30:00 AM 4.24 39.632 0.218 7.81 450.89 12.41
12/11/2021 11:45:00 AM 4.31 39.758 0.217 7.79 430.75 12.38
12/11/2021 12:00:00 PM 4.38 39.884 0.215 7.79 391.74 12.35
12/11/2021 12:15:00 PM 4.47 40.046 0.214 7.79 374.14 12.32
12/11/2021 12:30:00 PM 4.55 40.19 0.212 7.78 339.12 12.3
12/11/2021 12:45:00 PM 4.64 40.352 0.211 7.78 321.51 12.27
12/11/2021 1:00:00 PM 4.74 40.532 0.209 7.78 293.86 12.22
12/11/2021 1:15:00 PM 4.83 40.694 0.208 7.78 297.36 12.19
12/11/2021 1:30:00 PM 4.92 40.856 0.208 7.78 251.04 12.15
12/11/2021 1:45:00 PM 5.01 41.018 0.207 7.78 243.62 12.12
12/11/2021 2:00:00 PM 5.1 41.18 0.207 7.77 221.33 12.09
12/11/2021 2:15:00 PM 5.16 41.288 0.206 7.77 214.71 12.05
12/11/2021 2:30:00 PM 5.24 41.432 0.206 7.77 196.83 12.02
12/11/2021 2:45:00 PM 5.31 41.558 0.206 7.77 186.42 11.99
12/11/2021 3:00:00 PM 5.38 41.684 0.207 7.77 170.08 11.95
12/11/2021 3:15:00 PM 5.46 41.828 0.207 7.78 159.03 11.93
12/11/2021 3:30:00 PM 5.53 41.954 0.208 7.78 141.15 11.9
12/11/2021 3:45:00 PM 5.6 42.08 0.209 7.78 143.83 11.87
12/11/2021 4:00:00 PM 5.67 42.206 0.209 7.78 135.92 11.85
12/11/2021 4:15:00 PM 5.72 42.296 0.209 7.78 129.28 11.82
12/11/2021 4:30:00 PM 5.77 42.386 0.209 7.78 123.57 11.8
12/11/2021 4:45:00 PM 5.83 42.494 0.209 7.78 111 11.77
12/11/2021 5:00:00 PM 5.89 42.602 0.209 7.78 104.41 11.75
12/11/2021 5:15:00 PM 5.93 42.674 0.21 7.78 104.87 11.73
12/11/2021 5:30:00 PM 5.99 42.782 0.21 7.78 94.45 11.71
12/11/2021 5:45:00 PM 6.06 42.908 0.21 7.78 90.15 11.69
12/11/2021 6:00:00 PM 6.11 42.998 0.211 7.77 84.2 11.67
12/11/2021 6:15:00 PM 6.13 43.034 0.211 7.77 74.87 11.66
12/11/2021 6:30:00 PM 6.13 43.034 0.212 7.78 79.22 11.65
12/11/2021 6:45:00 PM 6.12 43.016 0.212 7.78 75.1 11.64
12/11/2021 7:00:00 PM 6.11 42.998 0.213 7.78 70.9 11.65
12/11/2021 7:15:00 PM 6.09 42.962 0.213 7.78 67.02 11.66
12/11/2021 7:30:00 PM 6.06 42.908 0.214 7.78 67.2 11.67
12/11/2021 7:45:00 PM 5.99 42.782 0.214 7.79 63.76 11.68
12/11/2021 8:00:00 PM 5.93 42.674 0.215 7.78 58.93 11.7
12/11/2021 8:15:00 PM 5.87 42.566 0.215 7.79 58.94 11.73
12/11/2021 8:30:00 PM 5.81 42.458 0.216 7.78 57.55 11.75
12/11/2021 8:45:00 PM 5.72 42.296 0.216 7.78 58.44 11.79
12/11/2021 9:00:00 PM 5.66 42.188 0.217 7.78 55 11.82
12/11/2021 9:15:00 PM 5.58 42.044 0.217 7.78 50.3 11.84
12/11/2021 9:30:00 PM 5.52 41.936 0.218 7.78 50.02 11.86
12/11/2021 9:45:00 PM 5.45 41.81 0.219 7.78 48.78 11.89
12/11/2021 10:00:00 PM 5.38 41.684 0.219 7.78 46.02 11.92
12/11/2021 10:15:00 PM 5.3 41.54 0.219 7.78 44.02 11.95
12/11/2021 10:30:00 PM 5.23 41.414 0.22 7.78 47.47 11.97
12/11/2021 10:45:00 PM 5.16 41.288 0.22 7.78 44.92 12
12/11/2021 11:00:00 PM 5.09 41.162 0.221 7.78 41.31 12.02
12/11/2021 11:15:00 PM 5.02 41.036 0.221 7.78 43.03 12.05
12/11/2021 11:30:00 PM 4.96 40.928 0.222 7.77 37.67 12.08
12/11/2021 11:45:00 PM 4.9 40.82 0.223 7.77 39.22 12.09
12/12/2021 12:00:00 AM 4.85 40.73 0.224 7.78 36.79 12.12
12/12/2021 12:15:00 AM 4.79 40.622 0.224 7.78 38.51 12.13
12/12/2021 12:30:00 AM 4.74 40.532 0.224 7.77 37.06 12.16
12/12/2021 12:45:00 AM 4.68 40.424 0.224 7.77 36.32 12.19
12/12/2021 1:00:00 AM 4.62 40.316 0.224 7.77 36.28 12.2
12/12/2021 1:15:00 AM 4.57 40.226 0.224 7.77 35.59 12.23
12/12/2021 1:30:00 AM 4.52 40.136 0.225 7.77 33.92 12.25
12/12/2021 1:45:00 AM 4.45 40.01 0.226 7.77 43.28 12.27
12/12/2021 2:00:00 AM 4.38 39.884 0.226 7.77 33.24 12.29
12/12/2021 2:15:00 AM 4.32 39.776 0.227 7.76 32.63 12.31
12/12/2021 2:30:00 AM 4.26 39.668 0.227 7.77 43.78 12.33
12/12/2021 2:45:00 AM 4.22 39.596 0.228 7.76 29.61 12.35
12/12/2021 3:00:00 AM 4.18 39.524 0.228 7.76 33.07 12.37
12/12/2021 3:15:00 AM 4.13 39.434 0.229 7.76 29.11 12.39
12/12/2021 3:30:00 AM 4.06 39.308 0.229 7.76 29.3 12.41
12/12/2021 3:45:00 AM 3.99 39.182 0.229 7.76 25.77 12.43
12/12/2021 4:00:00 AM 3.93 39.074 0.23 7.76 27.73 12.45
12/12/2021 4:15:00 AM 3.87 38.966 0.23 7.76 28.52 12.47
12/12/2021 4:30:00 AM 3.81 38.858 0.231 7.75 26.88 12.49
12/12/2021 4:45:00 AM 3.78 38.804 0.231 7.76 26.65 12.51
12/12/2021 5:00:00 AM 3.76 38.768 0.231 7.75 24.79 12.52
12/12/2021 5:15:00 AM 3.71 38.678 0.232 7.75 25.69 12.53
12/12/2021 5:30:00 AM 3.64 38.552 0.232 7.75 25.28 12.55
12/12/2021 5:45:00 AM 3.6 38.48 0.233 7.75 23.55 12.56
12/12/2021 6:00:00 AM 3.56 38.408 0.234 7.74 19.67 12.58
12/12/2021 6:15:00 AM 3.5 38.3 0.234 7.75 23.28 12.59
12/12/2021 6:30:00 AM 3.44 38.192 0.235 7.75 22.98 12.61
12/12/2021 6:45:00 AM 3.4 38.12 0.235 7.75 22.7 12.63
12/12/2021 7:00:00 AM 3.36 38.048 0.235 7.74 22.57 12.64
12/12/2021 7:15:00 AM 3.31 37.958 0.236 7.75 21.49 12.65
12/12/2021 7:30:00 AM 3.27 37.886 0.237 7.74 20.77 12.67
12/12/2021 7:45:00 AM 3.24 37.832 0.238 7.74 19.66 12.7
12/12/2021 8:00:00 AM 3.2 37.76 0.239 7.75 20.64 12.74
12/12/2021 8:15:00 AM 3.17 37.706 0.239 7.75 19.2 12.79
12/12/2021 8:30:00 AM 3.14 37.652 0.239 7.77 18.9 12.84
12/12/2021 8:45:00 AM 3.13 37.634 0.239 7.78 18.24 12.92
12/12/2021 9:00:00 AM 3.12 37.616 0.239 7.8 16.72 12.99
12/12/2021 9:15:00 AM 3.12 37.616 0.239 7.82 17.98 13.06
12/12/2021 9:30:00 AM 3.14 37.652 0.239 7.83 17.62 13.14
12/12/2021 9:45:00 AM 3.17 37.706 0.239 7.86 20.28 13.2
12/12/2021 10:00:00 AM 3.18 37.724 0.239 7.88 16.24 13.25
12/12/2021 10:15:00 AM 3.21 37.778 0.239 7.89 15.06 13.3
12/12/2021 10:30:00 AM 3.24 37.832 0.239 7.92 16.66 13.34
12/12/2021 10:45:00 AM 3.29 37.922 0.239 7.93 15.87 13.39
12/12/2021 11:00:00 AM 3.34 38.012 0.24 7.96 15.81 13.42
12/12/2021 11:15:00 AM 3.36 38.048 0.24 7.98 15 13.45
12/12/2021 11:30:00 AM 3.39 38.102 0.24 7.99 15.12 13.47
12/12/2021 11:45:00 AM 3.49 38.282 0.24 8.02 14.82 13.52
12/12/2021 12:00:00 PM 3.54 38.372 0.24 8.05 13.76 13.53
12/12/2021 12:15:00 PM 3.61 38.498 0.24 8.06 14.27 13.53
12/12/2021 12:30:00 PM 3.65 38.57 0.24 8.08 13.95 13.54
12/12/2021 12:45:00 PM 3.74 38.732 0.24 8.1 13.57 13.55
12/12/2021 1:00:00 PM 3.81 38.858 0.24 8.12 13.76 13.55
12/12/2021 1:15:00 PM 3.85 38.93 0.24 8.13 14.28 13.55
12/12/2021 1:30:00 PM 3.88 38.984 0.24 8.15 12.92 13.54
12/12/2021 1:45:00 PM 3.93 39.074 0.24 8.15 12.58 13.53
12/12/2021 2:00:00 PM 3.95 39.11 0.24 8.17 12.79 13.52
12/12/2021 2:15:00 PM 3.98 39.164 0.241 8.18 13.11 13.5
12/12/2021 2:30:00 PM 4 39.2 0.241 8.18 12.44 13.47
12/12/2021 2:45:00 PM 4.02 39.236 0.241 8.18 11.25 13.44
12/12/2021 3:00:00 PM 4.02 39.236 0.241 8.17 11.48 13.39
12/12/2021 3:15:00 PM 4.01 39.218 0.241 8.16 11.38 13.34
12/12/2021 3:30:00 PM 3.98 39.164 0.242 8.14 11.33 13.27
12/12/2021 3:45:00 PM 3.97 39.146 0.243 8.12 11.47 13.2
12/12/2021 4:00:00 PM 3.94 39.092 0.244 8.08 10.72 13.12
12/12/2021 4:15:00 PM 3.92 39.056 0.244 8.06 10.62 13.03
12/12/2021 4:30:00 PM 3.89 39.002 0.243 8.02 10.62 12.94
12/12/2021 4:45:00 PM 3.87 38.966 0.243 8 10.1 12.88
12/12/2021 5:00:00 PM 3.84 38.912 0.242 7.96 10.77 12.82
12/12/2021 5:15:00 PM 3.8 38.84 0.242 7.93 11.12 12.77
12/12/2021 5:30:00 PM 3.75 38.75 0.242 7.91 9.84 12.73
12/12/2021 5:45:00 PM 3.72 38.696 0.242 7.89 10.34 12.71
12/12/2021 6:00:00 PM 3.68 38.624 0.242 7.88 10.74 12.7
12/12/2021 6:15:00 PM 3.63 38.534 0.243 7.85 10.34 12.69
12/12/2021 6:30:00 PM 3.57 38.426 0.243 7.84 10.32 12.69
12/12/2021 6:45:00 PM 3.52 38.336 0.243 7.82 9.95 12.69
12/12/2021 7:00:00 PM 3.46 38.228 0.243 7.82 9.61 12.69
12/12/2021 7:15:00 PM 3.4 38.12 0.243 7.81 10.29 12.69
12/12/2021 7:30:00 PM 3.34 38.012 0.243 7.79 9.88 12.7
12/12/2021 7:45:00 PM 3.28 37.904 0.243 7.79 10.08 12.71
12/12/2021 8:00:00 PM 3.22 37.796 0.244 7.78 9.92 12.72
12/12/2021 8:15:00 PM 3.15 37.67 0.244 7.77 9.18 12.74
12/12/2021 8:30:00 PM 3.09 37.562 0.244 7.77 9.64 12.77
12/12/2021 8:45:00 PM 3.03 37.454 0.244 7.76 9.63 12.78
12/12/2021 9:00:00 PM 2.96 37.328 0.244 7.76 9.22 12.8
12/12/2021 9:15:00 PM 2.91 37.238 0.244 7.75 8.96 12.82
12/12/2021 9:30:00 PM 2.86 37.148 0.245 7.75 9.2 12.84
12/12/2021 9:45:00 PM 2.81 37.058 0.245 7.75 9.24 12.86
12/12/2021 10:00:00 PM 2.76 36.968 0.245 7.74 9.1 12.88
12/12/2021 10:15:00 PM 2.71 36.878 0.245 7.75 9.29 12.89
12/12/2021 10:30:00 PM 2.67 36.806 0.245 7.75 8.87 12.91
12/12/2021 10:45:00 PM 2.63 36.734 0.246 7.75 8.46 12.92
12/12/2021 11:00:00 PM 2.6 36.68 0.246 7.74 8.59 12.93
12/12/2021 11:15:00 PM 2.55 36.59 0.247 7.75 9.37 12.95
12/12/2021 11:30:00 PM 2.52 36.536 0.248 7.74 9.3 12.97
12/12/2021 11:45:00 PM 2.49 36.482 0.249 7.74 8.71 12.98
12/13/2021 12:00:00 AM 2.46 36.428 0.249 7.74 9.59 12.99
12/13/2021 12:15:00 AM 2.42 36.356 0.248 7.74 8.9 13.01
12/13/2021 12:30:00 AM 2.4 36.32 0.248 7.73 9.21 13.02
12/13/2021 12:45:00 AM 2.37 36.266 0.248 7.73 9.2 13.02
12/13/2021 1:00:00 AM 2.36 36.248 0.247 7.73 8.96 13.04
12/13/2021 1:15:00 AM 2.35 36.23 0.247 7.74 8.52 13.05
12/13/2021 1:30:00 AM 2.33 36.194 0.248 7.74 9.64 13.06
12/13/2021 1:45:00 AM 2.31 36.158 0.248 7.73 9.66 13.06
12/13/2021 2:00:00 AM 2.29 36.122 0.248 7.74 8.94 13.07
12/13/2021 2:15:00 AM 2.28 36.104 0.248 7.74 8.84 13.08
12/13/2021 2:30:00 AM 2.27 36.086 0.248 7.73 9.49 13.1
12/13/2021 2:45:00 AM 2.26 36.068 0.248 7.72 8.83 13.1
12/13/2021 3:00:00 AM 2.26 36.068 0.248 7.74 9.3 13.09
12/13/2021 3:15:00 AM 2.26 36.068 0.248 7.73 8.5 13.11
12/13/2021 3:30:00 AM 2.26 36.068 0.249 7.74 8.8 13.1
12/13/2021 3:45:00 AM 2.25 36.05 0.249 7.74 8.89 13.11
12/13/2021 4:00:00 AM 2.25 36.05 0.249 7.74 8.55 13.12
12/13/2021 4:15:00 AM 2.24 36.032 0.249 7.74 8.58 13.12
12/13/2021 4:30:00 AM 2.24 36.032 0.249 7.74 8.92 13.13
12/13/2021 4:45:00 AM 2.23 36.014 0.249 7.74 8.04 13.13
12/13/2021 5:00:00 AM 2.23 36.014 0.249 7.73 8.13 13.13
12/13/2021 5:15:00 AM 2.23 36.014 0.25 7.73 8.18 13.13
12/13/2021 5:30:00 AM 2.22 35.996 0.25 7.73 8.16 13.14
12/13/2021 5:45:00 AM 2.22 35.996 0.25 7.73 8.18 13.14
12/13/2021 6:00:00 AM 2.23 36.014 0.25 7.74 7.77 13.14
12/13/2021 6:15:00 AM 2.23 36.014 0.25 7.74 7.96 13.14
12/13/2021 6:30:00 AM 2.23 36.014 0.25 7.73 7.69 13.14
12/13/2021 6:45:00 AM 2.23 36.014 0.251 7.73 8.01 13.13
12/13/2021 7:00:00 AM 2.24 36.032 0.252 7.73 7.71 13.12
12/13/2021 7:15:00 AM 2.24 36.032 0.253 7.73 7.48 13.13
12/13/2021 7:30:00 AM 2.24 36.032 0.253 7.73 7.3 13.11
12/13/2021 7:45:00 AM 2.25 36.05 0.253 7.73 8.07 13.14
12/13/2021 8:00:00 AM 2.25 36.05 0.253 7.74 7.32 13.17
12/13/2021 8:15:00 AM 2.26 36.068 0.252 7.75 7.18 13.22
12/13/2021 8:30:00 AM 2.26 36.068 0.252 7.77 7.03 13.3
12/13/2021 8:45:00 AM 2.25 36.05 0.251 7.78 7.09 13.39
12/13/2021 9:00:00 AM 2.25 36.05 0.251 7.81 7.27 13.47
12/13/2021 9:15:00 AM 2.26 36.068 0.251 7.83 7.51 13.58
12/13/2021 9:30:00 AM 2.32 36.176 0.251 7.87 7.02 13.69
12/13/2021 9:45:00 AM 2.4 36.32 0.251 7.9 7.36 13.81
12/13/2021 10:00:00 AM 2.47 36.446 0.251 7.94 7.34 13.88
12/13/2021 10:15:00 AM 2.55 36.59 0.251 7.97 6.85 13.94
12/13/2021 10:30:00 AM 2.62 36.716 0.251 7.99 6.82 14
12/13/2021 10:45:00 AM 2.7 36.86 0.251 8.03 6.96 14.03
12/13/2021 11:00:00 AM 2.78 37.004 0.251 8.06 6.5 14.07
12/13/2021 11:15:00 AM 2.87 37.166 0.25 8.08 6.58 14.09
12/13/2021 11:30:00 AM 2.95 37.31 0.25 8.11 6.61 14.11
12/13/2021 11:45:00 AM 3.02 37.436 0.25 8.14 6.15 14.14
12/13/2021 12:00:00 PM 3.1 37.58 0.25 8.16 6.12 14.14
12/13/2021 12:15:00 PM 3.17 37.706 0.25 8.19 5.89 14.15
12/13/2021 12:30:00 PM 3.24 37.832 0.25 8.21 5.8 14.15
12/13/2021 12:45:00 PM 3.32 37.976 0.25 8.24 5.86 14.13
12/13/2021 1:00:00 PM 3.4 38.12 0.25 8.26 5.86 14.12
12/13/2021 1:15:00 PM 3.48 38.264 0.25 8.28 6.07 14.1
12/13/2021 1:30:00 PM 3.57 38.426 0.25 8.29 5.99 14.08
12/13/2021 1:45:00 PM 3.64 38.552 0.25 8.32 6.07 14.06
12/13/2021 2:00:00 PM 3.71 38.678 0.25 8.33 5.74 14.02
12/13/2021 2:15:00 PM 3.76 38.768 0.25 8.33 5.54 13.99
12/13/2021 2:30:00 PM 3.8 38.84 0.25 8.35 5.69 13.96
12/13/2021 2:45:00 PM 3.83 38.894 0.251 8.35 5.53 13.92
12/13/2021 3:00:00 PM 3.83 38.894 0.252 8.34 5.65 13.87
12/13/2021 3:15:00 PM 3.82 38.876 0.252 8.33 5.42 13.8
12/13/2021 3:30:00 PM 3.8 38.84 0.252 8.31 5.66 13.72
12/13/2021 3:45:00 PM 3.76 38.768 0.251 8.28 5.12 13.63
12/13/2021 4:00:00 PM 3.74 38.732 0.251 8.25 5.4 13.52
12/13/2021 4:15:00 PM 3.72 38.696 0.251 8.2 5.43 13.39
12/13/2021 4:30:00 PM 3.71 38.678 0.251 8.15 5.49 13.26
12/13/2021 4:45:00 PM 3.7 38.66 0.251 8.11 5.23 13.15
12/13/2021 5:00:00 PM 3.69 38.642 0.251 8.07 5.03 13.06
12/13/2021 5:15:00 PM 3.68 38.624 0.251 8.02 5.12 12.97
12/13/2021 5:30:00 PM 3.66 38.588 0.251 8 4.83 12.91
12/13/2021 5:45:00 PM 3.65 38.57 0.251 7.96 5.24 12.85
12/13/2021 6:00:00 PM 3.63 38.534 0.251 7.95 5.32 12.82
12/13/2021 6:15:00 PM 3.61 38.498 0.251 7.92 5.28 12.79
12/13/2021 6:30:00 PM 3.59 38.462 0.251 7.9 5.14 12.77
12/13/2021 6:45:00 PM 3.57 38.426 0.251 7.89 5.26 12.75
12/13/2021 7:00:00 PM 3.54 38.372 0.251 7.87 5.15 12.74
12/13/2021 7:15:00 PM 3.51 38.318 0.251 7.86 5.22 12.73
12/13/2021 7:30:00 PM 3.47 38.246 0.251 7.84 5.31 12.73
12/13/2021 7:45:00 PM 3.43 38.174 0.252 7.82 5.2 12.73
12/13/2021 8:00:00 PM 3.38 38.084 0.252 7.82 5.07 12.72
12/13/2021 8:15:00 PM 3.33 37.994 0.252 7.8 5.46 12.73
12/13/2021 8:30:00 PM 3.28 37.904 0.252 7.8 5.58 12.74
12/13/2021 8:45:00 PM 3.22 37.796 0.252 7.79 5.79 12.75
12/13/2021 9:00:00 PM 3.17 37.706 0.252 7.78 5.61 12.76
12/13/2021 9:15:00 PM 3.11 37.598 0.253 7.78 5.5 12.78
12/13/2021 9:30:00 PM 3.06 37.508 0.253 7.76 5.33 12.79
12/13/2021 9:45:00 PM 3.01 37.418 0.253 7.77 6.04 12.81
12/13/2021 10:00:00 PM 2.96 37.328 0.253 7.75 5.78 12.83
12/13/2021 10:15:00 PM 2.91 37.238 0.254 7.76 5.76 12.85
12/13/2021 10:30:00 PM 2.85 37.13 0.255 7.75 5.54 12.87
12/13/2021 10:45:00 PM 2.8 37.04 0.256 7.75 5.46 12.89
12/13/2021 11:00:00 PM 2.74 36.932 0.256 7.75 5.49 12.91
12/13/2021 11:15:00 PM 2.68 36.824 0.255 7.74 5.54 12.93
12/13/2021 11:30:00 PM 2.63 36.734 0.254 7.74 5.57 12.95
12/13/2021 11:45:00 PM 2.58 36.644 0.254 7.74 5.55 12.98
12/14/2021 12:00:00 AM 2.53 36.554 0.254 7.73 5.28 13
12/14/2021 12:15:00 AM 2.48 36.464 0.254 7.73 5.67 13.02
12/14/2021 12:30:00 AM 2.44 36.392 0.254 7.73 5.52 13.04
12/14/2021 12:45:00 AM 2.39 36.302 0.254 7.73 5.56 13.06
12/14/2021 1:00:00 AM 2.35 36.23 0.254 7.73 5.54 13.08
12/14/2021 1:15:00 AM 2.32 36.176 0.254 7.72 5.62 13.09
12/14/2021 1:30:00 AM 2.28 36.104 0.254 7.73 5.84 13.11
12/14/2021 1:45:00 AM 2.25 36.05 0.254 7.72 5.84 13.13
12/14/2021 2:00:00 AM 2.22 35.996 0.255 7.73 5.65 13.14
12/14/2021 2:15:00 AM 2.18 35.924 0.255 7.73 5.13 13.15
12/14/2021 2:30:00 AM 2.15 35.87 0.255 7.73 5.68 13.16
12/14/2021 2:45:00 AM 2.11 35.798 0.255 7.72 5.45 13.17
12/14/2021 3:00:00 AM 2.08 35.744 0.255 7.73 6.06 13.18
12/14/2021 3:15:00 AM 2.05 35.69 0.255 7.72 5.71 13.19
12/14/2021 3:30:00 AM 2.02 35.636 0.255 7.72 5.37 13.22
12/14/2021 3:45:00 AM 1.99 35.582 0.255 7.72 5.54 13.23
12/14/2021 4:00:00 AM 1.96 35.528 0.255 7.72 5.44 13.24
12/14/2021 4:15:00 AM 1.93 35.474 0.255 7.72 5.56 13.26
12/14/2021 4:30:00 AM 1.91 35.438 0.256 7.73 5.15 13.27
12/14/2021 4:45:00 AM 1.88 35.384 0.256 7.72 5.37 13.29
12/14/2021 5:00:00 AM 1.85 35.33 0.256 7.72 5.36 13.3
12/14/2021 5:15:00 AM 1.82 35.276 0.256 7.72 5.06 13.31
12/14/2021 5:30:00 AM 1.8 35.24 0.256 7.72 5.18 13.32
12/14/2021 5:45:00 AM 1.76 35.168 0.257 7.72 4.92 13.34
12/14/2021 6:00:00 AM 1.73 35.114 0.258 7.72 4.93 13.35
12/14/2021 6:15:00 AM 1.7 35.06 0.259 7.72 5.05 13.36
12/14/2021 6:30:00 AM 1.67 35.006 0.259 7.72 5.19 13.37
12/14/2021 6:45:00 AM 1.64 34.952 0.26 7.72 5.14 13.39
12/14/2021 7:00:00 AM 1.6 34.88 0.259 7.72 5.17 13.4
12/14/2021 7:15:00 AM 1.57 34.826 0.259 7.72 5.37 13.42
12/14/2021 7:30:00 AM 1.53 34.754 0.258 7.72 5.18 13.45
12/14/2021 7:45:00 AM 1.5 34.7 0.258 7.73 4.95 13.5
12/14/2021 8:00:00 AM 1.5 34.7 0.258 7.73 5.11 13.57
12/14/2021 8:15:00 AM 1.52 34.736 0.257 7.75 5.19 13.68
12/14/2021 8:30:00 AM 1.52 34.736 0.257 7.77 5.12 13.82
12/14/2021 8:45:00 AM 1.54 34.772 0.257 7.8 5.1 13.97
12/14/2021 9:00:00 AM 1.56 34.808 0.257 7.83 4.79 14.1
12/14/2021 9:15:00 AM 1.59 34.862 0.257 7.87 4.97 14.22
12/14/2021 9:30:00 AM 1.63 34.934 0.257 7.91 4.89 14.33
12/14/2021 9:45:00 AM 1.67 35.006 0.257 7.93 4.61 14.41
12/14/2021 10:00:00 AM 1.71 35.078 0.257 7.97 4.79 14.48
12/14/2021 10:15:00 AM 1.81 35.258 0.256 8 4.71 14.55
12/14/2021 10:30:00 AM 1.95 35.51 0.256 8.05 4.7 14.64
12/14/2021 10:45:00 AM 2.06 35.708 0.256 8.09 4.63 14.7
12/14/2021 11:00:00 AM 2.18 35.924 0.256 8.13 4.97 14.74
12/14/2021 11:15:00 AM 2.28 36.104 0.256 8.17 4.79 14.76
12/14/2021 11:30:00 AM 2.34 36.212 0.256 8.19 4.63 14.78
12/14/2021 11:45:00 AM 2.44 36.392 0.255 8.22 4.41 14.79
12/14/2021 12:00:00 PM 2.54 36.572 0.255 8.25 4.43 14.81
12/14/2021 12:15:00 PM 2.66 36.788 0.255 8.28 4.16 14.8
12/14/2021 12:30:00 PM 2.74 36.932 0.255 8.32 4.31 14.77
12/14/2021 12:45:00 PM 2.83 37.094 0.255 8.33 4.16 14.76
12/14/2021 1:00:00 PM 2.9 37.22 0.255 8.36 4.5 14.75
12/14/2021 1:15:00 PM 2.96 37.328 0.255 8.38 4.29 14.72
12/14/2021 1:30:00 PM 3.03 37.454 0.255 8.39 4.2 14.71
12/14/2021 1:45:00 PM 3.11 37.598 0.256 8.42 4.2 14.68
12/14/2021 2:00:00 PM 3.17 37.706 0.257 8.43 4.19 14.65
12/14/2021 2:15:00 PM 3.23 37.814 0.257 8.44 4.34 14.6
12/14/2021 2:30:00 PM 3.28 37.904 0.257 8.45 4.17 14.56
12/14/2021 2:45:00 PM 3.32 37.976 0.257 8.46 3.83 14.51
12/14/2021 3:00:00 PM 3.35 38.03 0.256 8.46 3.97 14.45
12/14/2021 3:15:00 PM 3.34 38.012 0.256 8.44 4.02 14.37
12/14/2021 3:30:00 PM 3.32 37.976 0.256 8.43 4.2 14.28
12/14/2021 3:45:00 PM 3.29 37.922 0.255 8.4 3.86 14.19
12/14/2021 4:00:00 PM 3.26 37.868 0.255 8.37 3.82 14.07
12/14/2021 4:15:00 PM 3.23 37.814 0.255 8.32 4.12 13.91
12/14/2021 4:30:00 PM 3.2 37.76 0.255 8.26 4.15 13.74
12/14/2021 4:45:00 PM 3.18 37.724 0.255 8.19 4.34 13.61
12/14/2021 5:00:00 PM 3.17 37.706 0.256 8.15 4.33 13.49
12/14/2021 5:15:00 PM 3.15 37.67 0.256 8.09 4.21 13.39
12/14/2021 5:30:00 PM 3.14 37.652 0.256 8.06 4.32 13.34
12/14/2021 5:45:00 PM 3.11 37.598 0.256 8.02 4.2 13.28
12/14/2021 6:00:00 PM 3.09 37.562 0.256 7.99 4.22 13.23
12/14/2021 6:15:00 PM 3.06 37.508 0.256 7.96 4.29 13.19
12/14/2021 6:30:00 PM 3.04 37.472 0.256 7.93 4.12 13.17
12/14/2021 6:45:00 PM 3.01 37.418 0.256 7.91 4.26 13.14
12/14/2021 7:00:00 PM 2.98 37.364 0.256 7.89 3.93 13.12
12/14/2021 7:15:00 PM 2.96 37.328 0.256 7.88 3.68 13.11
12/14/2021 7:30:00 PM 2.93 37.274 0.256 7.87 3.96 13.1
12/14/2021 7:45:00 PM 2.9 37.22 0.256 7.85 3.88 13.09
12/14/2021 8:00:00 PM 2.86 37.148 0.256 7.83 3.97 13.09
12/14/2021 8:15:00 PM 2.82 37.076 0.256 7.82 3.95 13.09
12/14/2021 8:30:00 PM 2.78 37.004 0.256 7.82 3.9 13.09
12/14/2021 8:45:00 PM 2.73 36.914 0.257 7.8 3.82 13.09
12/14/2021 9:00:00 PM 2.68 36.824 0.257 7.79 3.95 13.09
12/14/2021 9:15:00 PM 2.63 36.734 0.258 7.79 3.92 13.1
12/14/2021 9:30:00 PM 2.57 36.626 0.259 7.77 3.85 13.12
12/14/2021 9:45:00 PM 2.52 36.536 0.26 7.77 4.05 13.13
12/14/2021 10:00:00 PM 2.47 36.446 0.26 7.76 3.87 13.14
12/14/2021 10:15:00 PM 2.42 36.356 0.26 7.76 4.2 13.16
12/14/2021 10:30:00 PM 2.36 36.248 0.26 7.75 3.99 13.18
12/14/2021 10:45:00 PM 2.31 36.158 0.259 7.74 3.93 13.2
12/14/2021 11:00:00 PM 2.25 36.05 0.259 7.75 3.92 13.22
12/14/2021 11:15:00 PM 2.2 35.96 0.258 7.74 4 13.24
12/14/2021 11:30:00 PM 2.16 35.888 0.258 7.73 4.11 13.25
12/14/2021 11:45:00 PM 2.11 35.798 0.258 7.74 3.92 13.28
12/15/2021 12:00:00 AM 2.07 35.726 0.258 7.73 4.08 13.28
12/15/2021 12:15:00 AM 2.03 35.654 0.258 7.74 3.93 13.31
12/15/2021 12:30:00 AM 1.99 35.582 0.258 7.73 3.98 13.33
12/15/2021 12:45:00 AM 1.94 35.492 0.258 7.73 4.09 13.34
12/15/2021 1:00:00 AM 1.9 35.42 0.258 7.72 3.87 13.36
12/15/2021 1:15:00 AM 1.85 35.33 0.258 7.73 3.92 13.37
12/15/2021 1:30:00 AM 1.8 35.24 0.258 7.72 4.11 13.38
12/15/2021 1:45:00 AM 1.75 35.15 0.258 7.72 4.23 13.4
12/15/2021 2:00:00 AM 1.72 35.096 0.258 7.72 4.16 13.41
12/15/2021 2:15:00 AM 1.68 35.024 0.259 7.73 4.23 13.43
12/15/2021 2:30:00 AM 1.65 34.97 0.259 7.72 4.02 13.44
12/15/2021 2:45:00 AM 1.61 34.898 0.259 7.71 3.97 13.45
12/15/2021 3:00:00 AM 1.59 34.862 0.259 7.72 4.15 13.47
12/15/2021 3:15:00 AM 1.56 34.808 0.259 7.72 4.04 13.48
12/15/2021 3:30:00 AM 1.52 34.736 0.259 7.71 3.94 13.48
12/15/2021 3:45:00 AM 1.5 34.7 0.259 7.72 3.92 13.49
12/15/2021 4:00:00 AM 1.47 34.646 0.259 7.71 3.88 13.5
12/15/2021 4:15:00 AM 1.44 34.592 0.259 7.72 4.22 13.51
12/15/2021 4:30:00 AM 1.41 34.538 0.259 7.71 3.91 13.52
12/15/2021 4:45:00 AM 1.38 34.484 0.26 7.72 3.81 13.53
12/15/2021 5:00:00 AM 1.34 34.412 0.261 7.71 3.79 13.54
12/15/2021 5:15:00 AM 1.32 34.376 0.262 7.72 4.08 13.55
12/15/2021 5:30:00 AM 1.3 34.34 0.263 7.72 3.95 13.56
12/15/2021 5:45:00 AM 1.28 34.304 0.263 7.71 3.76 13.56
12/15/2021 6:00:00 AM 1.27 34.286 0.263 7.72 4.04 13.57
12/15/2021 6:15:00 AM 1.24 34.232 0.263 7.71 3.89 13.57
12/15/2021 6:30:00 AM 1.21 34.178 0.262 7.72 3.89 13.58
12/15/2021 6:45:00 AM 1.18 34.124 0.262 7.72 3.95 13.59
12/15/2021 7:00:00 AM 1.15 34.07 0.261 7.71 4 13.61
12/15/2021 7:15:00 AM 1.13 34.034 0.261 7.72 3.92 13.62
12/15/2021 7:30:00 AM 1.11 33.998 0.261 7.71 3.81 13.62
12/15/2021 7:45:00 AM 1.1 33.98 0.261 7.72 3.68 13.66
12/15/2021 8:00:00 AM 1.1 33.98 0.261 7.72 3.82 13.73
12/15/2021 8:15:00 AM 1.12 34.016 0.261 7.75 3.38 13.8
12/15/2021 8:30:00 AM 1.14 34.052 0.26 7.75 3.71 13.91
12/15/2021 8:45:00 AM 1.17 34.106 0.26 7.78 3.77 14
12/15/2021 9:00:00 AM 1.21 34.178 0.26 7.8 3.72 14.08
12/15/2021 9:15:00 AM 1.27 34.286 0.26 7.83 3.62 14.18
12/15/2021 9:30:00 AM 1.32 34.376 0.26 7.86 3.64 14.31
12/15/2021 9:45:00 AM 1.36 34.448 0.26 7.9 3.63 14.41
12/15/2021 10:00:00 AM 1.42 34.556 0.26 7.93 3.53 14.49
12/15/2021 10:15:00 AM 1.46 34.628 0.26 7.97 3.6 14.58
12/15/2021 10:30:00 AM 1.5 34.7 0.26 8 3.34 14.6
12/15/2021 10:45:00 AM 1.55 34.79 0.26 8.02 3.36 14.62
12/15/2021 11:00:00 AM 1.59 34.862 0.26 8.05 3.5 14.68
12/15/2021 11:15:00 AM 1.62 34.916 0.26 8.07 3.36 14.63
12/15/2021 11:30:00 AM 1.65 34.97 0.26 8.07 3.23 14.55
12/15/2021 11:45:00 AM 1.71 35.078 0.26 8.08 3.44 14.56
12/15/2021 12:00:00 PM 1.76 35.168 0.259 8.1 3.4 14.58
12/15/2021 12:15:00 PM 1.8 35.24 0.26 8.12 3.41 14.58
12/15/2021 12:30:00 PM 1.85 35.33 0.26 8.12 3.42 14.53
12/15/2021 12:45:00 PM 1.89 35.402 0.26 8.12 3.47 14.44
12/15/2021 1:00:00 PM 1.94 35.492 0.261 8.11 3.42 14.35
12/15/2021 1:15:00 PM 1.98 35.564 0.262 8.09 3.33 14.28
12/15/2021 1:30:00 PM 2.03 35.654 0.262 8.1 3.67 14.28
12/15/2021 1:45:00 PM 2.09 35.762 0.26 8.11 3.6 14.24
12/15/2021 2:00:00 PM 2.15 35.87 0.259 8.12 3.58 14.21
12/15/2021 2:15:00 PM 2.19 35.942 0.259 8.13 3.62 14.21
12/15/2021 2:30:00 PM 2.25 36.05 0.258 8.13 3.77 14.19
12/15/2021 2:45:00 PM 2.29 36.122 0.258 8.14 3.96 14.17
12/15/2021 3:00:00 PM 2.34 36.212 0.258 8.14 3.78 14.12
12/15/2021 3:15:00 PM 2.39 36.302 0.258 8.14 3.72 14.07
12/15/2021 3:30:00 PM 2.43 36.374 0.258 8.13 4.41 14.01
12/15/2021 3:45:00 PM 2.48 36.464 0.257 8.12 4.63 13.95
12/15/2021 4:00:00 PM 2.52 36.536 0.257 8.08 5.2 13.86
12/15/2021 4:15:00 PM 2.55 36.59 0.257 8.07 4.45 13.75
12/15/2021 4:30:00 PM 2.58 36.644 0.257 8.04 4.43 13.65
12/15/2021 4:45:00 PM 2.61 36.698 0.257 8.01 4.34 13.54
12/15/2021 5:00:00 PM 2.64 36.752 0.257 7.97 4.56 13.44
12/15/2021 5:15:00 PM 2.68 36.824 0.258 7.96 4.85 13.38
12/15/2021 5:30:00 PM 2.71 36.878 0.258 7.92 4.95 13.31
12/15/2021 5:45:00 PM 2.74 36.932 0.258 7.91 4.82 13.27
12/15/2021 6:00:00 PM 2.76 36.968 0.259 7.9 5.32 13.22
12/15/2021 6:15:00 PM 2.79 37.022 0.259 7.89 5.4 13.18
12/15/2021 6:30:00 PM 2.81 37.058 0.26 7.87 5.63 13.15
12/15/2021 6:45:00 PM 2.83 37.094 0.26 7.87 5.64 13.12
12/15/2021 7:00:00 PM 2.87 37.166 0.26 7.85 5.7 13.09
12/15/2021 7:15:00 PM 2.9 37.22 0.259 7.85 6.06 13.06
12/15/2021 7:30:00 PM 2.93 37.274 0.259 7.83 6.13 13.03
12/15/2021 7:45:00 PM 2.97 37.346 0.26 7.83 6.12 13
12/15/2021 8:00:00 PM 3.01 37.418 0.26 7.82 6.41 12.98
12/15/2021 8:15:00 PM 3.03 37.454 0.259 7.82 6.92 12.95
12/15/2021 8:30:00 PM 3.05 37.49 0.258 7.81 6.79 12.93
12/15/2021 8:45:00 PM 3.05 37.49 0.257 7.81 7.27 12.92
12/15/2021 9:00:00 PM 3.05 37.49 0.257 7.8 7.16 12.91
12/15/2021 9:15:00 PM 3.06 37.508 0.256 7.8 7.26 12.9
12/15/2021 9:30:00 PM 3.07 37.526 0.255 7.8 7.52 12.89
12/15/2021 9:45:00 PM 3.07 37.526 0.255 7.8 8.1 12.88
12/15/2021 10:00:00 PM 3.08 37.544 0.254 7.8 8.22 12.88
12/15/2021 10:15:00 PM 3.1 37.58 0.254 7.8 8.58 12.87
12/15/2021 10:30:00 PM 3.1 37.58 0.253 7.79 8.9 12.87
12/15/2021 10:45:00 PM 3.1 37.58 0.253 7.8 8.26 12.86
12/15/2021 11:00:00 PM 3.1 37.58 0.253 7.8 8.65 12.86
12/15/2021 11:15:00 PM 3.09 37.562 0.253 7.8 9.64 12.86
12/15/2021 11:30:00 PM 3.11 37.598 0.252 7.8 9.68 12.85
12/15/2021 11:45:00 PM 3.13 37.634 0.252 7.8 10.3 12.84
12/16/2021 12:00:00 AM 3.14 37.652 0.252 7.8 10.46 12.84
12/16/2021 12:15:00 AM 3.15 37.67 0.252 7.79 11.14 12.84
12/16/2021 12:30:00 AM 3.14 37.652 0.252 7.8 11.77 12.83
12/16/2021 12:45:00 AM 3.14 37.652 0.252 7.8 12.56 12.83
12/16/2021 1:00:00 AM 3.14 37.652 0.252 7.8 13.05 12.82
12/16/2021 1:15:00 AM 3.15 37.67 0.252 7.8 11.98 12.82
12/16/2021 1:30:00 AM 3.16 37.688 0.251 7.79 12.72 12.82
12/16/2021 1:45:00 AM 3.18 37.724 0.251 7.79 12.13 12.81
12/16/2021 2:00:00 AM 3.2 37.76 0.251 7.79 12.08 12.8
12/16/2021 2:15:00 AM 3.22 37.796 0.251 7.79 11.76 12.79
12/16/2021 2:30:00 AM 3.23 37.814 0.252 7.78 13.27 12.78
12/16/2021 2:45:00 AM 3.24 37.832 0.254 7.79 12.37 12.78
12/16/2021 3:00:00 AM 3.26 37.868 0.255 7.79 11.55 12.77
12/16/2021 3:15:00 AM 3.27 37.886 0.255 7.78 11.93 12.76
12/16/2021 3:30:00 AM 3.28 37.904 0.255 7.78 12.74 12.76
12/16/2021 3:45:00 AM 3.29 37.922 0.254 7.78 11.54 12.75
12/16/2021 4:00:00 AM 3.31 37.958 0.254 7.78 11.46 12.74
12/16/2021 4:15:00 AM 3.32 37.976 0.254 7.77 11.41 12.74
12/16/2021 4:30:00 AM 3.33 37.994 0.254 7.78 11.55 12.73
12/16/2021 4:45:00 AM 3.34 38.012 0.253 7.77 11.44 12.72
12/16/2021 5:00:00 AM 3.35 38.03 0.253 7.78 10.33 12.72
12/16/2021 5:15:00 AM 3.36 38.048 0.253 7.77 10.66 12.7
12/16/2021 5:30:00 AM 3.36 38.048 0.253 7.77 9.74 12.71
12/16/2021 5:45:00 AM 3.37 38.066 0.253 7.77 9.39 12.7
12/16/2021 6:00:00 AM 3.37 38.066 0.252 7.77 9.64 12.68
12/16/2021 6:15:00 AM 3.38 38.084 0.252 7.76 9.01 12.68
12/16/2021 6:30:00 AM 3.39 38.102 0.252 7.77 10.03 12.67
12/16/2021 6:45:00 AM 3.39 38.102 0.252 7.77 9.1 12.67
12/16/2021 7:00:00 AM 3.39 38.102 0.252 7.77 9.02 12.67
12/16/2021 7:15:00 AM 3.39 38.102 0.252 7.76 9.18 12.66
12/16/2021 7:30:00 AM 3.39 38.102 0.252 7.76 9.04 12.66
12/16/2021 7:45:00 AM 3.39 38.102 0.252 7.77 8.19 12.69
12/16/2021 8:00:00 AM 3.4 38.12 0.251 7.78 7.9 12.72
12/16/2021 8:15:00 AM 3.41 38.138 0.251 7.79 8 12.81
12/16/2021 8:30:00 AM 3.43 38.174 0.251 7.82 8.59 12.92
12/16/2021 8:45:00 AM 3.46 38.228 0.251 7.85 7.57 13.04
12/16/2021 9:00:00 AM 3.49 38.282 0.251 7.89 7.52 13.19
12/16/2021 9:15:00 AM 3.55 38.39 0.251 7.93 7.67 13.33
12/16/2021 9:30:00 AM 3.63 38.534 0.251 8 7.35 13.47
12/16/2021 9:45:00 AM 3.73 38.714 0.251 8.05 7.47 13.62
12/16/2021 10:00:00 AM 3.84 38.912 0.25 8.12 7.34 13.73
12/16/2021 10:15:00 AM 3.94 39.092 0.251 8.18 7.12 13.82
12/16/2021 10:30:00 AM 4.05 39.29 0.251 8.22 6.92 13.88
12/16/2021 10:45:00 AM 4.13 39.434 0.252 8.27 6.74 13.94
12/16/2021 11:00:00 AM 4.23 39.614 0.253 8.32 6.6 13.97
12/16/2021 11:15:00 AM 4.36 39.848 0.252 8.37 6.58 14.02
12/16/2021 11:30:00 AM 4.47 40.046 0.251 8.41 6.39 14.06
12/16/2021 11:45:00 AM 4.52 40.136 0.251 8.45 6.42 14.07
12/16/2021 12:00:00 PM 4.6 40.28 0.25 8.47 5.9 14.07
12/16/2021 12:15:00 PM 4.69 40.442 0.249 8.52 6.13 14.08
12/16/2021 12:30:00 PM 4.77 40.586 0.249 8.55 6.01 14.06
12/16/2021 12:45:00 PM 4.85 40.73 0.249 8.57 5.98 14.01
12/16/2021 1:00:00 PM 4.9 40.82 0.248 8.58 5.64 13.89
12/16/2021 1:15:00 PM 4.96 40.928 0.248 8.57 5.9 13.75
12/16/2021 1:30:00 PM 5.01 41.018 0.248 8.55 5.8 13.64
12/16/2021 1:45:00 PM 5.09 41.162 0.248 8.57 5.36 13.58
12/16/2021 2:00:00 PM 5.21 41.378 0.248 8.59 5.59 13.54
12/16/2021 2:15:00 PM 5.34 41.612 0.248 8.6 5.12 13.53
12/16/2021 2:30:00 PM 5.5 41.9 0.248 8.63 5.28 13.58
12/16/2021 2:45:00 PM 5.65 42.17 0.247 8.69 5.14 13.66
12/16/2021 3:00:00 PM 5.78 42.404 0.247 8.7 4.94 13.61
12/16/2021 3:15:00 PM 5.87 42.566 0.247 8.7 4.97 13.43
12/16/2021 3:30:00 PM 5.94 42.692 0.247 8.68 5.04 13.28
12/16/2021 3:45:00 PM 6.01 42.818 0.247 8.65 4.93 13.12
12/16/2021 4:00:00 PM 6.07 42.926 0.247 8.62 5.1 12.95
12/16/2021 4:15:00 PM 6.13 43.034 0.248 8.59 4.93 12.83
12/16/2021 4:30:00 PM 6.17 43.106 0.248 8.54 4.71 12.63
12/16/2021 4:45:00 PM 6.22 43.196 0.248 8.46 4.88 12.45
12/16/2021 5:00:00 PM 6.26 43.268 0.248 8.4 4.82 12.29
12/16/2021 5:15:00 PM 6.32 43.376 0.249 8.34 4.78 12.17
12/16/2021 5:30:00 PM 6.4 43.52 0.249 8.29 4.88 12.07
12/16/2021 5:45:00 PM 6.47 43.646 0.249 8.24 4.93 11.99
12/16/2021 6:00:00 PM 6.56 43.808 0.249 8.19 6.26 11.92
12/16/2021 6:15:00 PM 6.63 43.934 0.25 8.16 4.88 11.85
12/16/2021 6:30:00 PM 6.69 44.042 0.251 8.11 4.9 11.78
12/16/2021 6:45:00 PM 6.75 44.15 0.252 8.07 4.88 11.72
12/16/2021 7:00:00 PM 6.8 44.24 0.251 8.04 4.77 11.67
12/16/2021 7:15:00 PM 6.86 44.348 0.251 8 4.95 11.62
12/16/2021 7:30:00 PM 6.89 44.402 0.25 7.97 4.9 11.57
12/16/2021 7:45:00 PM 6.93 44.474 0.25 7.93 4.86 11.53
12/16/2021 8:00:00 PM 6.96 44.528 0.25 7.92 4.79 11.51
12/16/2021 8:15:00 PM 6.99 44.582 0.25 7.9 5.14 11.47
12/16/2021 8:30:00 PM 7 44.6 0.25 7.88 5.55 11.44
12/16/2021 8:45:00 PM 7.04 44.672 0.25 7.86 6 11.42
12/16/2021 9:00:00 PM 7.07 44.726 0.25 7.85 7.26 11.4
12/16/2021 9:15:00 PM 7.11 44.798 0.25 7.84 9.55 11.38
12/16/2021 9:30:00 PM 7.13 44.834 0.25 7.83 12.96 11.36
12/16/2021 9:45:00 PM 7.16 44.888 0.251 7.82 16.82 11.34
12/16/2021 10:00:00 PM 7.18 44.924 0.251 7.81 19.16 11.33
12/16/2021 10:15:00 PM 7.2 44.96 0.251 7.8 18.09 11.31
12/16/2021 10:30:00 PM 7.22 44.996 0.251 7.8 18.13 11.3
12/16/2021 10:45:00 PM 7.24 45.032 0.251 7.79 12.65 11.29
12/16/2021 11:00:00 PM 7.23 45.014 0.251 7.79 15.91 11.28
12/16/2021 11:15:00 PM 7.2 44.96 0.251 7.8 16.74 11.29
12/16/2021 11:30:00 PM 7.15 44.87 0.251 7.79 15.28 11.28
12/16/2021 11:45:00 PM 7.11 44.798 0.251 7.79 14.18 11.29
12/17/2021 12:00:00 AM 7.08 44.744 0.251 7.79 15.1 11.3
12/17/2021 12:15:00 AM 7.05 44.69 0.251 7.78 15.32 11.3
12/17/2021 12:30:00 AM 7.01 44.618 0.251 7.79 16.02 11.31
12/17/2021 12:45:00 AM 6.96 44.528 0.248 7.78 22.19 11.32
12/17/2021 1:00:00 AM 6.89 44.402 0.251 7.78 14.42 11.34
12/17/2021 1:15:00 AM 6.83 44.294 0.252 7.78 12.67 11.35
12/17/2021 1:30:00 AM 6.76 44.168 0.252 7.78 11.31 11.37
12/17/2021 1:45:00 AM 6.7 44.06 0.252 7.78 10.28 11.39
12/17/2021 2:00:00 AM 6.63 43.934 0.253 7.77 10.63 11.4
12/17/2021 2:15:00 AM 6.55 43.79 0.255 7.77 8.24 11.43
12/17/2021 2:30:00 AM 6.47 43.646 0.255 7.77 7.31 11.45
12/17/2021 2:45:00 AM 6.39 43.502 0.255 7.77 7.08 11.48
12/17/2021 3:00:00 AM 6.31 43.358 0.255 7.77 6.75 11.51
12/17/2021 3:15:00 AM 6.23 43.214 0.254 7.77 6.59 11.54
12/17/2021 3:30:00 AM 6.15 43.07 0.254 7.76 6.38 11.56
12/17/2021 3:45:00 AM 6.06 42.908 0.254 7.77 6.06 11.59
12/17/2021 4:00:00 AM 5.97 42.746 0.253 7.77 7.47 11.62
12/17/2021 4:15:00 AM 5.88 42.584 0.253 7.77 5.76 11.66
12/17/2021 4:30:00 AM 5.79 42.422 0.253 7.76 5.41 11.69
12/17/2021 4:45:00 AM 5.7 42.26 0.253 7.76 5.56 11.73
12/17/2021 5:00:00 AM 5.6 42.08 0.254 7.76 5.3 11.75
12/17/2021 5:15:00 AM 5.52 41.936 0.254 7.76 5.27 11.78
12/17/2021 5:30:00 AM 5.44 41.792 0.254 7.76 5.43 11.81
12/17/2021 5:45:00 AM 5.34 41.612 0.254 7.76 5.01 11.85
12/17/2021 6:00:00 AM 5.26 41.468 0.254 7.76 5.2 11.87
12/17/2021 6:15:00 AM 5.18 41.324 0.254 7.76 4.92 11.91
12/17/2021 6:30:00 AM 5.09 41.162 0.254 7.76 5.15 11.94
12/17/2021 6:45:00 AM 5.01 41.018 0.254 7.76 4.97 11.97
12/17/2021 7:00:00 AM 4.93 40.874 0.254 7.77 4.84 12
12/17/2021 7:15:00 AM 4.84 40.712 0.254 7.76 4.95 12.02
12/17/2021 7:30:00 AM 4.76 40.568 0.255 7.75 4.86 12.07
12/17/2021 7:45:00 AM 4.68 40.424 0.255 7.76 4.64 12.12
12/17/2021 8:00:00 AM 4.61 40.298 0.255 7.78 4.93 12.22
12/17/2021 8:15:00 AM 4.54 40.172 0.255 7.79 4.82 12.35
12/17/2021 8:30:00 AM 4.49 40.082 0.255 7.82 4.62 12.48
12/17/2021 8:45:00 AM 4.44 39.992 0.255 7.85 4.58 12.65
12/17/2021 9:00:00 AM 4.4 39.92 0.255 7.89 4.3 12.85
12/17/2021 9:15:00 AM 4.36 39.848 0.255 7.94 4.35 13.02
12/17/2021 9:30:00 AM 4.37 39.866 0.255 7.99 4.17 13.2
12/17/2021 9:45:00 AM 4.42 39.956 0.256 8.07 4.38 13.4
12/17/2021 10:00:00 AM 4.46 40.028 0.257 8.13 4.15 13.55
12/17/2021 10:15:00 AM 4.5 40.1 0.257 8.19 4.11 13.68
12/17/2021 10:30:00 AM 4.55 40.19 0.256 8.25 4.2 13.79
12/17/2021 10:45:00 AM 4.6 40.28 0.256 8.3 4.15 13.87
12/17/2021 11:00:00 AM 4.63 40.334 0.255 8.34 4.06 13.96
12/17/2021 11:15:00 AM 4.67 40.406 0.255 8.38 4.52 14.01
12/17/2021 11:30:00 AM 4.73 40.514 0.254 8.42 4.01 14.07
12/17/2021 11:45:00 AM 4.78 40.604 0.254 8.46 3.81 14.12
12/17/2021 12:00:00 PM 4.83 40.694 0.254 8.49 4.03 14.14
12/17/2021 12:15:00 PM 4.86 40.748 0.253 8.53 3.86 14.17
12/17/2021 12:30:00 PM 4.9 40.82 0.253 8.56 3.55 14.19
12/17/2021 12:45:00 PM 4.95 40.91 0.253 8.59 3.98 14.21
12/17/2021 1:00:00 PM 4.98 40.964 0.252 8.62 4.05 14.21
12/17/2021 1:15:00 PM 5 41 0.252 8.64 3.86 14.2
12/17/2021 1:30:00 PM 5.05 41.09 0.252 8.68 3.75 14.22
12/17/2021 1:45:00 PM 5.07 41.126 0.252 8.7 3.68 14.19
12/17/2021 2:00:00 PM 5.09 41.162 0.252 8.73 3.62 14.18
12/17/2021 2:15:00 PM 5.09 41.162 0.251 8.74 3.45 14.15
12/17/2021 2:30:00 PM 5.07 41.126 0.251 8.75 3.34 14.11
12/17/2021 2:45:00 PM 5.04 41.072 0.251 8.76 3.46 14.04
12/17/2021 3:00:00 PM 5.04 41.072 0.251 8.77 3.4 14.01
12/17/2021 3:15:00 PM 5.04 41.072 0.251 8.77 3.26 13.98
12/17/2021 3:30:00 PM 5.02 41.036 0.251 8.77 3.6 13.92
12/17/2021 3:45:00 PM 5.01 41.018 0.251 8.76 3.42 13.8
12/17/2021 4:00:00 PM 5 41 0.251 8.74 3.37 13.68
12/17/2021 4:15:00 PM 4.97 40.946 0.251 8.71 3.55 13.51
12/17/2021 4:30:00 PM 4.94 40.892 0.252 8.66 3.27 13.31
12/17/2021 4:45:00 PM 4.91 40.838 0.252 8.61 3.46 13.12
12/17/2021 5:00:00 PM 4.88 40.784 0.253 8.55 4 12.95
12/17/2021 5:15:00 PM 4.85 40.73 0.253 8.49 4.52 12.82
12/17/2021 5:30:00 PM 4.83 40.694 0.254 8.41 5.47 12.71
12/17/2021 5:45:00 PM 4.8 40.64 0.256 8.34 7.24 12.62
12/17/2021 6:00:00 PM 4.77 40.586 0.256 8.28 8.12 12.56
12/17/2021 6:15:00 PM 4.75 40.55 0.256 8.22 8.77 12.52
12/17/2021 6:30:00 PM 4.72 40.496 0.255 8.18 8.75 12.49
12/17/2021 6:45:00 PM 4.69 40.442 0.255 8.13 7.69 12.46
12/17/2021 7:00:00 PM 4.65 40.37 0.255 8.1 7.2 12.44
12/17/2021 7:15:00 PM 4.61 40.298 0.254 8.06 6.41 12.42
12/17/2021 7:30:00 PM 4.56 40.208 0.254 8.03 5.65 12.42
12/17/2021 7:45:00 PM 4.52 40.136 0.254 8.01 5.43 12.4
12/17/2021 8:00:00 PM 4.47 40.046 0.255 7.98 4.65 12.39
12/17/2021 8:15:00 PM 4.43 39.974 0.255 7.96 4.38 12.38
12/17/2021 8:30:00 PM 4.39 39.902 0.255 7.93 4.22 12.37
12/17/2021 8:45:00 PM 4.34 39.812 0.255 7.91 4.51 12.37
12/17/2021 9:00:00 PM 4.3 39.74 0.255 7.89 4.3 12.36
12/17/2021 9:15:00 PM 4.25 39.65 0.255 7.87 4.51 12.37
12/17/2021 9:30:00 PM 4.21 39.578 0.255 7.85 4.39 12.36
12/17/2021 9:45:00 PM 4.16 39.488 0.256 7.83 4.8 12.37
12/17/2021 10:00:00 PM 4.12 39.416 0.256 7.82 5.09 12.38
12/17/2021 10:15:00 PM 4.09 39.362 0.256 7.81 5.07 12.39
12/17/2021 10:30:00 PM 4.05 39.29 0.256 7.8 5.65 12.4
12/17/2021 10:45:00 PM 4.01 39.218 0.256 7.8 5.48 12.41
12/17/2021 11:00:00 PM 3.97 39.146 0.256 7.78 5.15 12.42
12/17/2021 11:15:00 PM 3.92 39.056 0.256 7.78 5.28 12.44
12/17/2021 11:30:00 PM 3.88 38.984 0.256 7.77 6.08 12.45
12/17/2021 11:45:00 PM 3.84 38.912 0.256 7.77 5.95 12.46
12/18/2021 12:00:00 AM 3.81 38.858 0.257 7.76 5.78 12.48
12/18/2021 12:15:00 AM 3.77 38.786 0.257 7.76 6.04 12.49
12/18/2021 12:30:00 AM 3.73 38.714 0.257 7.76 5.93 12.5
12/18/2021 12:45:00 AM 3.69 38.642 0.257 7.75 6.06 12.51
12/18/2021 1:00:00 AM 3.66 38.588 0.258 7.74 6.72 12.52
12/18/2021 1:15:00 AM 3.62 38.516 0.259 7.75 6.31 12.54
12/18/2021 1:30:00 AM 3.6 38.48 0.26 7.74 6.84 12.54
12/18/2021 1:45:00 AM 3.58 38.444 0.261 7.74 6.99 12.55
12/18/2021 2:00:00 AM 3.56 38.408 0.261 7.74 7.51 12.55
12/18/2021 2:15:00 AM 3.54 38.372 0.261 7.74 7.21 12.56
12/18/2021 2:30:00 AM 3.52 38.336 0.26 7.74 7.08 12.57
12/18/2021 2:45:00 AM 3.51 38.318 0.259 7.74 7 12.58
12/18/2021 3:00:00 AM 3.49 38.282 0.259 7.74 6.9 12.58
12/18/2021 3:15:00 AM 3.48 38.264 0.259 7.74 6.02 12.59
12/18/2021 3:30:00 AM 3.46 38.228 0.259 7.73 6.15 12.6
12/18/2021 3:45:00 AM 3.46 38.228 0.258 7.73 5.75 12.59
12/18/2021 4:00:00 AM 3.45 38.21 0.258 7.74 5.01 12.6
12/18/2021 4:15:00 AM 3.44 38.192 0.258 7.74 5.37 12.6
12/18/2021 4:30:00 AM 3.44 38.192 0.259 7.74 4.77 12.6
12/18/2021 4:45:00 AM 3.43 38.174 0.259 7.73 4.72 12.6
12/18/2021 5:00:00 AM 3.42 38.156 0.259 7.74 4.44 12.61
12/18/2021 5:15:00 AM 3.41 38.138 0.259 7.74 4.3 12.61
12/18/2021 5:30:00 AM 3.4 38.12 0.259 7.74 4.14 12.6
12/18/2021 5:45:00 AM 3.39 38.102 0.259 7.74 4.24 12.61
12/18/2021 6:00:00 AM 3.38 38.084 0.259 7.74 4.14 12.61
12/18/2021 6:15:00 AM 3.37 38.066 0.259 7.74 3.85 12.61
12/18/2021 6:30:00 AM 3.37 38.066 0.259 7.74 3.85 12.62
12/18/2021 6:45:00 AM 3.36 38.048 0.259 7.74 3.85 12.62
12/18/2021 7:00:00 AM 3.35 38.03 0.259 7.74 3.74 12.62
12/18/2021 7:15:00 AM 3.35 38.03 0.259 7.74 3.72 12.61
12/18/2021 7:30:00 AM 3.34 38.012 0.259 7.74 3.81 12.62
12/18/2021 7:45:00 AM 3.34 38.012 0.259 7.75 3.8 12.63
12/18/2021 8:00:00 AM 3.34 38.012 0.259 7.75 3.77 12.68
12/18/2021 8:15:00 AM 3.34 38.012 0.259 7.76 4.14 12.74
12/18/2021 8:30:00 AM 3.34 38.012 0.259 7.78 3.79 12.82
12/18/2021 8:45:00 AM 3.34 38.012 0.261 7.79 3.89 12.87
12/18/2021 9:00:00 AM 3.35 38.03 0.262 7.82 3.88 12.96
12/18/2021 9:15:00 AM 3.36 38.048 0.262 7.83 4.12 13.08
12/18/2021 9:30:00 AM 3.37 38.066 0.261 7.87 4.21 13.2
12/18/2021 9:45:00 AM 3.37 38.066 0.26 7.9 4.37 13.26
12/18/2021 10:00:00 AM 3.37 38.066 0.259 7.91 4.21 13.33
12/18/2021 10:15:00 AM 3.37 38.066 0.258 7.95 4.67 13.38
12/18/2021 10:30:00 AM 3.38 38.084 0.258 7.96 4.74 13.43
12/18/2021 10:45:00 AM 3.39 38.102 0.257 8 5.05 13.51
12/18/2021 11:00:00 AM 3.42 38.156 0.257 8.04 6.31 13.65
12/18/2021 11:15:00 AM 3.44 38.192 0.258 8.1 4.63 13.78
12/18/2021 11:30:00 AM 3.46 38.228 0.257 8.15 4.75 13.88
12/18/2021 11:45:00 AM 3.47 38.246 0.256 8.2 5.64 13.9
12/18/2021 12:00:00 PM 3.48 38.264 0.256 8.21 5.58 13.89
12/18/2021 12:15:00 PM 3.49 38.282 0.257 8.23 5.21 13.89
12/18/2021 12:30:00 PM 3.51 38.318 0.258 8.26 5.71 13.9
12/18/2021 12:45:00 PM 3.52 38.336 0.262 8.27 6.32 13.88
12/18/2021 1:00:00 PM 3.53 38.354 0.265 8.29 6.63 13.87
12/18/2021 1:15:00 PM 3.56 38.408 0.267 8.32 7.18 13.87
12/18/2021 1:30:00 PM 3.58 38.444 0.268 8.33 7.3 13.86
12/18/2021 1:45:00 PM 3.6 38.48 0.269 8.35 7.45 13.84
12/18/2021 2:00:00 PM 3.62 38.516 0.27 8.37 7.78 13.82
12/18/2021 2:15:00 PM 3.65 38.57 0.273 8.37 7.94 13.77
12/18/2021 2:30:00 PM 3.68 38.624 0.276 8.37 9.01 13.73
12/18/2021 2:45:00 PM 3.7 38.66 0.277 8.38 10 13.64
12/18/2021 3:00:00 PM 3.71 38.678 0.279 8.35 11.93 13.55
12/18/2021 3:15:00 PM 3.73 38.714 0.278 8.31 13.31 13.41
12/18/2021 3:30:00 PM 3.74 38.732 0.276 8.27 15.72 13.3
12/18/2021 3:45:00 PM 3.75 38.75 0.274 8.23 18.33 13.19
12/18/2021 4:00:00 PM 3.76 38.768 0.272 8.16 24.66 13.07
12/18/2021 4:15:00 PM 3.75 38.75 0.269 8.09 29.77 12.94
12/18/2021 4:30:00 PM 3.75 38.75 0.265 8.02 41.54 12.83
12/18/2021 4:45:00 PM 3.74 38.732 0.262 7.98 44.09 12.75
12/18/2021 5:00:00 PM 3.73 38.714 0.26 7.94 54.62 12.7
12/18/2021 5:15:00 PM 3.73 38.714 0.259 7.92 64.43 12.66
12/18/2021 5:30:00 PM 3.72 38.696 0.257 7.9 72.95 12.64
12/18/2021 5:45:00 PM 3.72 38.696 0.256 7.89 74.93 12.62
12/18/2021 6:00:00 PM 3.72 38.696 0.257 7.87 81.88 12.61
12/18/2021 6:15:00 PM 3.73 38.714 0.259 7.86 80.79 12.59
12/18/2021 6:30:00 PM 3.74 38.732 0.263 7.85 84.33 12.59
12/18/2021 6:45:00 PM 3.75 38.75 0.267 7.85 89.37 12.57
12/18/2021 7:00:00 PM 3.76 38.768 0.271 7.84 80.73 12.56
12/18/2021 7:15:00 PM 3.77 38.786 0.273 7.83 78.36 12.56
12/18/2021 7:30:00 PM 3.78 38.804 0.274 7.82 80.69 12.56
12/18/2021 7:45:00 PM 3.79 38.822 0.274 7.82 82.76 12.55
12/18/2021 8:00:00 PM 3.8 38.84 0.274 7.81 76.49 12.55
12/18/2021 8:15:00 PM 3.8 38.84 0.274 7.81 71.85 12.54
12/18/2021 8:30:00 PM 3.81 38.858 0.273 7.8 70.68 12.54
12/18/2021 8:45:00 PM 3.81 38.858 0.272 7.79 68.81 12.53
12/18/2021 9:00:00 PM 3.82 38.876 0.271 7.8 70.13 12.53
12/18/2021 9:15:00 PM 3.82 38.876 0.27 7.79 42.82 12.54
12/18/2021 9:30:00 PM 3.83 38.894 0.269 7.79 62.7 12.53
12/18/2021 9:45:00 PM 3.83 38.894 0.268 7.79 62.12 12.53
12/18/2021 10:00:00 PM 3.83 38.894 0.267 7.78 55.05 12.53
12/18/2021 10:15:00 PM 3.81 38.858 0.266 7.78 60.67 12.53
12/18/2021 10:30:00 PM 3.8 38.84 0.265 7.78 57.69 12.54
12/18/2021 10:45:00 PM 3.79 38.822 0.264 7.79 55.02 12.54
12/18/2021 11:00:00 PM 3.76 38.768 0.264 7.78 56.13 12.55
12/18/2021 11:15:00 PM 3.74 38.732 0.264 7.78 52.61 12.56
12/18/2021 11:30:00 PM 3.71 38.678 0.265 7.78 47.44 12.57
12/18/2021 11:45:00 PM 3.68 38.624 0.265 7.78 48.67 12.58
12/19/2021 12:00:00 AM 3.65 38.57 0.265 7.78 35.11 12.59
12/19/2021 12:15:00 AM 3.61 38.498 0.265 7.78 45.96 12.61
12/19/2021 12:30:00 AM 3.57 38.426 0.264 7.77 42.77 12.62
12/19/2021 12:45:00 AM 3.54 38.372 0.264 7.77 43.77 12.63
12/19/2021 1:00:00 AM 3.5 38.3 0.264 7.77 41.98 12.65
12/19/2021 1:15:00 AM 3.46 38.228 0.263 7.77 40.46 12.67
12/19/2021 1:30:00 AM 3.42 38.156 0.262 7.78 38.02 12.68
12/19/2021 1:45:00 AM 3.38 38.084 0.261 7.77 37.98 12.7
12/19/2021 2:00:00 AM 3.34 38.012 0.26 7.77 36.58 12.72
12/19/2021 2:15:00 AM 3.3 37.94 0.26 7.77 36.92 12.74
12/19/2021 2:30:00 AM 3.27 37.886 0.259 7.77 36.99 12.76
12/19/2021 2:45:00 AM 3.23 37.814 0.258 7.77 35.61 12.77
12/19/2021 3:00:00 AM 3.2 37.76 0.257 7.77 35.9 12.79
12/19/2021 3:15:00 AM 3.16 37.688 0.257 7.76 34.93 12.8
12/19/2021 3:30:00 AM 3.13 37.634 0.256 7.77 40.54 12.82
12/19/2021 3:45:00 AM 3.1 37.58 0.255 7.76 35.95 12.83
12/19/2021 4:00:00 AM 3.06 37.508 0.255 7.77 33.51 12.84
12/19/2021 4:15:00 AM 3.03 37.454 0.255 7.76 31.9 12.86
12/19/2021 4:30:00 AM 3 37.4 0.254 7.76 32.6 12.87
12/19/2021 4:45:00 AM 2.97 37.346 0.254 7.76 30.38 12.88
12/19/2021 5:00:00 AM 2.96 37.328 0.254 7.76 31.83 12.88
12/19/2021 5:15:00 AM 2.93 37.274 0.255 7.76 31.56 12.9
12/19/2021 5:30:00 AM 2.9 37.22 0.255 7.75 31.48 12.9
12/19/2021 5:45:00 AM 2.87 37.166 0.255 7.75 28.61 12.91
12/19/2021 6:00:00 AM 2.83 37.094 0.254 7.75 29.28 12.93
12/19/2021 6:15:00 AM 2.79 37.022 0.253 7.75 29.24 12.94
12/19/2021 6:30:00 AM 2.75 36.95 0.253 7.75 26.76 12.96
12/19/2021 6:45:00 AM 2.71 36.878 0.252 7.75 25.93 12.98
12/19/2021 7:00:00 AM 2.67 36.806 0.252 7.74 26.03 12.99
12/19/2021 7:15:00 AM 2.63 36.734 0.252 7.75 24.49 13.01
12/19/2021 7:30:00 AM 2.6 36.68 0.252 7.75 24.64 13.03
12/19/2021 7:45:00 AM 2.56 36.608 0.252 7.74 24.71 13.04
12/19/2021 8:00:00 AM 2.53 36.554 0.251 7.74 22.81 13.05
12/19/2021 8:15:00 AM 2.49 36.482 0.251 7.74 23.18 13.07
12/19/2021 8:30:00 AM 2.46 36.428 0.251 7.74 21.78 13.11
12/19/2021 8:45:00 AM 2.42 36.356 0.251 7.75 20.6 13.14
12/19/2021 9:00:00 AM 2.39 36.302 0.251 7.76 18.59 13.21
12/19/2021 9:15:00 AM 2.37 36.266 0.251 7.78 19.36 13.3
12/19/2021 9:30:00 AM 2.35 36.23 0.251 7.79 19.42 13.36
12/19/2021 9:45:00 AM 2.32 36.176 0.251 7.8 18.62 13.41
12/19/2021 10:00:00 AM 2.31 36.158 0.251 7.82 18.36 13.47
12/19/2021 10:15:00 AM 2.28 36.104 0.251 7.83 18.19 13.53
12/19/2021 10:30:00 AM 2.28 36.104 0.251 7.86 17.97 13.63
12/19/2021 10:45:00 AM 2.3 36.14 0.251 7.9 16.92 13.76
12/19/2021 11:00:00 AM 2.32 36.176 0.25 7.95 15.92 13.9
12/19/2021 11:15:00 AM 2.36 36.248 0.25 8.01 18.06 13.99
12/19/2021 11:30:00 AM 2.4 36.32 0.25 8.05 15.19 14.07
12/19/2021 11:45:00 AM 2.43 36.374 0.25 8.1 14.32 14.16
12/19/2021 12:00:00 PM 2.45 36.41 0.25 8.13 14.45 14.2
12/19/2021 12:15:00 PM 2.49 36.482 0.25 8.17 13.01 14.26
12/19/2021 12:30:00 PM 2.53 36.554 0.25 8.21 12.96 14.3
12/19/2021 12:45:00 PM 2.58 36.644 0.249 8.26 13.11 14.33
12/19/2021 1:00:00 PM 2.61 36.698 0.249 8.28 11.88 14.33
12/19/2021 1:15:00 PM 2.63 36.734 0.25 8.32 12.99 14.34
12/19/2021 1:30:00 PM 2.67 36.806 0.251 8.34 13.15 14.34
12/19/2021 1:45:00 PM 2.75 36.95 0.251 8.38 11.73 14.34
12/19/2021 2:00:00 PM 2.81 37.058 0.251 8.42 11.63 14.37
12/19/2021 2:15:00 PM 2.85 37.13 0.251 8.44 10.51 14.36
12/19/2021 2:30:00 PM 2.89 37.202 0.25 8.46 11.1 14.35
12/19/2021 2:45:00 PM 2.9 37.22 0.249 8.47 10.6 14.32
12/19/2021 3:00:00 PM 2.9 37.22 0.249 8.47 10.33 14.27
12/19/2021 3:15:00 PM 2.88 37.184 0.249 8.46 10.28 14.21
12/19/2021 3:30:00 PM 2.87 37.166 0.249 8.45 10.06 14.16
12/19/2021 3:45:00 PM 2.84 37.112 0.249 8.43 9.54 14.08
12/19/2021 4:00:00 PM 2.82 37.076 0.249 8.39 9.75 13.98
12/19/2021 4:15:00 PM 2.77 36.986 0.249 8.35 9.67 13.9
12/19/2021 4:30:00 PM 2.7 36.86 0.249 8.29 9.1 13.78
12/19/2021 4:45:00 PM 2.64 36.752 0.249 8.23 9.56 13.68
12/19/2021 5:00:00 PM 2.6 36.68 0.249 8.18 9 13.59
12/19/2021 5:15:00 PM 2.57 36.626 0.249 8.12 9.48 13.52
12/19/2021 5:30:00 PM 2.53 36.554 0.25 8.08 9.75 13.46
12/19/2021 5:45:00 PM 2.48 36.464 0.25 8.03 8.63 13.43
12/19/2021 6:00:00 PM 2.42 36.356 0.25 8 8.86 13.4
12/19/2021 6:15:00 PM 2.35 36.23 0.25 7.96 8.46 13.38
12/19/2021 6:30:00 PM 2.29 36.122 0.25 7.94 8.25 13.37
12/19/2021 6:45:00 PM 2.24 36.032 0.25 7.91 7.91 13.36
12/19/2021 7:00:00 PM 2.2 35.96 0.25 7.89 8.08 13.35
12/19/2021 7:15:00 PM 2.13 35.834 0.25 7.87 7.89 13.33
12/19/2021 7:30:00 PM 2.06 35.708 0.25 7.85 7.76 13.34
12/19/2021 7:45:00 PM 1.99 35.582 0.25 7.83 8.39 13.34
12/19/2021 8:00:00 PM 1.93 35.474 0.25 7.82 7.69 13.34
12/19/2021 8:15:00 PM 1.87 35.366 0.25 7.8 7.64 13.35
12/19/2021 8:30:00 PM 1.81 35.258 0.25 7.79 7.94 13.36
12/19/2021 8:45:00 PM 1.74 35.132 0.251 7.78 8.03 13.37
12/19/2021 9:00:00 PM 1.69 35.042 0.251 7.77 8.33 13.39
12/19/2021 9:15:00 PM 1.66 34.988 0.252 7.76 7.64 13.4
12/19/2021 9:30:00 PM 1.63 34.934 0.253 7.76 7.35 13.41
12/19/2021 9:45:00 PM 1.57 34.826 0.254 7.75 7.93 13.43
12/19/2021 10:00:00 PM 1.51 34.718 0.254 7.74 7.57 13.44
12/19/2021 10:15:00 PM 1.45 34.61 0.253 7.75 7.07 13.47
12/19/2021 10:30:00 PM 1.38 34.484 0.253 7.74 7.65 13.49
12/19/2021 10:45:00 PM 1.33 34.394 0.252 7.74 7.11 13.5
12/19/2021 11:00:00 PM 1.26 34.268 0.252 7.73 7.57 13.53
12/19/2021 11:15:00 PM 1.2 34.16 0.252 7.73 6.95 13.55
12/19/2021 11:30:00 PM 1.14 34.052 0.252 7.73 7.31 13.57
12/19/2021 11:45:00 PM 1.09 33.962 0.252 7.73 6.83 13.6
12/20/2021 12:00:00 AM 1.04 33.872 0.253 7.72 7.45 13.61
12/20/2021 12:15:00 AM 1 33.8 0.253 7.72 6.83 13.63
12/20/2021 12:30:00 AM 0.96 33.728 0.253 7.72 7.13 13.65
12/20/2021 12:45:00 AM 0.93 33.674 0.253 7.71 6.98 13.67
12/20/2021 1:00:00 AM 0.88 33.584 0.253 7.71 7.28 13.69
12/20/2021 1:15:00 AM 0.84 33.512 0.253 7.72 6.58 13.7
12/20/2021 1:30:00 AM 0.77 33.386 0.254 7.71 6.63 13.73
12/20/2021 1:45:00 AM 0.7 33.26 0.254 7.71 6.67 13.74
12/20/2021 2:00:00 AM 0.65 33.17 0.254 7.71 6.78 13.77
12/20/2021 2:15:00 AM 0.6 33.08 0.254 7.71 6.53 13.79
12/20/2021 2:30:00 AM 0.55 32.99 0.254 7.7 6.51 13.8
12/20/2021 2:45:00 AM 0.5 32.9 0.255 7.71 6.43 13.82
12/20/2021 3:00:00 AM 0.45 32.81 0.255 7.7 6.84 13.84
12/20/2021 3:15:00 AM 0.41 32.738 0.255 7.7 6.12 13.86
12/20/2021 3:30:00 AM 0.37 32.666 0.255 7.7 6.61 13.87
12/20/2021 3:45:00 AM 0.33 32.594 0.255 7.7 6.16 13.88
12/20/2021 4:00:00 AM 0.28 32.504 0.256 7.7 6.09 13.91
12/20/2021 4:15:00 AM 0.23 32.414 0.256 7.7 6.17 13.92
12/20/2021 4:30:00 AM 0.2 32.36 0.256 7.69 6.12 13.94
12/20/2021 4:45:00 AM 0.16 32.288 0.256 7.7 6.03 13.96
12/20/2021 5:00:00 AM 0.12 32.216 0.257 7.69 6.2 13.97
12/20/2021 5:15:00 AM 0.09 32.162 0.258 7.69 6.15 13.98
12/20/2021 5:30:00 AM 0.06 32.108 0.259 7.69 5.93 13.99
12/20/2021 5:45:00 AM 0.04 32.072 0.26 7.69 6.17 14.02
12/20/2021 6:00:00 AM 0.05 32.09 0.261 7.69 5.96 14.03
12/20/2021 6:15:00 AM 0.06 32.108 0.261 7.68 6.24 14.03
12/20/2021 6:30:00 AM 0.06 32.108 0.261 7.69 6.12 14.04
12/20/2021 6:45:00 AM 0.06 32.108 0.26 7.69 6.22 14.04
12/20/2021 7:00:00 AM 0.06 32.108 0.26 7.7 6.82 14.05
12/20/2021 7:15:00 AM 0.06 32.108 0.259 7.7 7.06 14.05
12/20/2021 7:30:00 AM 0.06 32.108 0.259 7.7 6.85 14.05
12/20/2021 7:45:00 AM 0.06 32.108 0.259 7.7 7.25 14.07
12/20/2021 8:00:00 AM 0.06 32.108 0.259 7.71 6.89 14.12
12/20/2021 8:15:00 AM 0.06 32.108 0.258 7.72 7.5 14.21
12/20/2021 8:30:00 AM 0.06 32.108 0.258 7.74 6.65 14.32
12/20/2021 8:45:00 AM 0.06 32.108 0.258 7.75 6.04 14.41
12/20/2021 9:00:00 AM 0.06 32.108 0.258 7.78 5.69 14.53
12/20/2021 9:15:00 AM 0.06 32.108 0.258 7.79 6.63 14.63
12/20/2021 9:30:00 AM 0.06 32.108 0.257 7.84 6.61 14.78
12/20/2021 9:45:00 AM 0.09 32.162 0.257 7.89 6.06 14.94
12/20/2021 10:00:00 AM 0.14 32.252 0.257 7.94 6.02 15.09
12/20/2021 10:15:00 AM 0.21 32.378 0.257 7.98 6.61 15.14
12/20/2021 10:30:00 AM 0.3 32.54 0.256 8.01 6.29 15.17
12/20/2021 10:45:00 AM 0.48 32.864 0.256 8.06 5.89 15.24
12/20/2021 11:00:00 AM 0.61 33.098 0.257 8.09 6.1 15.28
12/20/2021 11:15:00 AM 0.71 33.278 0.257 8.13 5.72 15.31
12/20/2021 11:30:00 AM 0.79 33.422 0.257 8.17 6 15.33
12/20/2021 11:45:00 AM 0.83 33.494 0.257 8.21 5.83 15.33
12/20/2021 12:00:00 PM 0.86 33.548 0.258 8.22 5.63 15.32
12/20/2021 12:15:00 PM 0.92 33.656 0.258 8.25 5.5 15.32
12/20/2021 12:30:00 PM 0.98 33.764 0.259 8.27 5.8 15.31
12/20/2021 12:45:00 PM 1.06 33.908 0.259 8.3 5.71 15.28
12/20/2021 1:00:00 PM 1.14 34.052 0.26 8.34 5.22 15.27
12/20/2021 1:15:00 PM 1.21 34.178 0.262 8.37 5.92 15.25
12/20/2021 1:30:00 PM 1.28 34.304 0.264 8.4 5.6 15.24
12/20/2021 1:45:00 PM 1.35 34.43 0.265 8.43 5.96 15.22
12/20/2021 2:00:00 PM 1.38 34.484 0.264 8.44 5.95 15.2
12/20/2021 2:15:00 PM 1.42 34.556 0.264 8.47 6.39 15.19
12/20/2021 2:30:00 PM 1.44 34.592 0.263 8.49 6.4 15.16
12/20/2021 2:45:00 PM 1.5 34.7 0.263 8.51 6.82 15.12
12/20/2021 3:00:00 PM 1.51 34.718 0.263 8.52 6.85 15.07
12/20/2021 3:15:00 PM 1.5 34.7 0.263 8.51 6.37 15
12/20/2021 3:30:00 PM 1.47 34.646 0.263 8.49 6.83 14.9
12/20/2021 3:45:00 PM 1.45 34.61 0.263 8.47 6.66 14.8
12/20/2021 4:00:00 PM 1.42 34.556 0.263 8.43 6.9 14.69
12/20/2021 4:15:00 PM 1.4 34.52 0.263 8.39 7.08 14.55
12/20/2021 4:30:00 PM 1.37 34.466 0.263 8.33 6.73 14.4
12/20/2021 4:45:00 PM 1.36 34.448 0.263 8.28 7.65 14.27
12/20/2021 5:00:00 PM 1.34 34.412 0.262 8.22 6.16 14.16
12/20/2021 5:15:00 PM 1.33 34.394 0.262 8.17 6.38 14.05
12/20/2021 5:30:00 PM 1.3 34.34 0.262 8.12 6.43 13.97
12/20/2021 5:45:00 PM 1.28 34.304 0.262 8.09 6.53 13.9
12/20/2021 6:00:00 PM 1.26 34.268 0.261 8.04 6.15 13.86
12/20/2021 6:15:00 PM 1.24 34.232 0.261 8.01 5.72 13.81
12/20/2021 6:30:00 PM 1.22 34.196 0.261 7.98 5.8 13.77
12/20/2021 6:45:00 PM 1.19 34.142 0.261 7.95 6.09 13.74
12/20/2021 7:00:00 PM 1.17 34.106 0.261 7.92 6.22 13.72
12/20/2021 7:15:00 PM 1.14 34.052 0.262 7.9 5.92 13.7
12/20/2021 7:30:00 PM 1.11 33.998 0.262 7.89 6.07 13.68
12/20/2021 7:45:00 PM 1.08 33.944 0.262 7.87 6.07 13.66
12/20/2021 8:00:00 PM 1.05 33.89 0.262 7.85 5.96 13.65
12/20/2021 8:15:00 PM 1.03 33.854 0.263 7.83 6.02 13.64
12/20/2021 8:30:00 PM 1 33.8 0.264 7.83 5.82 13.63
12/20/2021 8:45:00 PM 0.98 33.764 0.265 7.81 5.55 13.62
12/20/2021 9:00:00 PM 0.95 33.71 0.266 7.8 5.56 13.62
12/20/2021 9:15:00 PM 0.93 33.674 0.267 7.79 5.49 13.61
12/20/2021 9:30:00 PM 0.91 33.638 0.267 7.78 5.56 13.61
12/20/2021 9:45:00 PM 0.88 33.584 0.267 7.78 5.23 13.62
12/20/2021 10:00:00 PM 0.85 33.53 0.266 7.77 5.32 13.63
12/20/2021 10:15:00 PM 0.82 33.476 0.265 7.77 5.36 13.64
12/20/2021 10:30:00 PM 0.78 33.404 0.265 7.76 5.31 13.65
12/20/2021 10:45:00 PM 0.74 33.332 0.265 7.76 5.32 13.66
12/20/2021 11:00:00 PM 0.71 33.278 0.265 7.75 5.07 13.67
12/20/2021 11:15:00 PM 0.67 33.206 0.264 7.75 5.34 13.68
12/20/2021 11:30:00 PM 0.63 33.134 0.264 7.75 5.13 13.69
12/20/2021 11:45:00 PM 0.6 33.08 0.264 7.74 5.35 13.71
12/21/2021 12:00:00 AM 0.56 33.008 0.264 7.74 5.02 13.72
12/21/2021 12:15:00 AM 0.52 32.936 0.264 7.74 4.83 13.73
12/21/2021 12:30:00 AM 0.48 32.864 0.264 7.73 4.89 13.74
12/21/2021 12:45:00 AM 0.45 32.81 0.265 7.73 5.08 13.76
12/21/2021 1:00:00 AM 0.41 32.738 0.265 7.73 4.98 13.78
12/21/2021 1:15:00 AM 0.37 32.666 0.265 7.73 4.95 13.79
12/21/2021 1:30:00 AM 0.34 32.612 0.265 7.73 4.45 13.8
12/21/2021 1:45:00 AM 0.3 32.54 0.265 7.73 4.31 13.82
12/21/2021 2:00:00 AM 0.27 32.486 0.265 7.72 4.56 13.83
12/21/2021 2:15:00 AM 0.24 32.432 0.265 7.72 4.88 13.84
12/21/2021 2:30:00 AM 0.21 32.378 0.265 7.72 4.47 13.85
12/21/2021 2:45:00 AM 0.18 32.324 0.265 7.72 4.58 13.86
12/21/2021 3:00:00 AM 0.15 32.27 0.265 7.71 4.78 13.87
12/21/2021 3:15:00 AM 0.14 32.252 0.265 7.72 4.62 13.88
12/21/2021 3:30:00 AM 0.15 32.27 0.265 7.71 4.39 13.88
12/21/2021 3:45:00 AM 0.16 32.288 0.265 7.71 4.47 13.89
12/21/2021 4:00:00 AM 0.18 32.324 0.265 7.7 4.58 13.88
12/21/2021 4:15:00 AM 0.2 32.36 0.265 7.71 4.35 13.88
12/21/2021 4:30:00 AM 0.22 32.396 0.266 7.71 4.93 13.87
12/21/2021 4:45:00 AM 0.24 32.432 0.267 7.7 4.8 13.87
12/21/2021 5:00:00 AM 0.26 32.468 0.268 7.71 4.71 13.87
12/21/2021 5:15:00 AM 0.27 32.486 0.268 7.7 4.84 13.85
12/21/2021 5:30:00 AM 0.29 32.522 0.268 7.7 4.58 13.85
12/21/2021 5:45:00 AM 0.31 32.558 0.267 7.71 4.89 13.84
12/21/2021 6:00:00 AM 0.33 32.594 0.267 7.7 4.52 13.83
12/21/2021 6:15:00 AM 0.36 32.648 0.266 7.71 4.58 13.83
12/21/2021 6:30:00 AM 0.37 32.666 0.266 7.7 4.53 13.82
12/21/2021 6:45:00 AM 0.4 32.72 0.266 7.71 4.8 13.81
12/21/2021 7:00:00 AM 0.42 32.756 0.266 7.7 4.6 13.81
12/21/2021 7:15:00 AM 0.45 32.81 0.265 7.71 5.16 13.8
12/21/2021 7:30:00 AM 0.46 32.828 0.266 7.7 5.53 13.8
12/21/2021 7:45:00 AM 0.48 32.864 0.266 7.71 5 13.81
12/21/2021 8:00:00 AM 0.5 32.9 0.266 7.71 5.16 13.85
12/21/2021 8:15:00 AM 0.53 32.954 0.266 7.74 5.27 13.93
12/21/2021 8:30:00 AM 0.56 33.008 0.266 7.75 5.21 14.05
12/21/2021 8:45:00 AM 0.6 33.08 0.267 7.79 4.94 14.2
12/21/2021 9:00:00 AM 0.64 33.152 0.267 7.81 5.01 14.29
12/21/2021 9:15:00 AM 0.68 33.224 0.268 7.85 5.4 14.35
12/21/2021 9:30:00 AM 0.71 33.278 0.268 7.86 5.43 14.39
12/21/2021 9:45:00 AM 0.76 33.368 0.268 7.89 4.99 14.46
12/21/2021 10:00:00 AM 0.82 33.476 0.268 7.93 5.18 14.57
12/21/2021 10:15:00 AM 0.88 33.584 0.268 7.97 5.07 14.66
12/21/2021 10:30:00 AM 0.96 33.728 0.268 8.02 4.77 14.76
12/21/2021 10:45:00 AM 1.03 33.854 0.268 8.05 4.92 14.84
12/21/2021 11:00:00 AM 1.09 33.962 0.268 8.1 4.66 14.91
12/21/2021 11:15:00 AM 1.13 34.034 0.268 8.14 5.04 14.93
12/21/2021 11:30:00 AM 1.19 34.142 0.267 8.17 4.48 14.96
12/21/2021 11:45:00 AM 1.27 34.286 0.267 8.21 4.53 15.01
12/21/2021 12:00:00 PM 1.37 34.466 0.268 8.26 4.67 15.09
12/21/2021 12:15:00 PM 1.52 34.736 0.268 8.31 4.87 15.13
12/21/2021 12:30:00 PM 1.67 35.006 0.268 8.36 4.77 15.19
12/21/2021 12:45:00 PM 1.79 35.222 0.268 8.4 4.85 15.19
12/21/2021 1:00:00 PM 1.87 35.366 0.268 8.44 4.75 15.18
12/21/2021 1:15:00 PM 1.91 35.438 0.267 8.46 4.55 15.17
12/21/2021 1:30:00 PM 1.91 35.438 0.266 8.48 4.6 15.14
12/21/2021 1:45:00 PM 1.93 35.474 0.266 8.51 4.94 15.13
12/21/2021 2:00:00 PM 2 35.6 0.265 8.54 4.55 15.13
12/21/2021 2:15:00 PM 2.09 35.762 0.264 8.55 4.94 15.09
12/21/2021 2:30:00 PM 2.12 35.816 0.264 8.58 5 15.04
12/21/2021 2:45:00 PM 2.13 35.834 0.263 8.59 5.1 15.01
12/21/2021 3:00:00 PM 2.13 35.834 0.263 8.6 5.03 14.96
12/21/2021 3:15:00 PM 2.12 35.816 0.263 8.6 5.46 14.9
12/21/2021 3:30:00 PM 2.09 35.762 0.263 8.59 6.03 14.8
12/21/2021 3:45:00 PM 2.06 35.708 0.263 8.57 5.26 14.69
12/21/2021 4:00:00 PM 2.02 35.636 0.263 8.54 4.73 14.56
12/21/2021 4:15:00 PM 1.99 35.582 0.263 8.5 4.82 14.42
12/21/2021 4:30:00 PM 1.98 35.564 0.263 8.45 4.99 14.25
12/21/2021 4:45:00 PM 1.96 35.528 0.264 8.4 4.59 14.09
12/21/2021 5:00:00 PM 1.95 35.51 0.264 8.34 4.51 13.94
12/21/2021 5:15:00 PM 1.93 35.474 0.264 8.28 4.43 13.81
12/21/2021 5:30:00 PM 1.91 35.438 0.264 8.23 4.28 13.71
12/21/2021 5:45:00 PM 1.87 35.366 0.264 8.18 4.13 13.63
12/21/2021 6:00:00 PM 1.84 35.312 0.264 8.13 4.13 13.58
12/21/2021 6:15:00 PM 1.81 35.258 0.264 8.09 4 13.53
12/21/2021 6:30:00 PM 1.77 35.186 0.265 8.05 3.68 13.5
12/21/2021 6:45:00 PM 1.73 35.114 0.265 8.01 4.23 13.47
12/21/2021 7:00:00 PM 1.68 35.024 0.265 7.99 4.12 13.45
12/21/2021 7:15:00 PM 1.65 34.97 0.265 7.95 3.87 13.43
12/21/2021 7:30:00 PM 1.61 34.898 0.266 7.93 4.01 13.41
12/21/2021 7:45:00 PM 1.56 34.808 0.267 7.91 3.85 13.39
12/21/2021 8:00:00 PM 1.52 34.736 0.267 7.89 3.97 13.39
12/21/2021 8:15:00 PM 1.47 34.646 0.267 7.87 4.09 13.37
12/21/2021 8:30:00 PM 1.43 34.574 0.266 7.86 4.1 13.36
12/21/2021 8:45:00 PM 1.4 34.52 0.266 7.84 4.07 13.35
12/21/2021 9:00:00 PM 1.36 34.448 0.265 7.83 4.09 13.35
12/21/2021 9:15:00 PM 1.32 34.376 0.265 7.82 4.24 13.35
12/21/2021 9:30:00 PM 1.28 34.304 0.265 7.81 3.96 13.36
12/21/2021 9:45:00 PM 1.23 34.214 0.265 7.8 4.37 13.36
12/21/2021 10:00:00 PM 1.19 34.142 0.265 7.8 4.17 13.37
12/21/2021 10:15:00 PM 1.14 34.052 0.264 7.78 4.3 13.37
12/21/2021 10:30:00 PM 1.1 33.98 0.264 7.78 4.31 13.4
12/21/2021 10:45:00 PM 1.05 33.89 0.264 7.78 4.07 13.4
12/21/2021 11:00:00 PM 1.01 33.818 0.264 7.77 4.31 13.42
12/21/2021 11:15:00 PM 0.96 33.728 0.264 7.77 4.4 13.43
12/21/2021 11:30:00 PM 0.91 33.638 0.264 7.76 4.15 13.44
12/21/2021 11:45:00 PM 0.87 33.566 0.264 7.76 4.49 13.46
12/22/2021 12:00:00 AM 0.82 33.476 0.264 7.76 3.96 13.47
12/22/2021 12:15:00 AM 0.78 33.404 0.264 7.76 4 13.49
12/22/2021 12:30:00 AM 0.74 33.332 0.265 7.76 3.99 13.5
12/22/2021 12:45:00 AM 0.7 33.26 0.265 7.76 4.18 13.51
12/22/2021 1:00:00 AM 0.66 33.188 0.265 7.75 4.39 13.53
12/22/2021 1:15:00 AM 0.62 33.116 0.265 7.75 4.32 13.54
12/22/2021 1:30:00 AM 0.59 33.062 0.265 7.75 4.48 13.55
12/22/2021 1:45:00 AM 0.56 33.008 0.265 7.75 4.24 13.55
12/22/2021 2:00:00 AM 0.54 32.972 0.265 7.75 4.23 13.57
12/22/2021 2:15:00 AM 0.51 32.918 0.265 7.75 4.39 13.58
12/22/2021 2:30:00 AM 0.48 32.864 0.265 7.75 4.41 13.58
12/22/2021 2:45:00 AM 0.45 32.81 0.266 7.74 4.21 13.59
12/22/2021 3:00:00 AM 0.43 32.774 0.267 7.74 4.32 13.6
12/22/2021 3:15:00 AM 0.43 32.774 0.268 7.74 3.99 13.61
12/22/2021 3:30:00 AM 0.43 32.774 0.269 7.74 4.17 13.6
12/22/2021 3:45:00 AM 0.43 32.774 0.269 7.74 4.32 13.6
12/22/2021 4:00:00 AM 0.45 32.81 0.268 7.73 4.38 13.6
12/22/2021 4:15:00 AM 0.46 32.828 0.268 7.74 4.29 13.6
12/22/2021 4:30:00 AM 0.47 32.846 0.267 7.74 3.94 13.61
12/22/2021 4:45:00 AM 0.48 32.864 0.267 7.74 4.31 13.6
12/22/2021 5:00:00 AM 0.49 32.882 0.267 7.74 4.14 13.6
12/22/2021 5:15:00 AM 0.5 32.9 0.266 7.74 4.31 13.59
12/22/2021 5:30:00 AM 0.51 32.918 0.266 7.73 3.97 13.59
12/22/2021 5:45:00 AM 0.51 32.918 0.266 7.73 4.09 13.59
12/22/2021 6:00:00 AM 0.52 32.936 0.266 7.73 4.21 13.58
12/22/2021 6:15:00 AM 0.53 32.954 0.266 7.74 4.25 13.58
12/22/2021 6:30:00 AM 0.54 32.972 0.266 7.73 4.17 13.58
12/22/2021 6:45:00 AM 0.55 32.99 0.266 7.74 4.18 13.57
12/22/2021 7:00:00 AM 0.56 33.008 0.266 7.73 3.67 13.57
12/22/2021 7:15:00 AM 0.58 33.044 0.266 7.74 3.97 13.57
12/22/2021 7:30:00 AM 0.59 33.062 0.266 7.72 3.94 13.56
12/22/2021 7:45:00 AM 0.61 33.098 0.266 7.73 3.94 13.56
12/22/2021 8:00:00 AM 0.64 33.152 0.266 7.74 3.94 13.55
12/22/2021 8:15:00 AM 0.67 33.206 0.266 7.74 3.82 13.56
12/22/2021 8:30:00 AM 0.69 33.242 0.267 7.74 3.96 13.59
12/22/2021 8:45:00 AM 0.72 33.296 0.266 7.76 3.96 13.69
12/22/2021 9:00:00 AM 0.75 33.35 0.266 7.79 3.73 13.84
12/22/2021 9:15:00 AM 0.78 33.404 0.266 7.81 3.81 14
12/22/2021 9:30:00 AM 0.81 33.458 0.266 7.85 3.97 14.09
12/22/2021 9:45:00 AM 0.82 33.476 0.266 7.88 4.11 14.14
12/22/2021 10:00:00 AM 0.83 33.494 0.267 7.89 4.14 14.13
12/22/2021 10:15:00 AM 0.87 33.566 0.266 7.91 4.5 14.19
12/22/2021 10:30:00 AM 0.9 33.62 0.266 7.95 4.23 14.33
12/22/2021 10:45:00 AM 0.95 33.71 0.267 7.99 4.21 14.47
12/22/2021 11:00:00 AM 1 33.8 0.268 8.05 3.96 14.58
12/22/2021 11:15:00 AM 1.01 33.818 0.268 8.08 4.12 14.63
12/22/2021 11:30:00 AM 1.02 33.836 0.269 8.12 3.96 14.63
12/22/2021 11:45:00 AM 1.06 33.908 0.268 8.12 3.92 14.64
12/22/2021 12:00:00 PM 1.15 34.07 0.267 8.18 3.71 14.79
12/22/2021 12:15:00 PM 1.21 34.178 0.266 8.23 3.75 14.86
12/22/2021 12:30:00 PM 1.21 34.178 0.266 8.27 3.73 14.91
12/22/2021 12:45:00 PM 1.24 34.232 0.265 8.31 3.55 14.94
12/22/2021 1:00:00 PM 1.2 34.16 0.265 8.33 3.43 14.93
12/22/2021 1:15:00 PM 1.18 34.124 0.265 8.34 3.27 14.95
12/22/2021 1:30:00 PM 1.21 34.178 0.264 8.38 3.82 15.02
12/22/2021 1:45:00 PM 1.24 34.232 0.264 8.42 3.55 15.08
12/22/2021 2:00:00 PM 1.28 34.304 0.264 8.47 3.49 15.1
12/22/2021 2:15:00 PM 1.27 34.286 0.264 8.48 3.35 15.06
12/22/2021 2:30:00 PM 1.24 34.232 0.264 8.48 3.6 15
12/22/2021 2:45:00 PM 1.19 34.142 0.264 8.48 3.39 14.93
12/22/2021 3:00:00 PM 1.15 34.07 0.264 8.46 3.49 14.86
12/22/2021 3:15:00 PM 1.13 34.034 0.264 8.45 3.27 14.8
12/22/2021 3:30:00 PM 1.12 34.016 0.264 8.44 3.32 14.72
12/22/2021 3:45:00 PM 1.11 33.998 0.264 8.42 3.24 14.64
12/22/2021 4:00:00 PM 1.09 33.962 0.264 8.38 3.29 14.5
12/22/2021 4:15:00 PM 1.07 33.926 0.264 8.34 3.23 14.39
12/22/2021 4:30:00 PM 1.04 33.872 0.264 8.3 3.25 14.28
12/22/2021 4:45:00 PM 1.01 33.818 0.264 8.25 3.43 14.18
12/22/2021 5:00:00 PM 0.99 33.782 0.264 8.21 3.46 14.1
12/22/2021 5:15:00 PM 0.97 33.746 0.264 8.17 3.33 14.04
12/22/2021 5:30:00 PM 0.95 33.71 0.264 8.14 3.34 13.96
12/22/2021 5:45:00 PM 0.94 33.692 0.264 8.1 3.59 13.92
12/22/2021 6:00:00 PM 0.93 33.674 0.265 8.07 3.3 13.89
12/22/2021 6:15:00 PM 0.91 33.638 0.265 8.05 3.35 13.85
12/22/2021 6:30:00 PM 0.89 33.602 0.266 8.01 3.52 13.83
12/22/2021 6:45:00 PM 0.88 33.584 0.267 7.99 3.34 13.8
12/22/2021 7:00:00 PM 0.86 33.548 0.267 7.96 2.95 13.78
12/22/2021 7:15:00 PM 0.84 33.512 0.267 7.95 3.33 13.77
12/22/2021 7:30:00 PM 0.81 33.458 0.266 7.93 3.43 13.75
12/22/2021 7:45:00 PM 0.8 33.44 0.266 7.9 3.28 13.73
12/22/2021 8:00:00 PM 0.77 33.386 0.266 7.89 3.5 13.73
12/22/2021 8:15:00 PM 0.76 33.368 0.265 7.87 3.18 13.71
12/22/2021 8:30:00 PM 0.73 33.314 0.265 7.86 3.4 13.7
12/22/2021 8:45:00 PM 0.69 33.242 0.265 7.85 3.1 13.7
12/22/2021 9:00:00 PM 0.66 33.188 0.265 7.82 3.38 13.7
12/22/2021 9:15:00 PM 0.64 33.152 0.265 7.82 3.18 13.7
12/22/2021 9:30:00 PM 0.61 33.098 0.265 7.81 3.34 13.7
12/22/2021 9:45:00 PM 0.6 33.08 0.265 7.81 3.24 13.7
12/22/2021 10:00:00 PM 0.58 33.044 0.265 7.79 3.24 13.71
12/22/2021 10:15:00 PM 0.55 32.99 0.265 7.79 3.41 13.71
12/22/2021 10:30:00 PM 0.53 32.954 0.265 7.78 3.4 13.72
12/22/2021 10:45:00 PM 0.5 32.9 0.265 7.78 3.18 13.73
12/22/2021 11:00:00 PM 0.48 32.864 0.265 7.77 3.32 13.74
12/22/2021 11:15:00 PM 0.45 32.81 0.265 7.77 3.07 13.75
12/22/2021 11:30:00 PM 0.43 32.774 0.265 7.77 3.31 13.75
12/22/2021 11:45:00 PM 0.41 32.738 0.265 7.77 3.21 13.76
12/23/2021 12:00:00 AM 0.39 32.702 0.265 7.76 3.21 13.77
12/23/2021 12:15:00 AM 0.37 32.666 0.265 7.76 3.39 13.78
12/23/2021 12:30:00 AM 0.34 32.612 0.265 7.76 3.26 13.79
12/23/2021 12:45:00 AM 0.33 32.594 0.265 7.76 3.15 13.8
12/23/2021 1:00:00 AM 0.31 32.558 0.265 7.76 3.14 13.8
12/23/2021 1:15:00 AM 0.28 32.504 0.265 7.76 3.19 13.81
12/23/2021 1:30:00 AM 0.25 32.45 0.265 7.75 3.28 13.82
12/23/2021 1:45:00 AM 0.23 32.414 0.266 7.75 3.23 13.83
12/23/2021 2:00:00 AM 0.21 32.378 0.267 7.75 3.33 13.84
12/23/2021 2:15:00 AM 0.21 32.378 0.268 7.74 3.15 13.85
12/23/2021 2:30:00 AM 0.2 32.36 0.269 7.75 3.26 13.85
12/23/2021 2:45:00 AM 0.19 32.342 0.27 7.75 3.08 13.86
12/23/2021 3:00:00 AM 0.18 32.324 0.269 7.75 3.4 13.86
12/23/2021 3:15:00 AM 0.16 32.288 0.269 7.74 3.64 13.87
12/23/2021 3:30:00 AM 0.14 32.252 0.268 7.75 3.4 13.88
12/23/2021 3:45:00 AM 0.13 32.234 0.268 7.74 3.66 13.88
12/23/2021 4:00:00 AM 0.12 32.216 0.267 7.75 3.91 13.89
12/23/2021 4:15:00 AM 0.11 32.198 0.267 7.74 3.66 13.89
12/23/2021 4:30:00 AM 0.1 32.18 0.267 7.75 3.93 13.9
12/23/2021 4:45:00 AM 0.1 32.18 0.267 7.74 3.79 13.9
12/23/2021 5:00:00 AM 0.09 32.162 0.267 7.74 3.97 13.91
12/23/2021 5:15:00 AM 0.09 32.162 0.267 7.74 4.09 13.91
12/23/2021 5:30:00 AM 0.09 32.162 0.267 7.74 4.13 13.92
12/23/2021 5:45:00 AM 0.07 32.126 0.267 7.74 3.96 13.91
12/23/2021 6:00:00 AM 0.07 32.126 0.267 7.74 4.25 13.92
12/23/2021 6:15:00 AM 0.07 32.126 0.267 7.75 4.16 13.92
12/23/2021 6:30:00 AM 0.07 32.126 0.267 7.75 4.18 13.93
12/23/2021 6:45:00 AM 0.07 32.126 0.267 7.74 4.04 13.92
12/23/2021 7:00:00 AM 0.07 32.126 0.267 7.75 4.11 13.93
12/23/2021 7:15:00 AM 0.07 32.126 0.267 7.73 3.81 13.94
12/23/2021 7:30:00 AM 0.06 32.108 0.267 7.75 3.88 13.94
12/23/2021 7:45:00 AM 0.07 32.126 0.267 7.74 3.63 13.95
12/23/2021 8:00:00 AM 0.07 32.126 0.267 7.74 3.55 14.01
12/23/2021 8:15:00 AM 0.07 32.126 0.267 7.75 3.61 14.1
12/23/2021 8:30:00 AM 0.08 32.144 0.267 7.77 3.92 14.23
12/23/2021 8:45:00 AM 0.11 32.198 0.267 7.8 3.58 14.39
12/23/2021 9:00:00 AM 0.13 32.234 0.267 7.84 3.65 14.6
12/23/2021 9:15:00 AM 0.16 32.288 0.267 7.88 3.72 14.79
12/23/2021 9:30:00 AM 0.2 32.36 0.267 7.94 3.76 14.94
12/23/2021 9:45:00 AM 0.27 32.486 0.267 7.99 3.46 15.09
12/23/2021 10:00:00 AM 0.34 32.612 0.268 8.05 3.57 15.2
12/23/2021 10:15:00 AM 0.44 32.792 0.269 8.09 3.65 15.28
12/23/2021 10:30:00 AM 0.51 32.918 0.269 8.14 3.48 15.34
12/23/2021 10:45:00 AM 0.57 33.026 0.268 8.19 3.51 15.4
12/23/2021 11:00:00 AM 0.6 33.08 0.268 8.23 3.45 15.44
12/23/2021 11:15:00 AM 0.66 33.188 0.267 8.26 3.22 15.48
12/23/2021 11:30:00 AM 0.78 33.404 0.267 8.3 3.48 15.51
12/23/2021 11:45:00 AM 0.82 33.476 0.266 8.34 3.34 15.54
12/23/2021 12:00:00 PM 0.82 33.476 0.266 8.35 3.31 15.49
12/23/2021 12:15:00 PM 0.85 33.53 0.266 8.37 3.24 15.49
12/23/2021 12:30:00 PM 0.92 33.656 0.266 8.4 3.35 15.5
12/23/2021 12:45:00 PM 0.92 33.656 0.266 8.43 3.27 15.53
12/23/2021 1:00:00 PM 1.04 33.872 0.265 8.46 3.17 15.53
12/23/2021 1:15:00 PM 1.2 34.16 0.265 8.51 3.3 15.56
12/23/2021 1:30:00 PM 1.32 34.376 0.265 8.55 3.4 15.57
12/23/2021 1:45:00 PM 1.4 34.52 0.265 8.58 3.32 15.56
12/23/2021 2:00:00 PM 1.42 34.556 0.265 8.6 3.52 15.55
12/23/2021 2:15:00 PM 1.4 34.52 0.265 8.63 3.56 15.55
12/23/2021 2:30:00 PM 1.34 34.412 0.265 8.64 3.51 15.52
12/23/2021 2:45:00 PM 1.32 34.376 0.265 8.66 3.29 15.49
12/23/2021 3:00:00 PM 1.32 34.376 0.265 8.67 3.33 15.42
12/23/2021 3:15:00 PM 1.34 34.412 0.265 8.67 3.91 15.32
12/23/2021 3:30:00 PM 1.34 34.412 0.265 8.66 4.66 15.21
12/23/2021 3:45:00 PM 1.33 34.394 0.265 8.65 4.88 15.15
12/23/2021 4:00:00 PM 1.3 34.34 0.265 8.64 4.66 15.06
12/23/2021 4:15:00 PM 1.28 34.304 0.265 8.62 4.08 14.98
12/23/2021 4:30:00 PM 1.26 34.268 0.266 8.58 4.78 14.8
12/23/2021 4:45:00 PM 1.24 34.232 0.266 8.52 4.07 14.59
12/23/2021 5:00:00 PM 1.23 34.214 0.266 8.46 3.99 14.42
12/23/2021 5:15:00 PM 1.22 34.196 0.268 8.39 3.7 14.27
12/23/2021 5:30:00 PM 1.23 34.214 0.269 8.34 3.8 14.15
12/23/2021 5:45:00 PM 1.23 34.214 0.269 8.29 3.51 14.08
12/23/2021 6:00:00 PM 1.23 34.214 0.269 8.25 3.68 14.02
12/23/2021 6:15:00 PM 1.23 34.214 0.269 8.22 3.47 13.96
12/23/2021 6:30:00 PM 1.21 34.178 0.269 8.17 3.61 13.91
12/23/2021 6:45:00 PM 1.19 34.142 0.268 8.14 3.58 13.86
12/23/2021 7:00:00 PM 1.17 34.106 0.267 8.1 3.75 13.82
12/23/2021 7:15:00 PM 1.13 34.034 0.267 8.06 3.92 13.79
12/23/2021 7:30:00 PM 1.12 34.016 0.266 8.03 3.7 13.77
12/23/2021 7:45:00 PM 1.1 33.98 0.266 8.01 3.47 13.75
12/23/2021 8:00:00 PM 1.09 33.962 0.266 7.97 3.55 13.72
12/23/2021 8:15:00 PM 1.08 33.944 0.266 7.96 3.6 13.7
12/23/2021 8:30:00 PM 1.06 33.908 0.266 7.93 3.56 13.68
12/23/2021 8:45:00 PM 1.04 33.872 0.266 7.91 3.61 13.66
12/23/2021 9:00:00 PM 1.02 33.836 0.266 7.89 3.45 13.65
12/23/2021 9:15:00 PM 1 33.8 0.266 7.88 3.42 13.63
12/23/2021 9:30:00 PM 0.98 33.764 0.266 7.86 3.56 13.62
12/23/2021 9:45:00 PM 0.97 33.746 0.266 7.84 3.43 13.61
12/23/2021 10:00:00 PM 0.95 33.71 0.266 7.84 3.51 13.6
12/23/2021 10:15:00 PM 0.93 33.674 0.266 7.82 3.61 13.59
12/23/2021 10:30:00 PM 0.92 33.656 0.266 7.82 3.54 13.59
12/23/2021 10:45:00 PM 0.9 33.62 0.266 7.8 3.32 13.59
12/23/2021 11:00:00 PM 0.89 33.602 0.266 7.8 3.33 13.59
12/23/2021 11:15:00 PM 0.88 33.584 0.266 7.79 3.55 13.59
12/23/2021 11:30:00 PM 0.87 33.566 0.266 7.79 3.35 13.59
12/23/2021 11:45:00 PM 0.85 33.53 0.266 7.78 3.5 13.59
12/24/2021 12:00:00 AM 0.83 33.494 0.266 7.78 3.37 13.59
12/24/2021 12:15:00 AM 0.82 33.476 0.266 7.78 3.45 13.6
12/24/2021 12:30:00 AM 0.8 33.44 0.266 7.77 3.39 13.59
12/24/2021 12:45:00 AM 0.79 33.422 0.267 7.77 3.26 13.6
12/24/2021 1:00:00 AM 0.78 33.404 0.268 7.76 3.45 13.6
12/24/2021 1:15:00 AM 0.77 33.386 0.269 7.77 3.11 13.6
12/24/2021 1:30:00 AM 0.77 33.386 0.27 7.77 3.43 13.6
12/24/2021 1:45:00 AM 0.77 33.386 0.27 7.76 3.46 13.6
12/24/2021 2:00:00 AM 0.76 33.368 0.269 7.76 3.04 13.61
12/24/2021 2:15:00 AM 0.75 33.35 0.269 7.76 3.2 13.61
12/24/2021 2:30:00 AM 0.75 33.35 0.268 7.76 3.23 13.61
12/24/2021 2:45:00 AM 0.74 33.332 0.268 7.75 3.11 13.61
12/24/2021 3:00:00 AM 0.74 33.332 0.267 7.75 2.98 13.61
12/24/2021 3:15:00 AM 0.74 33.332 0.267 7.76 3.08 13.62
12/24/2021 3:30:00 AM 0.74 33.332 0.267 7.76 3.25 13.62
12/24/2021 3:45:00 AM 0.73 33.314 0.267 7.74 3.15 13.62
12/24/2021 4:00:00 AM 0.73 33.314 0.267 7.75 3.07 13.62
12/24/2021 4:15:00 AM 0.74 33.332 0.266 7.75 3.19 13.62
12/24/2021 4:30:00 AM 0.73 33.314 0.266 7.75 2.95 13.61
12/24/2021 4:45:00 AM 0.73 33.314 0.266 7.75 3.18 13.62
12/24/2021 5:00:00 AM 0.73 33.314 0.266 7.74 3.01 13.62
12/24/2021 5:15:00 AM 0.74 33.332 0.266 7.75 3.09 13.62
12/24/2021 5:30:00 AM 0.74 33.332 0.266 7.74 2.89 13.62
12/24/2021 5:45:00 AM 0.74 33.332 0.266 7.75 3 13.61
12/24/2021 6:00:00 AM 0.75 33.35 0.266 7.74 3 13.62
12/24/2021 6:15:00 AM 0.75 33.35 0.266 7.75 2.96 13.61
12/24/2021 6:30:00 AM 0.75 33.35 0.266 7.75 3.2 13.61
12/24/2021 6:45:00 AM 0.76 33.368 0.266 7.74 3.12 13.61
12/24/2021 7:00:00 AM 0.77 33.386 0.266 7.75 3.01 13.61
12/24/2021 7:15:00 AM 0.77 33.386 0.266 7.75 3.16 13.61
12/24/2021 7:30:00 AM 0.78 33.404 0.266 7.75 3.19 13.62
12/24/2021 7:45:00 AM 0.79 33.422 0.266 7.75 3.17 13.62
12/24/2021 8:00:00 AM 0.79 33.422 0.267 7.75 2.96 13.64
12/24/2021 8:15:00 AM 0.81 33.458 0.267 7.75 3.06 13.68
12/24/2021 8:30:00 AM 0.82 33.476 0.268 7.76 3.12 13.75
12/24/2021 8:45:00 AM 0.85 33.53 0.269 7.78 2.97 13.82
12/24/2021 9:00:00 AM 0.87 33.566 0.27 7.8 2.89 13.9
12/24/2021 9:15:00 AM 0.89 33.602 0.27 7.82 3.16 13.96
12/24/2021 9:30:00 AM 0.91 33.638 0.269 7.83 3.04 14.04
12/24/2021 9:45:00 AM 0.93 33.674 0.268 7.86 3.1 14.13
12/24/2021 10:00:00 AM 0.97 33.746 0.268 7.88 2.94 14.23
12/24/2021 10:15:00 AM 1 33.8 0.267 7.92 2.98 14.35
12/24/2021 10:30:00 AM 1.05 33.89 0.267 7.95 2.99 14.47
12/24/2021 10:45:00 AM 1.11 33.998 0.266 8 2.98 14.6
12/24/2021 11:00:00 AM 1.17 34.106 0.266 8.05 3.02 14.73
12/24/2021 11:15:00 AM 1.24 34.232 0.265 8.11 3.07 14.83
12/24/2021 11:30:00 AM 1.3 34.34 0.265 8.15 2.83 14.9
12/24/2021 11:45:00 AM 1.39 34.502 0.265 8.2 2.87 14.97
12/24/2021 12:00:00 PM 1.55 34.79 0.264 8.25 2.88 15.06
12/24/2021 12:15:00 PM 1.66 34.988 0.264 8.31 2.91 15.15
12/24/2021 12:30:00 PM 1.79 35.222 0.264 8.36 2.81 15.17
12/24/2021 12:45:00 PM 1.9 35.42 0.263 8.4 3.03 15.2
12/24/2021 1:00:00 PM 1.98 35.564 0.263 8.44 2.78 15.19
12/24/2021 1:15:00 PM 2.03 35.654 0.263 8.47 3.05 15.18
12/24/2021 1:30:00 PM 2.05 35.69 0.263 8.51 3.12 15.2
12/24/2021 1:45:00 PM 2.09 35.762 0.263 8.53 2.97 15.21
12/24/2021 2:00:00 PM 2.14 35.852 0.262 8.55 3.07 15.2
12/24/2021 2:15:00 PM 2.2 35.96 0.262 8.58 3.29 15.18
12/24/2021 2:30:00 PM 2.25 36.05 0.262 8.6 3.65 15.14
12/24/2021 2:45:00 PM 2.3 36.14 0.262 8.62 3.78 15.09
12/24/2021 3:00:00 PM 2.3 36.14 0.262 8.64 3.85 15.07
12/24/2021 3:15:00 PM 2.29 36.122 0.262 8.66 3.86 15.04
12/24/2021 3:30:00 PM 2.25 36.05 0.262 8.66 4.07 14.98
12/24/2021 3:45:00 PM 2.25 36.05 0.262 8.66 4.21 14.86
12/24/2021 4:00:00 PM 2.25 36.05 0.263 8.64 4.32 14.75
12/24/2021 4:15:00 PM 2.26 36.068 0.264 8.63 4.19 14.6
12/24/2021 4:30:00 PM 2.25 36.05 0.264 8.59 4.05 14.43
12/24/2021 4:45:00 PM 2.25 36.05 0.264 8.55 4.3 14.25
12/24/2021 5:00:00 PM 2.26 36.068 0.264 8.5 4.03 14.05
12/24/2021 5:15:00 PM 2.28 36.104 0.264 8.44 3.61 13.88
12/24/2021 5:30:00 PM 2.29 36.122 0.264 8.39 3.74 13.73
12/24/2021 5:45:00 PM 2.3 36.14 0.264 8.33 3.56 13.62
12/24/2021 6:00:00 PM 2.32 36.176 0.263 8.29 3.45 13.54
12/24/2021 6:15:00 PM 2.33 36.194 0.263 8.25 3.41 13.47
12/24/2021 6:30:00 PM 2.35 36.23 0.263 8.2 3.36 13.42
12/24/2021 6:45:00 PM 2.36 36.248 0.263 8.17 3.23 13.36
12/24/2021 7:00:00 PM 2.37 36.266 0.263 8.13 3.26 13.32
12/24/2021 7:15:00 PM 2.38 36.284 0.263 8.1 3.24 13.27
12/24/2021 7:30:00 PM 2.38 36.284 0.263 8.06 3.26 13.23
12/24/2021 7:45:00 PM 2.38 36.284 0.263 8.04 3.29 13.21
12/24/2021 8:00:00 PM 2.39 36.302 0.263 8 3.27 13.17
12/24/2021 8:15:00 PM 2.4 36.32 0.263 7.98 3.18 13.15
12/24/2021 8:30:00 PM 2.39 36.302 0.263 7.95 3.25 13.13
12/24/2021 8:45:00 PM 2.38 36.284 0.263 7.93 3.24 13.09
12/24/2021 9:00:00 PM 2.38 36.284 0.263 7.91 3.25 13.07
12/24/2021 9:15:00 PM 2.38 36.284 0.263 7.89 3.49 13.05
12/24/2021 9:30:00 PM 2.37 36.266 0.263 7.88 3.35 13.03
12/24/2021 9:45:00 PM 2.37 36.266 0.263 7.86 3.53 13.02
12/24/2021 10:00:00 PM 2.37 36.266 0.263 7.84 3.7 13.01
12/24/2021 10:15:00 PM 2.37 36.266 0.263 7.84 3.68 12.99
12/24/2021 10:30:00 PM 2.37 36.266 0.263 7.82 3.66 12.99
12/24/2021 10:45:00 PM 2.37 36.266 0.263 7.82 3.5 12.98
12/24/2021 11:00:00 PM 2.37 36.266 0.263 7.8 3.55 12.97
12/24/2021 11:15:00 PM 2.37 36.266 0.264 7.8 3.74 12.96
12/24/2021 11:30:00 PM 2.38 36.284 0.265 7.8 4.02 12.96
12/24/2021 11:45:00 PM 2.38 36.284 0.266 7.8 4.08 12.95
12/25/2021 12:00:00 AM 2.38 36.284 0.266 7.79 3.9 12.94
12/25/2021 12:15:00 AM 2.39 36.302 0.266 7.78 4.2 12.94
12/25/2021 12:30:00 AM 2.39 36.302 0.265 7.78 4.23 12.93
12/25/2021 12:45:00 AM 2.39 36.302 0.264 7.78 4.76 12.93
12/25/2021 1:00:00 AM 2.39 36.302 0.263 7.78 4.23 12.92
12/25/2021 1:15:00 AM 2.39 36.302 0.263 7.78 4.01 12.93
12/25/2021 1:30:00 AM 2.4 36.32 0.262 7.78 4.26 12.92
12/25/2021 1:45:00 AM 2.4 36.32 0.262 7.78 4.5 12.91
12/25/2021 2:00:00 AM 2.41 36.338 0.262 7.77 4.22 12.9
12/25/2021 2:15:00 AM 2.41 36.338 0.262 7.78 4.39 12.91
12/25/2021 2:30:00 AM 2.42 36.356 0.262 7.78 4.29 12.9
12/25/2021 2:45:00 AM 2.43 36.374 0.262 7.77 4.49 12.9
12/25/2021 3:00:00 AM 2.44 36.392 0.262 7.77 4.5 12.89
12/25/2021 3:15:00 AM 2.44 36.392 0.262 7.77 4.83 12.88
12/25/2021 3:30:00 AM 2.45 36.41 0.262 7.77 4.73 12.88
12/25/2021 3:45:00 AM 2.46 36.428 0.262 7.76 4.73 12.86
12/25/2021 4:00:00 AM 2.47 36.446 0.262 7.77 4.75 12.87
12/25/2021 4:15:00 AM 2.48 36.464 0.262 7.77 4.63 12.86
12/25/2021 4:30:00 AM 2.49 36.482 0.262 7.76 5.07 12.85
12/25/2021 4:45:00 AM 2.5 36.5 0.262 7.77 5.11 12.83
12/25/2021 5:00:00 AM 2.51 36.518 0.261 7.76 4.82 12.83
12/25/2021 5:15:00 AM 2.52 36.536 0.261 7.77 5.19 12.83
12/25/2021 5:30:00 AM 2.52 36.536 0.261 7.76 5.1 12.82
12/25/2021 5:45:00 AM 2.53 36.554 0.261 7.77 5.04 12.81
12/25/2021 6:00:00 AM 2.54 36.572 0.261 7.76 5.6 12.8
12/25/2021 6:15:00 AM 2.55 36.59 0.262 7.76 5.04 12.79
12/25/2021 6:30:00 AM 2.56 36.608 0.262 7.76 4.79 12.78
12/25/2021 6:45:00 AM 2.57 36.626 0.264 7.76 5.06 12.78
12/25/2021 7:00:00 AM 2.58 36.644 0.265 7.76 4.94 12.78
12/25/2021 7:15:00 AM 2.59 36.662 0.265 7.76 4.95 12.77
12/25/2021 7:30:00 AM 2.6 36.68 0.264 7.76 5.33 12.76
12/25/2021 7:45:00 AM 2.61 36.698 0.263 7.76 5.09 12.76
12/25/2021 8:00:00 AM 2.62 36.716 0.262 7.76 5.01 12.79
12/25/2021 8:15:00 AM 2.64 36.752 0.261 7.78 5.24 12.82
12/25/2021 8:30:00 AM 2.65 36.77 0.261 7.78 5.44 12.87
12/25/2021 8:45:00 AM 2.67 36.806 0.261 7.8 5.96 12.92
12/25/2021 9:00:00 AM 2.68 36.824 0.261 7.81 5.6 12.98
12/25/2021 9:15:00 AM 2.7 36.86 0.26 7.82 5.31 13.04
12/25/2021 9:30:00 AM 2.72 36.896 0.259 7.85 5.41 13.12
12/25/2021 9:45:00 AM 2.74 36.932 0.259 7.87 5.51 13.19
12/25/2021 10:00:00 AM 2.77 36.986 0.258 7.9 5.22 13.33
12/25/2021 10:15:00 AM 2.82 37.076 0.258 7.95 5.83 13.5
12/25/2021 10:30:00 AM 2.87 37.166 0.258 8.01 5.69 13.65
12/25/2021 10:45:00 AM 2.93 37.274 0.258 8.06 5.9 13.77
12/25/2021 11:00:00 AM 3.01 37.418 0.257 8.14 6.45 13.92
12/25/2021 11:15:00 AM 3.06 37.508 0.257 8.2 6.92 13.97
12/25/2021 11:30:00 AM 3.11 37.598 0.257 8.23 6.93 13.99
12/25/2021 11:45:00 AM 3.17 37.706 0.256 8.28 6.55 14.05
12/25/2021 12:00:00 PM 3.19 37.742 0.256 8.31 7.57 14.03
12/25/2021 12:15:00 PM 3.22 37.796 0.256 8.32 7.2 13.97
12/25/2021 12:30:00 PM 3.26 37.868 0.256 8.34 7.56 13.94
12/25/2021 12:45:00 PM 3.29 37.922 0.256 8.36 7.49 13.94
12/25/2021 1:00:00 PM 3.34 38.012 0.257 8.39 7.25 13.96
12/25/2021 1:15:00 PM 3.41 38.138 0.257 8.43 7.42 13.99
12/25/2021 1:30:00 PM 3.47 38.246 0.258 8.46 7.74 13.96
12/25/2021 1:45:00 PM 3.52 38.336 0.258 8.47 8.36 13.88
12/25/2021 2:00:00 PM 3.58 38.444 0.257 8.49 8.58 13.81
12/25/2021 2:15:00 PM 3.63 38.534 0.255 8.51 10.16 13.77
12/25/2021 2:30:00 PM 3.68 38.624 0.254 8.5 10.34 13.64
12/25/2021 2:45:00 PM 3.73 38.714 0.253 8.48 11.65 13.49
12/25/2021 3:00:00 PM 3.78 38.804 0.253 8.45 12.1 13.43
12/25/2021 3:15:00 PM 3.82 38.876 0.252 8.44 13.26 13.38
12/25/2021 3:30:00 PM 3.87 38.966 0.251 8.41 16.41 13.26
12/25/2021 3:45:00 PM 3.89 39.002 0.25 8.36 11.66 13.13
12/25/2021 4:00:00 PM 3.92 39.056 0.249 8.31 17.96 13.02
12/25/2021 4:15:00 PM 3.94 39.092 0.248 8.25 22.94 12.91
12/25/2021 4:30:00 PM 3.93 39.074 0.248 8.19 23.88 12.81
12/25/2021 4:45:00 PM 3.94 39.092 0.248 8.13 27.78 12.72
12/25/2021 5:00:00 PM 3.95 39.11 0.247 8.08 32.11 12.64
12/25/2021 5:15:00 PM 3.95 39.11 0.248 8.04 32.97 12.59
12/25/2021 5:30:00 PM 3.95 39.11 0.248 8.01 35.52 12.55
12/25/2021 5:45:00 PM 3.97 39.146 0.248 7.98 38.97 12.51
12/25/2021 6:00:00 PM 3.99 39.182 0.248 7.96 39.44 12.48
12/25/2021 6:15:00 PM 4.01 39.218 0.248 7.93 42.49 12.45
12/25/2021 6:30:00 PM 4.02 39.236 0.249 7.92 44.53 12.43
12/25/2021 6:45:00 PM 4.03 39.254 0.249 7.91 44.28 12.41
12/25/2021 7:00:00 PM 4.05 39.29 0.25 7.88 46.38 12.4
12/25/2021 7:15:00 PM 4.06 39.308 0.25 7.88 44.13 12.39
12/25/2021 7:30:00 PM 4.07 39.326 0.251 7.86 47.02 12.37
12/25/2021 7:45:00 PM 4.09 39.362 0.252 7.86 44.77 12.36
12/25/2021 8:00:00 PM 4.11 39.398 0.252 7.85 43.01 12.35
12/25/2021 8:15:00 PM 4.13 39.434 0.253 7.84 39.76 12.34
12/25/2021 8:30:00 PM 4.14 39.452 0.254 7.84 40.05 12.34
12/25/2021 8:45:00 PM 4.16 39.488 0.254 7.83 40.19 12.32
12/25/2021 9:00:00 PM 4.17 39.506 0.254 7.83 42.01 12.32
12/25/2021 9:15:00 PM 4.18 39.524 0.253 7.83 41.06 12.32
12/25/2021 9:30:00 PM 4.2 39.56 0.252 7.82 35.68 12.31
12/25/2021 9:45:00 PM 4.2 39.56 0.251 7.82 37.48 12.31
12/25/2021 10:00:00 PM 4.21 39.578 0.251 7.82 49.45 12.31
12/25/2021 10:15:00 PM 4.21 39.578 0.25 7.81 34.93 12.31
12/25/2021 10:30:00 PM 4.21 39.578 0.25 7.81 33.77 12.31
12/25/2021 10:45:00 PM 4.22 39.596 0.25 7.8 33.51 12.31
12/25/2021 11:00:00 PM 4.21 39.578 0.249 7.8 31.1 12.31
12/25/2021 11:15:00 PM 4.21 39.578 0.249 7.8 32.13 12.31
12/25/2021 11:30:00 PM 4.21 39.578 0.249 7.8 31.05 12.31
12/25/2021 11:45:00 PM 4.21 39.578 0.249 7.79 31.05 12.31
12/26/2021 12:00:00 AM 4.2 39.56 0.249 7.8 32.02 12.31
12/26/2021 12:15:00 AM 4.2 39.56 0.249 7.8 29.95 12.32
12/26/2021 12:30:00 AM 4.18 39.524 0.25 7.79 30.31 12.32
12/26/2021 12:45:00 AM 4.17 39.506 0.25 7.79 21.51 12.33
12/26/2021 1:00:00 AM 4.15 39.47 0.25 7.79 41.47 12.33
12/26/2021 1:15:00 AM 4.14 39.452 0.25 7.79 27.99 12.34
12/26/2021 1:30:00 AM 4.12 39.416 0.25 7.79 27.65 12.34
12/26/2021 1:45:00 AM 4.09 39.362 0.25 7.78 27.45 12.35
12/26/2021 2:00:00 AM 4.06 39.308 0.25 7.79 23.53 12.36
12/26/2021 2:15:00 AM 4.04 39.272 0.25 7.79 24.9 12.37
12/26/2021 2:30:00 AM 4.01 39.218 0.25 7.79 17.69 12.38
12/26/2021 2:45:00 AM 3.99 39.182 0.25 7.79 24.08 12.38
12/26/2021 3:00:00 AM 3.96 39.128 0.25 7.78 21.18 12.4
12/26/2021 3:15:00 AM 3.93 39.074 0.25 7.78 17.75 12.41
12/26/2021 3:30:00 AM 3.91 39.038 0.251 7.78 21 12.42
12/26/2021 3:45:00 AM 3.88 38.984 0.251 7.78 20.33 12.43
12/26/2021 4:00:00 AM 3.86 38.948 0.251 7.78 31.61 12.44
12/26/2021 4:15:00 AM 3.84 38.912 0.252 7.78 17.4 12.44
12/26/2021 4:30:00 AM 3.83 38.894 0.253 7.77 20.9 12.45
12/26/2021 4:45:00 AM 3.8 38.84 0.253 7.77 20.09 12.46
12/26/2021 5:00:00 AM 3.79 38.822 0.253 7.77 19.91 12.47
12/26/2021 5:15:00 AM 3.77 38.786 0.252 7.77 20.45 12.47
12/26/2021 5:30:00 AM 3.75 38.75 0.252 7.76 18.42 12.48
12/26/2021 5:45:00 AM 3.72 38.696 0.252 7.77 15.88 12.5
12/26/2021 6:00:00 AM 3.69 38.642 0.251 7.76 17.25 12.51
12/26/2021 6:15:00 AM 3.66 38.588 0.251 7.77 16.96 12.51
12/26/2021 6:30:00 AM 3.62 38.516 0.251 7.76 16.71 12.52
12/26/2021 6:45:00 AM 3.6 38.48 0.251 7.76 12.26 12.53
12/26/2021 7:00:00 AM 3.58 38.444 0.251 7.76 16.1 12.54
12/26/2021 7:15:00 AM 3.55 38.39 0.251 7.76 16.33 12.55
12/26/2021 7:30:00 AM 3.53 38.354 0.251 7.76 14.73 12.56
12/26/2021 7:45:00 AM 3.5 38.3 0.251 7.77 15.2 12.59
12/26/2021 8:00:00 AM 3.47 38.246 0.251 7.77 14.96 12.65
12/26/2021 8:15:00 AM 3.44 38.192 0.252 7.79 14.22 12.76
12/26/2021 8:30:00 AM 3.41 38.138 0.252 7.8 13.56 12.85
12/26/2021 8:45:00 AM 3.39 38.102 0.252 7.83 14.77 12.96
12/26/2021 9:00:00 AM 3.38 38.084 0.251 7.86 13.64 13.1
12/26/2021 9:15:00 AM 3.39 38.102 0.251 7.91 13.28 13.25
12/26/2021 9:30:00 AM 3.44 38.192 0.251 7.96 12.21 13.4
12/26/2021 9:45:00 AM 3.48 38.264 0.251 8.01 12.03 13.55
12/26/2021 10:00:00 AM 3.5 38.3 0.251 8.06 11.74 13.64
12/26/2021 10:15:00 AM 3.5 38.3 0.251 8.1 11.45 13.69
12/26/2021 10:30:00 AM 3.51 38.318 0.251 8.14 11.07 13.76
12/26/2021 10:45:00 AM 3.59 38.462 0.251 8.19 10.68 13.87
12/26/2021 11:00:00 AM 3.71 38.678 0.25 8.26 10.61 13.99
12/26/2021 11:15:00 AM 3.84 38.912 0.25 8.33 11.03 14.11
12/26/2021 11:30:00 AM 3.84 38.912 0.25 8.37 10.5 14.15
12/26/2021 11:45:00 AM 3.8 38.84 0.25 8.41 9.98 14.13
12/26/2021 12:00:00 PM 3.73 38.714 0.25 8.41 10.18 14.06
12/26/2021 12:15:00 PM 3.69 38.642 0.251 8.42 9.52 14.01
12/26/2021 12:30:00 PM 3.71 38.678 0.251 8.44 9.39 14.01
12/26/2021 12:45:00 PM 3.75 38.75 0.25 8.47 8.95 14.03
12/26/2021 1:00:00 PM 3.79 38.822 0.25 8.51 8.8 14.11
12/26/2021 1:15:00 PM 3.8 38.84 0.249 8.55 8.53 14.15
12/26/2021 1:30:00 PM 3.81 38.858 0.249 8.56 8.64 14.15
12/26/2021 1:45:00 PM 3.81 38.858 0.249 8.59 8.52 14.17
12/26/2021 2:00:00 PM 3.9 39.02 0.249 8.63 7.89 14.21
12/26/2021 2:15:00 PM 4.02 39.236 0.249 8.67 8.14 14.3
12/26/2021 2:30:00 PM 4.11 39.398 0.248 8.7 7.69 14.32
12/26/2021 2:45:00 PM 4.13 39.434 0.248 8.73 7.88 14.29
12/26/2021 3:00:00 PM 4.02 39.236 0.248 8.73 7.32 14.2
12/26/2021 3:15:00 PM 3.93 39.074 0.249 8.71 7.25 14.09
12/26/2021 3:30:00 PM 3.89 39.002 0.248 8.71 7.36 14.06
12/26/2021 3:45:00 PM 3.87 38.966 0.249 8.7 7.42 13.95
12/26/2021 4:00:00 PM 3.84 38.912 0.249 8.69 7.07 13.83
12/26/2021 4:15:00 PM 3.81 38.858 0.249 8.65 6.72 13.69
12/26/2021 4:30:00 PM 3.78 38.804 0.249 8.61 7.2 13.55
12/26/2021 4:45:00 PM 3.76 38.768 0.249 8.56 6.72 13.4
12/26/2021 5:00:00 PM 3.75 38.75 0.249 8.51 6.78 13.27
12/26/2021 5:15:00 PM 3.75 38.75 0.25 8.46 6.68 13.14
12/26/2021 5:30:00 PM 3.75 38.75 0.25 8.4 6.78 13.05
12/26/2021 5:45:00 PM 3.75 38.75 0.25 8.36 6.84 12.99
12/26/2021 6:00:00 PM 3.75 38.75 0.25 8.31 8.14 12.93
12/26/2021 6:15:00 PM 3.74 38.732 0.25 8.27 6.75 12.88
12/26/2021 6:30:00 PM 3.72 38.696 0.25 8.21 6.87 12.85
12/26/2021 6:45:00 PM 3.71 38.678 0.25 8.17 6.61 12.82
12/26/2021 7:00:00 PM 3.69 38.642 0.251 8.12 6.34 12.78
12/26/2021 7:15:00 PM 3.67 38.606 0.251 8.09 6.38 12.76
12/26/2021 7:30:00 PM 3.65 38.57 0.251 8.05 6.61 12.73
12/26/2021 7:45:00 PM 3.63 38.534 0.252 8 6.87 12.7
12/26/2021 8:00:00 PM 3.6 38.48 0.253 7.97 6.2 12.68
12/26/2021 8:15:00 PM 3.59 38.462 0.254 7.94 6.75 12.67
12/26/2021 8:30:00 PM 3.56 38.408 0.255 7.92 6.48 12.66
12/26/2021 8:45:00 PM 3.53 38.354 0.255 7.88 6.43 12.65
12/26/2021 9:00:00 PM 3.5 38.3 0.255 7.88 6.7 12.65
12/26/2021 9:15:00 PM 3.46 38.228 0.242 7.85 7.34 12.65
12/26/2021 9:30:00 PM 3.42 38.156 0.254 7.84 6.33 12.66
12/26/2021 9:45:00 PM 3.38 38.084 0.253 7.83 6.25 12.67
12/26/2021 10:00:00 PM 3.35 38.03 0.253 7.82 6.29 12.67
12/26/2021 10:15:00 PM 3.31 37.958 0.253 7.81 6.07 12.69
12/26/2021 10:30:00 PM 3.28 37.904 0.253 7.8 5.54 12.7
12/26/2021 10:45:00 PM 3.23 37.814 0.253 7.8 6.41 12.72
12/26/2021 11:00:00 PM 3.19 37.742 0.253 7.79 6.14 12.73
12/26/2021 11:15:00 PM 3.16 37.688 0.253 7.78 6.06 12.74
12/26/2021 11:30:00 PM 3.11 37.598 0.253 7.77 5.92 12.75
12/26/2021 11:45:00 PM 3.08 37.544 0.253 7.77 5.62 12.76
12/27/2021 12:00:00 AM 3.05 37.49 0.253 7.77 5.95 12.77
12/27/2021 12:15:00 AM 3.03 37.454 0.253 7.76 6.01 12.78
12/27/2021 12:30:00 AM 3 37.4 0.253 7.76 6.13 12.8
12/27/2021 12:45:00 AM 2.97 37.346 0.254 7.76 5.73 12.8
12/27/2021 1:00:00 AM 2.94 37.292 0.254 7.76 5.85 12.81
12/27/2021 1:15:00 AM 2.91 37.238 0.254 7.75 5.32 12.82
12/27/2021 1:30:00 AM 2.89 37.202 0.254 7.75 5.51 12.83
12/27/2021 1:45:00 AM 2.85 37.13 0.254 7.75 5.26 12.84
12/27/2021 2:00:00 AM 2.82 37.076 0.254 7.75 5.43 12.85
12/27/2021 2:15:00 AM 2.79 37.022 0.254 7.75 5.38 12.86
12/27/2021 2:30:00 AM 2.74 36.932 0.254 7.75 5.22 12.87
12/27/2021 2:45:00 AM 2.7 36.86 0.255 7.74 5.3 12.88
12/27/2021 3:00:00 AM 2.67 36.806 0.255 7.75 5.13 12.89
12/27/2021 3:15:00 AM 2.65 36.77 0.255 7.74 5.49 12.9
12/27/2021 3:30:00 AM 2.63 36.734 0.255 7.75 5.25 12.9
12/27/2021 3:45:00 AM 2.61 36.698 0.256 7.74 5.13 12.91
12/27/2021 4:00:00 AM 2.59 36.662 0.257 7.74 5.33 12.92
12/27/2021 4:15:00 AM 2.57 36.626 0.258 7.74 5.16 12.92
12/27/2021 4:30:00 AM 2.54 36.572 0.259 7.74 5.11 12.92
12/27/2021 4:45:00 AM 2.51 36.518 0.259 7.74 5.07 12.94
12/27/2021 5:00:00 AM 2.49 36.482 0.258 7.73 4.99 12.94
12/27/2021 5:15:00 AM 2.46 36.428 0.258 7.74 4.93 12.95
12/27/2021 5:30:00 AM 2.44 36.392 0.257 7.74 4.98 12.96
12/27/2021 5:45:00 AM 2.41 36.338 0.257 7.74 4.74 12.97
12/27/2021 6:00:00 AM 2.39 36.302 0.257 7.73 4.82 12.98
12/27/2021 6:15:00 AM 2.37 36.266 0.257 7.74 4.64 12.98
12/27/2021 6:30:00 AM 2.35 36.23 0.257 7.74 4.92 12.99
12/27/2021 6:45:00 AM 2.33 36.194 0.257 7.74 4.7 13
12/27/2021 7:00:00 AM 2.31 36.158 0.257 7.73 4.53 13.01
12/27/2021 7:15:00 AM 2.28 36.104 0.257 7.74 4.55 13.01
12/27/2021 7:30:00 AM 2.26 36.068 0.257 7.73 4.61 13.02
12/27/2021 7:45:00 AM 2.24 36.032 0.257 7.73 4.81 13.02
12/27/2021 8:00:00 AM 2.22 35.996 0.257 7.74 4.63 13.04
12/27/2021 8:15:00 AM 2.21 35.978 0.258 7.74 4.87 13.06
12/27/2021 8:30:00 AM 2.19 35.942 0.258 7.74 4.47 13.1
12/27/2021 8:45:00 AM 2.18 35.924 0.258 7.75 4.51 13.13
12/27/2021 9:00:00 AM 2.16 35.888 0.258 7.76 4.68 13.16
12/27/2021 9:15:00 AM 2.15 35.87 0.258 7.77 4.56 13.26
12/27/2021 9:30:00 AM 2.11 35.798 0.258 7.79 4.38 13.41
12/27/2021 9:45:00 AM 2.08 35.744 0.258 7.83 4.36 13.55
12/27/2021 10:00:00 AM 2.08 35.744 0.257 7.87 4.14 13.69
12/27/2021 10:15:00 AM 2.12 35.816 0.257 7.92 4.26 13.91
12/27/2021 10:30:00 AM 2.17 35.906 0.257 7.99 4.09 14.1
12/27/2021 10:45:00 AM 2.22 35.996 0.257 8.06 4.15 14.25
12/27/2021 11:00:00 AM 2.23 36.014 0.257 8.09 4.37 14.25
12/27/2021 11:15:00 AM 2.21 35.978 0.258 8.1 4.04 14.17
12/27/2021 11:30:00 AM 2.19 35.942 0.258 8.09 4.28 14.09
12/27/2021 11:45:00 AM 2.17 35.906 0.258 8.08 4 14.07
12/27/2021 12:00:00 PM 2.13 35.834 0.258 8.1 4.17 14.11
12/27/2021 12:15:00 PM 1.97 35.546 0.258 8.13 3.68 14.16
12/27/2021 12:30:00 PM 1.8 35.24 0.257 8.17 4.14 14.23
12/27/2021 12:45:00 PM 1.82 35.276 0.257 8.2 3.99 14.31
12/27/2021 1:00:00 PM 1.84 35.312 0.256 8.23 3.96 14.37
12/27/2021 1:15:00 PM 1.88 35.384 0.256 8.25 3.93 14.43
12/27/2021 1:30:00 PM 1.97 35.546 0.256 8.29 3.79 14.47
12/27/2021 1:45:00 PM 2.02 35.636 0.257 8.32 3.87 14.49
12/27/2021 2:00:00 PM 2.01 35.618 0.257 8.35 3.95 14.5
12/27/2021 2:15:00 PM 1.99 35.582 0.257 8.36 3.91 14.47
12/27/2021 2:30:00 PM 1.99 35.582 0.257 8.37 3.85 14.4
12/27/2021 2:45:00 PM 2.02 35.636 0.257 8.36 3.56 14.3
12/27/2021 3:00:00 PM 2.05 35.69 0.257 8.33 3.89 14.22
12/27/2021 3:15:00 PM 2.07 35.726 0.256 8.33 3.76 14.18
12/27/2021 3:30:00 PM 2.06 35.708 0.256 8.32 4.05 14.13
12/27/2021 3:45:00 PM 2.04 35.672 0.256 8.3 3.74 14.05
12/27/2021 4:00:00 PM 2.02 35.636 0.256 8.26 3.78 13.96
12/27/2021 4:15:00 PM 2.01 35.618 0.256 8.23 3.78 13.85
12/27/2021 4:30:00 PM 2 35.6 0.256 8.18 3.68 13.75
12/27/2021 4:45:00 PM 2 35.6 0.256 8.14 3.94 13.66
12/27/2021 5:00:00 PM 2 35.6 0.256 8.11 3.72 13.58
12/27/2021 5:15:00 PM 2.01 35.618 0.257 8.08 3.93 13.52
12/27/2021 5:30:00 PM 2.01 35.618 0.257 8.06 3.96 13.46
12/27/2021 5:45:00 PM 2.02 35.636 0.258 8.03 3.93 13.41
12/27/2021 6:00:00 PM 2.03 35.654 0.259 8 3.73 13.36
12/27/2021 6:15:00 PM 2.03 35.654 0.259 7.98 3.81 13.33
12/27/2021 6:30:00 PM 2.03 35.654 0.258 7.95 3.94 13.29
12/27/2021 6:45:00 PM 2.03 35.654 0.261 7.94 4.68 13.27
12/27/2021 7:00:00 PM 2.03 35.654 0.259 7.92 4.46 13.24
12/27/2021 7:15:00 PM 2.05 35.69 0.26 7.9 5.07 13.2
12/27/2021 7:30:00 PM 2.06 35.708 0.261 7.89 4.8 13.18
12/27/2021 7:45:00 PM 2.06 35.708 0.261 7.87 4.31 13.15
12/27/2021 8:00:00 PM 2.06 35.708 0.26 7.86 4.21 13.13
12/27/2021 8:15:00 PM 2.06 35.708 0.259 7.84 5.48 13.11
12/27/2021 8:30:00 PM 2.06 35.708 0.259 7.84 7.48 13.1
12/27/2021 8:45:00 PM 2.06 35.708 0.259 7.83 6.45 13.08
12/27/2021 9:00:00 PM 2.06 35.708 0.259 7.82 6.1 13.07
12/27/2021 9:15:00 PM 2.07 35.726 0.259 7.81 5.34 13.06
12/27/2021 9:30:00 PM 2.08 35.744 0.259 7.81 5.65 13.05
12/27/2021 9:45:00 PM 2.08 35.744 0.259 7.79 5.63 13.03
12/27/2021 10:00:00 PM 2.08 35.744 0.261 7.79 5.71 13.03
12/27/2021 10:15:00 PM 2.09 35.762 0.265 7.78 5.69 13.02
12/27/2021 10:30:00 PM 2.09 35.762 0.271 7.79 6.13 13.01
12/27/2021 10:45:00 PM 2.1 35.78 0.274 7.77 5.99 13.02
12/27/2021 11:00:00 PM 2.1 35.78 0.274 7.78 6.03 13
12/27/2021 11:15:00 PM 2.11 35.798 0.273 7.77 5.42 13
12/27/2021 11:30:00 PM 2.11 35.798 0.271 7.77 5.49 13
12/27/2021 11:45:00 PM 2.12 35.816 0.269 7.76 5.22 13
12/28/2021 12:00:00 AM 2.12 35.816 0.268 7.77 4.84 13
12/28/2021 12:15:00 AM 2.13 35.834 0.266 7.76 4.98 13
12/28/2021 12:30:00 AM 2.14 35.852 0.266 7.77 4.86 13
12/28/2021 12:45:00 AM 2.15 35.87 0.265 7.77 5.08 12.99
12/28/2021 1:00:00 AM 2.16 35.888 0.265 7.77 5.04 12.99
12/28/2021 1:15:00 AM 2.17 35.906 0.265 7.76 5.03 12.99
12/28/2021 1:30:00 AM 2.17 35.906 0.265 7.76 4.96 12.97
12/28/2021 1:45:00 AM 2.18 35.924 0.265 7.76 4.8 12.98
12/28/2021 2:00:00 AM 2.19 35.942 0.265 7.76 4.96 12.98
12/28/2021 2:15:00 AM 2.2 35.96 0.266 7.76 4.74 12.98
12/28/2021 2:30:00 AM 2.2 35.96 0.267 7.76 4.83 12.97
12/28/2021 2:45:00 AM 2.19 35.942 0.268 7.76 4.81 12.98
12/28/2021 3:00:00 AM 2.16 35.888 0.267 7.76 4.82 12.98
12/28/2021 3:15:00 AM 2.13 35.834 0.266 7.75 4.64 12.99
12/28/2021 3:30:00 AM 2.13 35.834 0.265 7.76 4.85 12.99
12/28/2021 3:45:00 AM 2.12 35.816 0.264 7.75 4.64 12.99
12/28/2021 4:00:00 AM 2.11 35.798 0.264 7.75 4.74 13
12/28/2021 4:15:00 AM 2.09 35.762 0.263 7.75 4.77 13
12/28/2021 4:30:00 AM 2.07 35.726 0.263 7.76 4.61 13.01
12/28/2021 4:45:00 AM 2.05 35.69 0.262 7.76 4.75 13.02
12/28/2021 5:00:00 AM 2.03 35.654 0.262 7.76 4.85 13.02
12/28/2021 5:15:00 AM 2.02 35.636 0.262 7.76 4.46 13.02
12/28/2021 5:30:00 AM 1.99 35.582 0.262 7.76 4.71 13.03
12/28/2021 5:45:00 AM 1.97 35.546 0.262 7.76 4.69 13.04
12/28/2021 6:00:00 AM 1.94 35.492 0.262 7.75 4.36 13.05
12/28/2021 6:15:00 AM 1.9 35.42 0.262 7.76 4.58 13.06
12/28/2021 6:30:00 AM 1.87 35.366 0.263 7.76 4.68 13.07
12/28/2021 6:45:00 AM 1.84 35.312 0.263 7.76 4.52 13.09
12/28/2021 7:00:00 AM 1.81 35.258 0.263 7.76 4.54 13.1
12/28/2021 7:15:00 AM 1.78 35.204 0.264 7.76 4.82 13.12
12/28/2021 7:30:00 AM 1.74 35.132 0.264 7.75 4.58 13.13
12/28/2021 7:45:00 AM 1.7 35.06 0.264 7.76 4.68 13.17
12/28/2021 8:00:00 AM 1.67 35.006 0.265 7.77 4.29 13.25
12/28/2021 8:15:00 AM 1.65 34.97 0.265 7.79 4.57 13.36
12/28/2021 8:30:00 AM 1.62 34.916 0.265 7.81 4.73 13.49
12/28/2021 8:45:00 AM 1.6 34.88 0.266 7.84 4.61 13.62
12/28/2021 9:00:00 AM 1.61 34.898 0.266 7.88 4.53 13.78
12/28/2021 9:15:00 AM 1.62 34.916 0.267 7.92 4.84 13.91
12/28/2021 9:30:00 AM 1.65 34.97 0.268 7.96 4.64 14.05
12/28/2021 9:45:00 AM 1.76 35.168 0.269 8.03 4.64 14.23
12/28/2021 10:00:00 AM 1.84 35.312 0.271 8.09 4.57 14.38
12/28/2021 10:15:00 AM 1.87 35.366 0.272 8.16 4.58 14.49
12/28/2021 10:30:00 AM 1.89 35.402 0.272 8.2 4.44 14.57
12/28/2021 10:45:00 AM 1.95 35.51 0.272 8.25 4.61 14.63
12/28/2021 11:00:00 AM 2.05 35.69 0.271 8.3 4.54 14.72
12/28/2021 11:15:00 AM 2.15 35.87 0.271 8.36 4.47 14.78
12/28/2021 11:30:00 AM 2.2 35.96 0.271 8.4 4.72 14.82
12/28/2021 11:45:00 AM 2.2 35.96 0.271 8.44 4.54 14.81
12/28/2021 12:00:00 PM 2.2 35.96 0.271 8.46 4.52 14.83
12/28/2021 12:15:00 PM 2.21 35.978 0.271 8.5 4.44 14.85
12/28/2021 12:30:00 PM 2.27 36.086 0.27 8.53 4.49 14.84
12/28/2021 12:45:00 PM 2.38 36.284 0.27 8.58 4.63 14.86
12/28/2021 1:00:00 PM 2.43 36.374 0.27 8.62 4.42 14.84
12/28/2021 1:15:00 PM 2.47 36.446 0.27 8.64 4.52 14.77
12/28/2021 1:30:00 PM 2.51 36.518 0.27 8.66 5.69 14.7
12/28/2021 1:45:00 PM 2.53 36.554 0.27 8.64 10.07 14.52
12/28/2021 2:00:00 PM 2.55 36.59 0.271 8.57 18.61 14.31
12/28/2021 2:15:00 PM 2.61 36.698 0.272 8.48 29.93 14.05
12/28/2021 2:30:00 PM 2.67 36.806 0.272 8.41 45.4 13.9
12/28/2021 2:45:00 PM 2.71 36.878 0.272 8.35 40.56 13.78
12/28/2021 3:00:00 PM 2.75 36.95 0.272 8.31 50.02 13.68
12/28/2021 3:15:00 PM 2.77 36.986 0.272 8.3 41.95 13.61
12/28/2021 3:30:00 PM 2.79 37.022 0.271 8.29 30.96 13.56
12/28/2021 3:45:00 PM 2.8 37.04 0.271 8.31 23.93 13.53
12/28/2021 4:00:00 PM 2.83 37.094 0.271 8.34 16.9 13.51
12/28/2021 4:15:00 PM 2.84 37.112 0.271 8.34 15.24 13.45
12/28/2021 4:30:00 PM 2.86 37.148 0.271 8.3 16.75 13.36
12/28/2021 4:45:00 PM 2.87 37.166 0.271 8.25 19.98 13.26
12/28/2021 5:00:00 PM 2.88 37.184 0.272 8.18 20.52 13.18
12/28/2021 5:15:00 PM 2.88 37.184 0.272 8.16 17.92 13.13
12/28/2021 5:30:00 PM 2.9 37.22 0.273 8.13 12.89 13.1
12/28/2021 5:45:00 PM 2.9 37.22 0.273 8.11 10.41 13.07
12/28/2021 6:00:00 PM 2.89 37.202 0.272 8.08 8.06 13.03
12/28/2021 6:15:00 PM 2.87 37.166 0.272 8.05 7.42 13
12/28/2021 6:30:00 PM 2.82 37.076 0.271 8.01 6.75 12.98
12/28/2021 6:45:00 PM 2.72 36.896 0.271 7.99 6.22 12.96
12/28/2021 7:00:00 PM 2.55 36.59 0.27 7.97 5.74 12.95
12/28/2021 7:15:00 PM 2.39 36.302 0.27 7.94 6.05 12.95
12/28/2021 7:30:00 PM 2.29 36.122 0.269 7.91 5.85 12.97
12/28/2021 7:45:00 PM 2.26 36.068 0.269 7.9 6 12.98
12/28/2021 8:00:00 PM 2.21 35.978 0.269 7.88 6.12 12.99
12/28/2021 8:15:00 PM 2.18 35.924 0.269 7.87 5.96 12.99
12/28/2021 8:30:00 PM 2.11 35.798 0.269 7.86 6.07 13.01
12/28/2021 8:45:00 PM 2.06 35.708 0.269 7.84 5.98 13.03
12/28/2021 9:00:00 PM 2.06 35.708 0.268 7.83 6.62 13.03
12/28/2021 9:15:00 PM 2.04 35.672 0.268 7.83 6.44 13.05
12/28/2021 9:30:00 PM 2.02 35.636 0.268 7.81 6.39 13.07
12/28/2021 9:45:00 PM 1.97 35.546 0.267 7.81 6.18 13.09
12/28/2021 10:00:00 PM 1.93 35.474 0.267 7.8 6.58 13.11
12/28/2021 10:15:00 PM 1.89 35.402 0.267 7.8 6.76 13.13
12/28/2021 10:30:00 PM 1.87 35.366 0.267 7.79 7 13.14
12/28/2021 10:45:00 PM 1.84 35.312 0.267 7.79 6.97 13.15
12/28/2021 11:00:00 PM 1.82 35.276 0.267 7.78 6.92 13.17
12/28/2021 11:15:00 PM 1.81 35.258 0.267 7.79 7.42 13.18
12/28/2021 11:30:00 PM 1.8 35.24 0.267 7.78 7.76 13.17
12/28/2021 11:45:00 PM 1.8 35.24 0.267 7.78 7.39 13.18
12/29/2021 12:00:00 AM 1.81 35.258 0.267 7.77 7.53 13.18
12/29/2021 12:15:00 AM 1.82 35.276 0.268 7.78 8.3 13.17
12/29/2021 12:30:00 AM 1.83 35.294 0.269 7.78 7.97 13.17
12/29/2021 12:45:00 AM 1.85 35.33 0.27 7.77 8.23 13.16
12/29/2021 1:00:00 AM 1.86 35.348 0.271 7.77 9.51 13.15
12/29/2021 1:15:00 AM 1.88 35.384 0.27 7.77 8.56 13.14
12/29/2021 1:30:00 AM 1.89 35.402 0.269 7.77 8.41 13.14
12/29/2021 1:45:00 AM 1.91 35.438 0.268 7.77 8.53 13.13
12/29/2021 2:00:00 AM 1.93 35.474 0.268 7.76 8.36 13.12
12/29/2021 2:15:00 AM 1.95 35.51 0.268 7.77 8.25 13.11
12/29/2021 2:30:00 AM 1.96 35.528 0.268 7.76 8.08 13.1
12/29/2021 2:45:00 AM 1.98 35.564 0.268 7.77 8.23 13.1
12/29/2021 3:00:00 AM 1.99 35.582 0.268 7.76 7.61 13.09
12/29/2021 3:15:00 AM 2.01 35.618 0.268 7.76 8 13.09
12/29/2021 3:30:00 AM 2.02 35.636 0.268 7.76 7.93 13.08
12/29/2021 3:45:00 AM 2.04 35.672 0.268 7.76 8.15 13.07
12/29/2021 4:00:00 AM 2.05 35.69 0.269 7.76 7.97 13.06
12/29/2021 4:15:00 AM 2.06 35.708 0.269 7.77 8.15 13.07
12/29/2021 4:30:00 AM 2.07 35.726 0.27 7.76 7.67 13.05
12/29/2021 4:45:00 AM 2.09 35.762 0.27 7.76 8.45 13.05
12/29/2021 5:00:00 AM 2.1 35.78 0.27 7.76 8.56 13.05
12/29/2021 5:15:00 AM 2.1 35.78 0.271 7.76 7.35 13.05
12/29/2021 5:30:00 AM 2.11 35.798 0.271 7.76 7.94 13.04
12/29/2021 5:45:00 AM 2.12 35.816 0.271 7.76 7.67 13.04
12/29/2021 6:00:00 AM 2.12 35.816 0.271 7.76 7.53 13.04
12/29/2021 6:15:00 AM 2.13 35.834 0.271 7.77 7.78 13.04
12/29/2021 6:30:00 AM 2.13 35.834 0.272 7.76 7.63 13.04
12/29/2021 6:45:00 AM 2.14 35.852 0.272 7.76 7.47 13.04
12/29/2021 7:00:00 AM 2.14 35.852 0.272 7.76 7.37 13.04
12/29/2021 7:15:00 AM 2.14 35.852 0.273 7.76 8.1 13.04
12/29/2021 7:30:00 AM 2.14 35.852 0.273 7.76 7.69 13.03
12/29/2021 7:45:00 AM 2.15 35.87 0.274 7.76 7.06 13.05
12/29/2021 8:00:00 AM 2.16 35.888 0.275 7.76 7.66 13.07
12/29/2021 8:15:00 AM 2.17 35.906 0.276 7.77 8.15 13.11
12/29/2021 8:30:00 AM 2.18 35.924 0.276 7.78 7.69 13.14
12/29/2021 8:45:00 AM 2.19 35.942 0.276 7.8 7.63 13.21
12/29/2021 9:00:00 AM 2.2 35.96 0.275 7.8 8.16 13.27
12/29/2021 9:15:00 AM 2.21 35.978 0.274 7.82 7.59 13.33
12/29/2021 9:30:00 AM 2.23 36.014 0.273 7.85 7.48 13.42
12/29/2021 9:45:00 AM 2.26 36.068 0.273 7.88 7.72 13.54
12/29/2021 10:00:00 AM 2.29 36.122 0.273 7.91 7.67 13.66
12/29/2021 10:15:00 AM 2.33 36.194 0.272 7.97 7.29 13.8
12/29/2021 10:30:00 AM 2.38 36.284 0.272 8.01 7.45 13.9
12/29/2021 10:45:00 AM 2.44 36.392 0.272 8.08 7.26 14.03
12/29/2021 11:00:00 AM 2.51 36.518 0.272 8.13 7.04 14.13
12/29/2021 11:15:00 AM 2.59 36.662 0.271 8.19 6.82 14.23
12/29/2021 11:30:00 AM 2.66 36.788 0.271 8.25 7.11 14.3
12/29/2021 11:45:00 AM 2.73 36.914 0.271 8.3 6.82 14.35
12/29/2021 12:00:00 PM 2.79 37.022 0.271 8.35 6.71 14.39
12/29/2021 12:15:00 PM 2.83 37.094 0.271 8.39 7.46 14.38
12/29/2021 12:30:00 PM 2.87 37.166 0.271 8.42 7 14.36
12/29/2021 12:45:00 PM 2.91 37.238 0.271 8.44 9.02 14.32
12/29/2021 1:00:00 PM 2.97 37.346 0.271 8.45 12.41 14.27
12/29/2021 1:15:00 PM 3.02 37.436 0.272 8.44 17.04 14.15
12/29/2021 1:30:00 PM 3.08 37.544 0.272 8.41 19.78 14.03
12/29/2021 1:45:00 PM 3.13 37.634 0.273 8.41 20.21 14
12/29/2021 2:00:00 PM 3.21 37.778 0.273 8.45 16.92 14.06
12/29/2021 2:15:00 PM 3.29 37.922 0.273 8.53 12.81 14.11
12/29/2021 2:30:00 PM 3.34 38.012 0.273 8.55 10.61 14.06
12/29/2021 2:45:00 PM 3.38 38.084 0.274 8.57 10.51 13.98
12/29/2021 3:00:00 PM 3.43 38.174 0.275 8.57 9.64 13.91
12/29/2021 3:15:00 PM 3.48 38.264 0.277 8.57 10.15 13.82
12/29/2021 3:30:00 PM 3.51 38.318 0.277 8.54 11.48 13.74
12/29/2021 3:45:00 PM 3.54 38.372 0.276 8.53 11.61 13.67
12/29/2021 4:00:00 PM 3.57 38.426 0.276 8.51 12.92 13.56
12/29/2021 4:15:00 PM 3.58 38.444 0.275 8.48 13.79 13.41
12/29/2021 4:30:00 PM 3.59 38.462 0.275 8.42 16.58 13.28
12/29/2021 4:45:00 PM 3.59 38.462 0.275 8.34 20.42 13.16
12/29/2021 5:00:00 PM 3.59 38.462 0.274 8.27 21.35 13.07
12/29/2021 5:15:00 PM 3.59 38.462 0.274 8.21 23.94 12.99
12/29/2021 5:30:00 PM 3.58 38.444 0.273 8.14 30.34 12.91
12/29/2021 5:45:00 PM 3.57 38.426 0.271 8.07 37.23 12.86
12/29/2021 6:00:00 PM 3.56 38.408 0.27 8.03 38.24 12.8
12/29/2021 6:15:00 PM 3.54 38.372 0.268 7.97 51.03 12.78
12/29/2021 6:30:00 PM 3.52 38.336 0.268 7.95 50.65 12.75
12/29/2021 6:45:00 PM 3.51 38.318 0.267 7.92 61 12.74
12/29/2021 7:00:00 PM 3.5 38.3 0.267 7.91 72.15 12.73
12/29/2021 7:15:00 PM 3.5 38.3 0.267 7.89 75.69 12.72
12/29/2021 7:30:00 PM 3.5 38.3 0.267 7.88 73.35 12.72
12/29/2021 7:45:00 PM 3.49 38.282 0.266 7.86 77.85 12.72
12/29/2021 8:00:00 PM 3.49 38.282 0.266 7.85 76.61 12.72
12/29/2021 8:15:00 PM 3.48 38.264 0.265 7.84 84.96 12.71
12/29/2021 8:30:00 PM 3.48 38.264 0.265 7.83 71.68 12.71
12/29/2021 8:45:00 PM 3.48 38.264 0.265 7.82 78.69 12.71
12/29/2021 9:00:00 PM 3.47 38.246 0.265 7.81 75.37 12.71
12/29/2021 9:15:00 PM 3.46 38.228 0.265 7.81 73.78 12.71
12/29/2021 9:30:00 PM 3.46 38.228 0.265 7.8 71.56 12.71
12/29/2021 9:45:00 PM 3.45 38.21 0.266 7.79 67.42 12.71
12/29/2021 10:00:00 PM 3.45 38.21 0.266 7.79 69.08 12.7
12/29/2021 10:15:00 PM 3.44 38.192 0.266 7.78 68.43 12.71
12/29/2021 10:30:00 PM 3.43 38.174 0.266 7.78 82.69 12.71
12/29/2021 10:45:00 PM 3.43 38.174 0.265 7.78 56.21 12.71
12/29/2021 11:00:00 PM 3.42 38.156 0.264 7.78 56.53 12.7
12/29/2021 11:15:00 PM 3.41 38.138 0.264 7.77 54.17 12.7
12/29/2021 11:30:00 PM 3.41 38.138 0.263 7.78 54.6 12.7
12/29/2021 11:45:00 PM 3.41 38.138 0.263 7.77 53.71 12.7
12/30/2021 12:00:00 AM 3.4 38.12 0.263 7.77 53.95 12.7
12/30/2021 12:15:00 AM 3.4 38.12 0.263 7.77 49.93 12.7
12/30/2021 12:30:00 AM 3.4 38.12 0.263 7.76 35.94 12.69
12/30/2021 12:45:00 AM 3.4 38.12 0.262 7.76 46.93 12.69
12/30/2021 1:00:00 AM 3.4 38.12 0.262 7.76 42.81 12.69
12/30/2021 1:15:00 AM 3.39 38.102 0.262 7.76 44.85 12.69
12/30/2021 1:30:00 AM 3.39 38.102 0.261 7.75 41.12 12.69
12/30/2021 1:45:00 AM 3.39 38.102 0.261 7.75 40.43 12.69
12/30/2021 2:00:00 AM 3.39 38.102 0.261 7.75 38.14 12.69
12/30/2021 2:15:00 AM 3.39 38.102 0.26 7.75 36.63 12.68
12/30/2021 2:30:00 AM 3.39 38.102 0.26 7.75 35.27 12.69
12/30/2021 2:45:00 AM 3.39 38.102 0.26 7.74 34.94 12.68
12/30/2021 3:00:00 AM 3.39 38.102 0.259 7.75 35.53 12.68
12/30/2021 3:15:00 AM 3.39 38.102 0.259 7.74 22.59 12.68
12/30/2021 3:30:00 AM 3.39 38.102 0.259 7.74 36.03 12.68
12/30/2021 3:45:00 AM 3.4 38.12 0.259 7.74 34.08 12.67
12/30/2021 4:00:00 AM 3.4 38.12 0.258 7.74 31.65 12.67
12/30/2021 4:15:00 AM 3.4 38.12 0.258 7.74 28.54 12.67
12/30/2021 4:30:00 AM 3.4 38.12 0.258 7.74 29.55 12.67
12/30/2021 4:45:00 AM 3.4 38.12 0.257 7.73 33.47 12.67
12/30/2021 5:00:00 AM 3.4 38.12 0.257 7.73 27.75 12.67
12/30/2021 5:15:00 AM 3.4 38.12 0.257 7.74 28.94 12.66
12/30/2021 5:30:00 AM 3.4 38.12 0.257 7.73 25.86 12.67
12/30/2021 5:45:00 AM 3.41 38.138 0.258 7.73 26.07 12.67
12/30/2021 6:00:00 AM 3.41 38.138 0.258 7.73 23.61 12.66
12/30/2021 6:15:00 AM 3.41 38.138 0.259 7.73 23.26 12.66
12/30/2021 6:30:00 AM 3.41 38.138 0.259 7.72 22.06 12.66
12/30/2021 6:45:00 AM 3.42 38.156 0.258 7.73 22.84 12.65
12/30/2021 7:00:00 AM 3.42 38.156 0.257 7.73 20.68 12.66
12/30/2021 7:15:00 AM 3.42 38.156 0.257 7.73 20.43 12.67
12/30/2021 7:30:00 AM 3.42 38.156 0.256 7.73 19.9 12.66
12/30/2021 7:45:00 AM 3.42 38.156 0.256 7.73 18.44 12.66
12/30/2021 8:00:00 AM 3.42 38.156 0.256 7.73 19.04 12.66
12/30/2021 8:15:00 AM 3.42 38.156 0.256 7.74 18.37 12.68
12/30/2021 8:30:00 AM 3.43 38.174 0.256 7.75 18.49 12.71
12/30/2021 8:45:00 AM 3.44 38.192 0.255 7.76 15.96 12.75
12/30/2021 9:00:00 AM 3.44 38.192 0.255 7.76 23.11 12.79
12/30/2021 9:15:00 AM 3.45 38.21 0.255 7.77 15.93 12.8
12/30/2021 9:30:00 AM 3.46 38.228 0.255 7.77 15.51 12.82
12/30/2021 9:45:00 AM 3.47 38.246 0.255 7.79 15.08 12.85
12/30/2021 10:00:00 AM 3.48 38.264 0.255 7.8 15.71 12.92
12/30/2021 10:15:00 AM 3.51 38.318 0.255 7.83 15.19 13.02
12/30/2021 10:30:00 AM 3.54 38.372 0.255 7.87 14.3 13.14
12/30/2021 10:45:00 AM 3.57 38.426 0.255 7.92 13.87 13.23
12/30/2021 11:00:00 AM 3.6 38.48 0.255 7.94 12.82 13.29
12/30/2021 11:15:00 AM 3.65 38.57 0.255 7.99 13.15 13.38
12/30/2021 11:30:00 AM 3.67 38.606 0.255 8.01 13.28 13.41
12/30/2021 11:45:00 AM 3.71 38.678 0.254 8.06 13.48 13.46
12/30/2021 12:00:00 PM 3.75 38.75 0.254 8.09 12.49 13.51
12/30/2021 12:15:00 PM 3.79 38.822 0.254 8.12 11.84 13.54
12/30/2021 12:30:00 PM 3.83 38.894 0.254 8.16 11.5 13.57
12/30/2021 12:45:00 PM 3.86 38.948 0.254 8.19 10.95 13.58
12/30/2021 1:00:00 PM 3.91 39.038 0.253 8.22 10.75 13.6
12/30/2021 1:15:00 PM 3.95 39.11 0.253 8.26 11.11 13.59
12/30/2021 1:30:00 PM 4 39.2 0.254 8.28 10.71 13.6
12/30/2021 1:45:00 PM 4.05 39.29 0.255 8.3 10.81 13.59
12/30/2021 2:00:00 PM 4.11 39.398 0.255 8.34 11.07 13.63
12/30/2021 2:15:00 PM 4.18 39.524 0.256 8.38 11.68 13.65
12/30/2021 2:30:00 PM 4.22 39.596 0.255 8.39 11.71 13.62
12/30/2021 2:45:00 PM 4.24 39.632 0.255 8.39 9.99 13.51
12/30/2021 3:00:00 PM 4.26 39.668 0.254 8.37 10.77 13.42
12/30/2021 3:15:00 PM 4.27 39.686 0.254 8.34 11.43 13.31
12/30/2021 3:30:00 PM 4.3 39.74 0.253 8.33 10.11 13.26
12/30/2021 3:45:00 PM 4.32 39.776 0.253 8.31 9.8 13.24
12/30/2021 4:00:00 PM 4.34 39.812 0.253 8.3 9.38 13.19
12/30/2021 4:15:00 PM 4.35 39.83 0.253 8.26 9.37 13.06
12/30/2021 4:30:00 PM 4.36 39.848 0.253 8.21 9.21 12.93
12/30/2021 4:45:00 PM 4.37 39.866 0.253 8.17 8.75 12.84
12/30/2021 5:00:00 PM 4.37 39.866 0.253 8.13 8.97 12.78
12/30/2021 5:15:00 PM 4.37 39.866 0.253 8.08 8.6 12.7
12/30/2021 5:30:00 PM 4.37 39.866 0.254 8.04 8.5 12.63
12/30/2021 5:45:00 PM 4.38 39.884 0.254 8.01 8.49 12.58
12/30/2021 6:00:00 PM 4.38 39.884 0.254 7.97 8.54 12.54
12/30/2021 6:15:00 PM 4.38 39.884 0.254 7.95 8.57 12.5
12/30/2021 6:30:00 PM 4.37 39.866 0.254 7.92 8.51 12.47
12/30/2021 6:45:00 PM 4.37 39.866 0.254 7.9 8.77 12.44
12/30/2021 7:00:00 PM 4.37 39.866 0.254 7.87 8.53 12.41
12/30/2021 7:15:00 PM 4.37 39.866 0.254 7.85 8.85 12.39
12/30/2021 7:30:00 PM 4.36 39.848 0.254 7.83 8.55 12.36
12/30/2021 7:45:00 PM 4.35 39.83 0.254 7.82 8.62 12.35
12/30/2021 8:00:00 PM 4.34 39.812 0.254 7.8 9.1 12.34
12/30/2021 8:15:00 PM 4.34 39.812 0.254 7.79 8.26 12.33
12/30/2021 8:30:00 PM 4.33 39.794 0.254 7.77 8.7 12.33
12/30/2021 8:45:00 PM 4.32 39.776 0.254 7.77 8.2 12.32
12/30/2021 9:00:00 PM 4.31 39.758 0.254 7.76 8.7 12.32
12/30/2021 9:15:00 PM 4.3 39.74 0.255 7.76 8.19 12.32
12/30/2021 9:30:00 PM 4.3 39.74 0.256 7.75 8.41 12.32
12/30/2021 9:45:00 PM 4.3 39.74 0.257 7.74 8.25 12.32
12/30/2021 10:00:00 PM 4.29 39.722 0.258 7.73 8.32 12.31
12/30/2021 10:15:00 PM 4.29 39.722 0.257 7.74 8.58 12.32
12/30/2021 10:30:00 PM 4.28 39.704 0.256 7.73 8.33 12.32
12/30/2021 10:45:00 PM 4.27 39.686 0.256 7.73 8.17 12.32
12/30/2021 11:00:00 PM 4.26 39.668 0.255 7.72 8.98 12.32
12/30/2021 11:15:00 PM 4.25 39.65 0.255 7.73 8.25 12.33
12/30/2021 11:30:00 PM 4.24 39.632 0.255 7.72 8.88 12.32
12/30/2021 11:45:00 PM 4.22 39.596 0.255 7.72 8.72 12.33
12/31/2021 12:00:00 AM 4.21 39.578 0.255 7.73 8.73 12.33
12/31/2021 12:15:00 AM 4.22 39.596 0.255 7.72 9.2 12.33
12/31/2021 12:30:00 AM 4.21 39.578 0.255 7.73 8.82 12.34
12/31/2021 12:45:00 AM 4.2 39.56 0.255 7.71 9.14 12.34
12/31/2021 1:00:00 AM 4.2 39.56 0.255 7.72 8.75 12.34
12/31/2021 1:15:00 AM 4.19 39.542 0.255 7.72 9.32 12.34
12/31/2021 1:30:00 AM 4.18 39.524 0.255 7.72 8.99 12.34
12/31/2021 1:45:00 AM 4.18 39.524 0.255 7.72 9.19 12.34
12/31/2021 2:00:00 AM 4.18 39.524 0.255 7.72 9.11 12.34
12/31/2021 2:15:00 AM 4.17 39.506 0.256 7.72 8.84 12.34
12/31/2021 2:30:00 AM 4.17 39.506 0.256 7.72 9.19 12.34
12/31/2021 2:45:00 AM 4.17 39.506 0.256 7.72 8.56 12.35
12/31/2021 3:00:00 AM 4.16 39.488 0.256 7.72 8.59 12.35
12/31/2021 3:15:00 AM 4.16 39.488 0.256 7.71 9.23 12.35
12/31/2021 3:30:00 AM 4.16 39.488 0.256 7.72 8.34 12.35
12/31/2021 3:45:00 AM 4.15 39.47 0.256 7.72 9.05 12.35
12/31/2021 4:00:00 AM 4.15 39.47 0.256 7.72 8.36 12.35
12/31/2021 4:15:00 AM 4.14 39.452 0.256 7.72 8.27 12.35
12/31/2021 4:30:00 AM 4.14 39.452 0.256 7.71 8.6 12.35
12/31/2021 4:45:00 AM 4.13 39.434 0.257 7.71 8.4 12.35
12/31/2021 5:00:00 AM 4.13 39.434 0.258 7.72 8.87 12.34
12/31/2021 5:15:00 AM 4.13 39.434 0.259 7.71 9.15 12.35
12/31/2021 5:30:00 AM 4.13 39.434 0.26 7.71 8.65 12.35
12/31/2021 5:45:00 AM 4.13 39.434 0.26 7.7 9.74 12.34
12/31/2021 6:00:00 AM 4.12 39.416 0.26 7.71 8.67 12.34
12/31/2021 6:15:00 AM 4.11 39.398 0.258 7.71 8.08 12.35
12/31/2021 6:30:00 AM 4.09 39.362 0.258 7.72 7.53 12.35
12/31/2021 6:45:00 AM 4.09 39.362 0.257 7.71 7.78 12.35
12/31/2021 7:00:00 AM 4.09 39.362 0.257 7.71 7.82 12.35
12/31/2021 7:15:00 AM 4.08 39.344 0.257 7.72 8.46 12.35
12/31/2021 7:30:00 AM 4.07 39.326 0.257 7.71 7.88 12.35
12/31/2021 7:45:00 AM 4.07 39.326 0.257 7.72 8.21 12.37
12/31/2021 8:00:00 AM 4.07 39.326 0.257 7.72 7.83 12.4
12/31/2021 8:15:00 AM 4.07 39.326 0.257 7.73 7.74 12.47
12/31/2021 8:30:00 AM 4.08 39.344 0.258 7.75 7.55 12.61
12/31/2021 8:45:00 AM 4.09 39.362 0.258 7.79 7.47 12.73
12/31/2021 9:00:00 AM 4.1 39.38 0.258 7.82 7.62 12.85
12/31/2021 9:15:00 AM 4.11 39.398 0.258 7.86 7.22 12.94
12/31/2021 9:30:00 AM 4.11 39.398 0.258 7.88 8.04 13.02
12/31/2021 9:45:00 AM 4.15 39.47 0.258 7.94 7.52 13.17
12/31/2021 10:00:00 AM 4.18 39.524 0.257 7.98 7.76 13.3
12/31/2021 10:15:00 AM 4.22 39.596 0.257 8.04 7.91 13.38
12/31/2021 10:30:00 AM 4.25 39.65 0.257 8.08 7.99 13.46
12/31/2021 10:45:00 AM 4.27 39.686 0.257 8.12 7.25 13.49
12/31/2021 11:00:00 AM 4.31 39.758 0.257 8.15 7.82 13.53
12/31/2021 11:15:00 AM 4.35 39.83 0.257 8.2 7.5 13.59
12/31/2021 11:30:00 AM 4.4 39.92 0.257 8.25 7.08 13.64
12/31/2021 11:45:00 AM 4.48 40.064 0.256 8.3 7.07 13.72
12/31/2021 12:00:00 PM 4.59 40.262 0.256 8.37 7.05 13.77
12/31/2021 12:15:00 PM 4.76 40.568 0.256 8.43 6.59 13.84
12/31/2021 12:30:00 PM 4.84 40.712 0.257 8.48 6.85 13.84
12/31/2021 12:45:00 PM 4.88 40.784 0.258 8.51 6.8 13.82
12/31/2021 1:00:00 PM 4.93 40.874 0.259 8.55 6.9 13.82
12/31/2021 1:15:00 PM 5.02 41.036 0.259 8.59 6.63 13.79
12/31/2021 1:30:00 PM 5.12 41.216 0.257 8.62 6.88 13.78
12/31/2021 1:45:00 PM 5.15 41.27 0.256 8.63 6.94 13.75
12/31/2021 2:00:00 PM 5.17 41.306 0.255 8.64 6.77 13.64
12/31/2021 2:15:00 PM 5.17 41.306 0.255 8.63 6.41 13.54
12/31/2021 2:30:00 PM 5.19 41.342 0.254 8.64 6.63 13.53
12/31/2021 2:45:00 PM 5.25 41.45 0.254 8.67 6.2 13.53
12/31/2021 3:00:00 PM 5.32 41.576 0.254 8.68 6.22 13.51
12/31/2021 3:15:00 PM 5.34 41.612 0.254 8.69 6.18 13.48
12/31/2021 3:30:00 PM 5.35 41.63 0.254 8.7 6.26 13.39
12/31/2021 3:45:00 PM 5.38 41.684 0.254 8.68 6.31 13.28
12/31/2021 4:00:00 PM 5.4 41.72 0.254 8.66 6.24 13.15
12/31/2021 4:15:00 PM 5.4 41.72 0.254 8.62 6.48 13.01
12/31/2021 4:30:00 PM 5.39 41.702 0.254 8.57 6.19 12.84
12/31/2021 4:45:00 PM 5.38 41.684 0.254 8.51 6.18 12.68
12/31/2021 5:00:00 PM 5.37 41.666 0.255 8.44 6.74 12.56
12/31/2021 5:15:00 PM 5.36 41.648 0.255 8.38 6.65 12.46
12/31/2021 5:30:00 PM 5.35 41.63 0.255 8.33 6.41 12.38
12/31/2021 5:45:00 PM 5.35 41.63 0.255 8.27 6.84 12.32
12/31/2021 6:00:00 PM 5.34 41.612 0.255 8.22 6.55 12.27
12/31/2021 6:15:00 PM 5.33 41.594 0.256 8.17 6.16 12.22
12/31/2021 6:30:00 PM 5.31 41.558 0.256 8.12 6.56 12.18
12/31/2021 6:45:00 PM 5.29 41.522 0.257 8.07 6.36 12.15
12/31/2021 7:00:00 PM 5.27 41.486 0.257 8.02 6.47 12.11
12/31/2021 7:15:00 PM 5.23 41.414 0.257 7.98 6.86 12.09
12/31/2021 7:30:00 PM 5.2 41.36 0.257 7.94 6.54 12.07
12/31/2021 7:45:00 PM 5.16 41.288 0.258 7.91 6.66 12.06
12/31/2021 8:00:00 PM 5.1 41.18 0.258 7.87 6.63 12.04
12/31/2021 8:15:00 PM 5.05 41.09 0.26 7.85 6.37 12.05
12/31/2021 8:30:00 PM 4.99 40.982 0.261 7.82 6.35 12.05
12/31/2021 8:45:00 PM 4.94 40.892 0.261 7.81 6.44 12.06
12/31/2021 9:00:00 PM 4.89 40.802 0.261 7.8 6.34 12.06
12/31/2021 9:15:00 PM 4.84 40.712 0.26 7.79 6.51 12.07
12/31/2021 9:30:00 PM 4.79 40.622 0.259 7.78 6.43 12.08
12/31/2021 9:45:00 PM 4.74 40.532 0.259 7.77 6.7 12.1
12/31/2021 10:00:00 PM 4.71 40.478 0.258 7.76 6.66 12.11
12/31/2021 10:15:00 PM 4.69 40.442 0.258 7.76 6.4 12.12
12/31/2021 10:30:00 PM 4.67 40.406 0.258 7.74 6.89 12.11
12/31/2021 10:45:00 PM 4.66 40.388 0.258 7.74 6.54 12.13
12/31/2021 11:00:00 PM 4.63 40.334 0.258 7.74 6.64 12.13
12/31/2021 11:15:00 PM 4.61 40.298 0.258 7.73 6.83 12.14
12/31/2021 11:30:00 PM 4.59 40.262 0.258 7.73 6.66 12.15
12/31/2021 11:45:00 PM 4.56 40.208 0.258 7.72 6.64 12.16
1/1/2022 12:00:00 AM 4.54 40.172 0.258 7.73 6.71 12.16
1/1/2022 12:15:00 AM 4.52 40.136 0.258 7.72 6.56 12.16
1/1/2022 12:30:00 AM 4.5 40.1 0.258 7.72 6.62 12.17
1/1/2022 12:45:00 AM 4.49 40.082 0.258 7.71 6.39 12.17
1/1/2022 1:00:00 AM 4.48 40.064 0.258 7.72 6.52 12.18
1/1/2022 1:15:00 AM 4.47 40.046 0.258 7.72 6.23 12.18
1/1/2022 1:30:00 AM 4.47 40.046 0.258 7.72 6.21 12.18
1/1/2022 1:45:00 AM 4.46 40.028 0.258 7.71 6.15 12.18
1/1/2022 2:00:00 AM 4.46 40.028 0.259 7.71 6.3 12.18
1/1/2022 2:15:00 AM 4.46 40.028 0.258 7.71 6.21 12.18
1/1/2022 2:30:00 AM 4.46 40.028 0.258 7.71 6.76 12.19
1/1/2022 2:45:00 AM 4.46 40.028 0.257 7.71 6.77 12.17
1/1/2022 3:00:00 AM 4.47 40.046 0.257 7.71 8.49 12.17
1/1/2022 3:15:00 AM 4.48 40.064 0.258 7.71 7.13 12.17
1/1/2022 3:30:00 AM 4.48 40.064 0.258 7.7 6.77 12.16
1/1/2022 3:45:00 AM 4.49 40.082 0.259 7.71 8.34 12.16
1/1/2022 4:00:00 AM 4.5 40.1 0.261 7.7 9.01 12.16
1/1/2022 4:15:00 AM 4.51 40.118 0.262 7.71 7.82 12.15
1/1/2022 4:30:00 AM 4.52 40.136 0.262 7.71 9.01 12.15
1/1/2022 4:45:00 AM 4.52 40.136 0.261 7.71 9.25 12.14
1/1/2022 5:00:00 AM 4.53 40.154 0.261 7.7 9.7 12.14
1/1/2022 5:15:00 AM 4.54 40.172 0.261 7.71 9.56 12.13
1/1/2022 5:30:00 AM 4.54 40.172 0.262 7.71 9.29 12.13
1/1/2022 5:45:00 AM 4.55 40.19 0.262 7.71 9.8 12.13
1/1/2022 6:00:00 AM 4.55 40.19 0.263 7.7 10.5 12.13
1/1/2022 6:15:00 AM 4.55 40.19 0.263 7.71 10.99 12.13
1/1/2022 6:30:00 AM 4.55 40.19 0.263 7.71 13.37 12.14
1/1/2022 6:45:00 AM 4.55 40.19 0.263 7.71 17.54 12.14
1/1/2022 7:00:00 AM 4.54 40.172 0.262 7.71 16.83 12.14
1/1/2022 7:15:00 AM 4.54 40.172 0.261 7.71 18.64 12.14
1/1/2022 7:30:00 AM 4.54 40.172 0.261 7.71 20.26 12.15
1/1/2022 7:45:00 AM 4.53 40.154 0.261 7.72 19.58 12.16
1/1/2022 8:00:00 AM 4.53 40.154 0.26 7.72 21.32 12.19
1/1/2022 8:15:00 AM 4.53 40.154 0.26 7.73 23.64 12.21
1/1/2022 8:30:00 AM 4.53 40.154 0.259 7.74 26.24 12.24
1/1/2022 8:45:00 AM 4.53 40.154 0.258 7.76 30.13 12.27
1/1/2022 9:00:00 AM 4.53 40.154 0.257 7.76 29.58 12.3
1/1/2022 9:15:00 AM 4.54 40.172 0.257 7.78 29.72 12.34
1/1/2022 9:30:00 AM 4.55 40.19 0.258 7.79 28.43 12.38
1/1/2022 9:45:00 AM 4.57 40.226 0.258 7.81 28.84 12.43
1/1/2022 10:00:00 AM 4.58 40.244 0.258 7.83 33.6 12.47
1/1/2022 10:15:00 AM 4.6 40.28 0.258 7.84 33.42 12.49
1/1/2022 10:30:00 AM 4.63 40.334 0.259 7.85 36.18 12.52
1/1/2022 10:45:00 AM 4.65 40.37 0.259 7.86 36.16 12.54
1/1/2022 11:00:00 AM 4.68 40.424 0.259 7.86 36.05 12.53
1/1/2022 11:15:00 AM 4.71 40.478 0.26 7.87 29.94 12.58
1/1/2022 11:30:00 AM 4.75 40.55 0.261 7.9 34.08 12.63
1/1/2022 11:45:00 AM 4.78 40.604 0.26 7.91 31.28 12.64
1/1/2022 12:00:00 PM 4.81 40.658 0.26 7.93 30.21 12.65
1/1/2022 12:15:00 PM 4.85 40.73 0.26 7.95 29.43 12.68
1/1/2022 12:30:00 PM 4.89 40.802 0.259 7.98 27.05 12.72
1/1/2022 12:45:00 PM 4.93 40.874 0.259 7.99 27.04 12.73
1/1/2022 1:00:00 PM 4.97 40.946 0.258 8.01 25.64 12.73
1/1/2022 1:15:00 PM 5.01 41.018 0.257 8.03 25.48 12.75
1/1/2022 1:30:00 PM 5.06 41.108 0.256 8.05 21.36 12.74
1/1/2022 1:45:00 PM 5.1 41.18 0.255 8.06 23.11 12.75
1/1/2022 2:00:00 PM 5.13 41.234 0.255 8.08 23.38 12.75
1/1/2022 2:15:00 PM 5.17 41.306 0.254 8.09 20.87 12.73
1/1/2022 2:30:00 PM 5.19 41.342 0.254 8.08 21.59 12.68
1/1/2022 2:45:00 PM 5.23 41.414 0.253 8.07 20.05 12.64
1/1/2022 3:00:00 PM 5.25 41.45 0.253 8.07 20.27 12.58
1/1/2022 3:15:00 PM 5.28 41.504 0.253 8.05 19.35 12.54
1/1/2022 3:30:00 PM 5.3 41.54 0.252 8.04 18.82 12.5
1/1/2022 3:45:00 PM 5.32 41.576 0.252 8.02 19.21 12.45
1/1/2022 4:00:00 PM 5.34 41.612 0.252 8.01 18.59 12.39
1/1/2022 4:15:00 PM 5.35 41.63 0.252 7.98 17.44 12.33
1/1/2022 4:30:00 PM 5.37 41.666 0.252 7.97 17.85 12.27
1/1/2022 4:45:00 PM 5.38 41.684 0.252 7.93 19.07 12.21
1/1/2022 5:00:00 PM 5.39 41.702 0.252 7.92 15.53 12.16
1/1/2022 5:15:00 PM 5.39 41.702 0.252 7.89 16.38 12.12
1/1/2022 5:30:00 PM 5.4 41.72 0.252 7.87 16.04 12.08
1/1/2022 5:45:00 PM 5.4 41.72 0.252 7.85 16.1 12.05
1/1/2022 6:00:00 PM 5.41 41.738 0.252 7.83 15.17 12.02
1/1/2022 6:15:00 PM 5.41 41.738 0.252 7.81 15.19 11.99
1/1/2022 6:30:00 PM 5.42 41.756 0.254 7.8 14.94 11.97
1/1/2022 6:45:00 PM 5.42 41.756 0.254 7.79 14.75 11.95
1/1/2022 7:00:00 PM 5.43 41.774 0.255 7.77 14.31 11.93
1/1/2022 7:15:00 PM 5.44 41.792 0.254 7.76 14.16 11.91
1/1/2022 7:30:00 PM 5.44 41.792 0.254 7.76 14.44 11.9
1/1/2022 7:45:00 PM 5.44 41.792 0.253 7.76 13.34 11.89
1/1/2022 8:00:00 PM 5.44 41.792 0.252 7.75 14.16 11.88
1/1/2022 8:15:00 PM 5.44 41.792 0.252 7.75 13.87 11.88
1/1/2022 8:30:00 PM 5.44 41.792 0.252 7.75 14.77 11.88
1/1/2022 8:45:00 PM 5.44 41.792 0.252 7.75 14.35 11.87
1/1/2022 9:00:00 PM 5.44 41.792 0.252 7.75 14.12 11.87
1/1/2022 9:15:00 PM 5.44 41.792 0.252 7.75 13.98 11.87
1/1/2022 9:30:00 PM 5.43 41.774 0.252 7.75 14.59 11.87
1/1/2022 9:45:00 PM 5.43 41.774 0.252 7.75 14.49 11.86
1/1/2022 10:00:00 PM 5.41 41.738 0.252 7.74 15.42 11.87
1/1/2022 10:15:00 PM 5.4 41.72 0.253 7.75 15.18 11.87
1/1/2022 10:30:00 PM 5.39 41.702 0.253 7.75 14.92 11.87
1/1/2022 10:45:00 PM 5.37 41.666 0.253 7.75 15.54 11.87
1/1/2022 11:00:00 PM 5.36 41.648 0.254 7.75 15.5 11.88
1/1/2022 11:15:00 PM 5.35 41.63 0.254 7.75 17.44 11.89
1/1/2022 11:30:00 PM 5.33 41.594 0.253 7.75 17.82 11.9
1/1/2022 11:45:00 PM 5.31 41.558 0.253 7.75 20.61 11.91
1/2/2022 12:00:00 AM 5.29 41.522 0.252 7.76 21.22 11.91
1/2/2022 12:15:00 AM 5.27 41.486 0.251 7.75 23.61 11.93
1/2/2022 12:30:00 AM 5.25 41.45 0.251 7.76 27.85 11.94
1/2/2022 12:45:00 AM 5.23 41.414 0.251 7.76 30.2 11.94
1/2/2022 1:00:00 AM 5.21 41.378 0.25 7.75 31.44 11.96
1/2/2022 1:15:00 AM 5.19 41.342 0.251 7.76 40.56 11.97
1/2/2022 1:30:00 AM 5.16 41.288 0.252 7.76 53.39 11.98
1/2/2022 1:45:00 AM 5.14 41.252 0.252 7.76 56.25 11.99
1/2/2022 2:00:00 AM 5.12 41.216 0.25 7.76 72.07 12
1/2/2022 2:15:00 AM 5.1 41.18 0.248 7.75 86.5 12.01
1/2/2022 2:30:00 AM 5.07 41.126 0.246 7.76 182.19 12.02
1/2/2022 2:45:00 AM 5.04 41.072 0.245 7.76 129.98 12.04
1/2/2022 3:00:00 AM 5.01 41.018 0.244 7.74 179.81 12.06
1/2/2022 3:15:00 AM 4.98 40.964 0.241 7.72 202.09 12.07
1/2/2022 3:30:00 AM 4.95 40.91 0.24 7.74 203.96 12.09
1/2/2022 3:45:00 AM 4.92 40.856 0.239 7.74 248.29 12.09
1/2/2022 4:00:00 AM 4.89 40.802 0.238 7.74 258.07 12.1
1/2/2022 4:15:00 AM 4.86 40.748 0.237 7.74 259 12.12
1/2/2022 4:30:00 AM 4.83 40.694 0.236 7.74 271.92 12.13
1/2/2022 4:45:00 AM 4.8 40.64 0.234 7.74 255.61 12.15
1/2/2022 5:00:00 AM 4.77 40.586 0.233 7.73 257.65 12.16
1/2/2022 5:15:00 AM 4.73 40.514 0.232 7.74 238.43 12.17
1/2/2022 5:30:00 AM 4.7 40.46 0.231 7.74 222.75 12.17
1/2/2022 5:45:00 AM 4.67 40.406 0.231 7.74 208.92 12.18
1/2/2022 6:00:00 AM 4.64 40.352 0.23 7.73 263.69 12.2
1/2/2022 6:15:00 AM 4.61 40.298 0.229 7.73 190.44 12.21
1/2/2022 6:30:00 AM 4.57 40.226 0.229 7.73 177.81 12.22
1/2/2022 6:45:00 AM 4.54 40.172 0.228 7.73 171.97 12.23
1/2/2022 7:00:00 AM 4.51 40.118 0.227 7.74 161.29 12.24
1/2/2022 7:15:00 AM 4.47 40.046 0.227 7.73 161.82 12.26
1/2/2022 7:30:00 AM 4.43 39.974 0.226 7.73 153.11 12.27
1/2/2022 7:45:00 AM 4.4 39.92 0.226 7.73 142.55 12.28
1/2/2022 8:00:00 AM 4.36 39.848 0.225 7.73 136.26 12.3
1/2/2022 8:15:00 AM 4.33 39.794 0.225 7.73 124.8 12.31
1/2/2022 8:30:00 AM 4.3 39.74 0.226 7.73 117.3 12.32
1/2/2022 8:45:00 AM 4.27 39.686 0.225 7.72 119.3 12.34
1/2/2022 9:00:00 AM 4.25 39.65 0.225 7.73 110.66 12.35
1/2/2022 9:15:00 AM 4.22 39.596 0.225 7.73 104.22 12.37
1/2/2022 9:30:00 AM 4.2 39.56 0.224 7.73 98.93 12.38
1/2/2022 9:45:00 AM 4.18 39.524 0.224 7.73 93.02 12.4
1/2/2022 10:00:00 AM 4.16 39.488 0.223 7.73 82.92 12.42
1/2/2022 10:15:00 AM 4.13 39.434 0.223 7.73 86.84 12.44
1/2/2022 10:30:00 AM 4.11 39.398 0.223 7.72 81.41 12.45
1/2/2022 10:45:00 AM 4.1 39.38 0.223 7.74 77.98 12.49
1/2/2022 11:00:00 AM 4.09 39.362 0.223 7.75 75.98 12.51
1/2/2022 11:15:00 AM 4.07 39.326 0.223 7.75 71.18 12.53
1/2/2022 11:30:00 AM 4.06 39.308 0.224 7.76 65.74 12.55
1/2/2022 11:45:00 AM 4.06 39.308 0.223 7.76 65.09 12.58
1/2/2022 12:00:00 PM 4.07 39.326 0.224 7.77 62.38 12.61
1/2/2022 12:15:00 PM 4.06 39.308 0.224 7.77 59.5 12.63
1/2/2022 12:30:00 PM 4.06 39.308 0.224 7.79 55.94 12.65
1/2/2022 12:45:00 PM 4.07 39.326 0.224 7.79 57.46 12.68
1/2/2022 1:00:00 PM 4.07 39.326 0.224 7.81 51.03 12.7
1/2/2022 1:15:00 PM 4.04 39.272 0.224 7.81 51.89 12.7
1/2/2022 1:30:00 PM 4.03 39.254 0.224 7.82 52.98 12.72
1/2/2022 1:45:00 PM 4.03 39.254 0.224 7.82 48.34 12.75
1/2/2022 2:00:00 PM 4.02 39.236 0.224 7.83 33.35 12.76
1/2/2022 2:15:00 PM 4 39.2 0.225 7.83 45.64 12.78
1/2/2022 2:30:00 PM 3.98 39.164 0.225 7.84 43.78 12.77
1/2/2022 2:45:00 PM 3.94 39.092 0.225 7.83 44.53 12.76
1/2/2022 3:00:00 PM 3.9 39.02 0.226 7.83 41.86 12.76
1/2/2022 3:15:00 PM 3.85 38.93 0.226 7.83 41.42 12.76
1/2/2022 3:30:00 PM 3.82 38.876 0.227 7.83 37.41 12.76
1/2/2022 3:45:00 PM 3.78 38.804 0.227 7.82 43.45 12.76
1/2/2022 4:00:00 PM 3.73 38.714 0.227 7.81 39.06 12.76
1/2/2022 4:15:00 PM 3.69 38.642 0.228 7.8 36.1 12.74
1/2/2022 4:30:00 PM 3.64 38.552 0.229 7.79 60.75 12.74
1/2/2022 4:45:00 PM 3.6 38.48 0.23 7.78 33.84 12.74
1/2/2022 5:00:00 PM 3.54 38.372 0.23 7.77 34.1 12.75
1/2/2022 5:15:00 PM 3.48 38.264 0.23 7.76 30.07 12.75
1/2/2022 5:30:00 PM 3.43 38.174 0.23 7.76 33.42 12.75
1/2/2022 5:45:00 PM 3.39 38.102 0.231 7.74 40.65 12.76
1/2/2022 6:00:00 PM 3.33 37.994 0.232 7.74 28.6 12.77
1/2/2022 6:15:00 PM 3.28 37.904 0.232 7.73 33.56 12.78
1/2/2022 6:30:00 PM 3.23 37.814 0.232 7.73 30.21 12.8
1/2/2022 6:45:00 PM 3.18 37.724 0.233 7.72 29.23 12.81
1/2/2022 7:00:00 PM 3.14 37.652 0.233 7.72 27.62 12.82
1/2/2022 7:15:00 PM 3.09 37.562 0.233 7.71 27.12 12.84
1/2/2022 7:30:00 PM 3.05 37.49 0.233 7.71 19.91 12.85
1/2/2022 7:45:00 PM 3.01 37.418 0.234 7.7 26.95 12.86
1/2/2022 8:00:00 PM 2.97 37.346 0.234 7.71 25.11 12.88
1/2/2022 8:15:00 PM 2.93 37.274 0.234 7.7 25.24 12.89
1/2/2022 8:30:00 PM 2.9 37.22 0.235 7.71 25.62 12.91
1/2/2022 8:45:00 PM 2.86 37.148 0.235 7.69 23.97 12.92
1/2/2022 9:00:00 PM 2.82 37.076 0.235 7.7 22.21 12.93
1/2/2022 9:15:00 PM 2.77 36.986 0.236 7.7 22.31 12.95
1/2/2022 9:30:00 PM 2.73 36.914 0.236 7.69 24.63 12.97
1/2/2022 9:45:00 PM 2.69 36.842 0.236 7.7 22.3 12.98
1/2/2022 10:00:00 PM 2.65 36.77 0.236 7.68 22.41 13
1/2/2022 10:15:00 PM 2.6 36.68 0.237 7.69 19.25 13.02
1/2/2022 10:30:00 PM 2.55 36.59 0.237 7.69 20.61 13.04
1/2/2022 10:45:00 PM 2.5 36.5 0.237 7.69 19.55 13.06
1/2/2022 11:00:00 PM 2.45 36.41 0.238 7.68 19.99 13.07
1/2/2022 11:15:00 PM 2.4 36.32 0.238 7.69 19.25 13.09
1/2/2022 11:30:00 PM 2.37 36.266 0.238 7.69 20.7 13.1
1/2/2022 11:45:00 PM 2.32 36.176 0.239 7.68 20.36 13.12
1/3/2022 12:00:00 AM 2.27 36.086 0.239 7.69 19.22 13.15
1/3/2022 12:15:00 AM 2.23 36.014 0.24 7.68 18.2 13.16
1/3/2022 12:30:00 AM 2.18 35.924 0.241 7.68 19.08 13.18
1/3/2022 12:45:00 AM 2.13 35.834 0.242 7.68 18.01 13.2
1/3/2022 1:00:00 AM 2.09 35.762 0.242 7.68 16.9 13.21
1/3/2022 1:15:00 AM 2.04 35.672 0.242 7.68 17.11 13.23
1/3/2022 1:30:00 AM 1.99 35.582 0.242 7.67 16.59 13.25
1/3/2022 1:45:00 AM 1.94 35.492 0.242 7.68 20.38 13.27
1/3/2022 2:00:00 AM 1.89 35.402 0.242 7.68 16.11 13.29
1/3/2022 2:15:00 AM 1.83 35.294 0.242 7.67 16.03 13.3
1/3/2022 2:30:00 AM 1.78 35.204 0.242 7.68 15.58 13.32
1/3/2022 2:45:00 AM 1.71 35.078 0.242 7.66 15.62 13.35
1/3/2022 3:00:00 AM 1.66 34.988 0.242 7.68 15.04 13.37
1/3/2022 3:15:00 AM 1.6 34.88 0.243 7.67 14.32 13.39
1/3/2022 3:30:00 AM 1.54 34.772 0.243 7.68 14.31 13.41
1/3/2022 3:45:00 AM 1.48 34.664 0.243 7.67 14.84 13.44
1/3/2022 4:00:00 AM 1.43 34.574 0.243 7.67 15.04 13.45
1/3/2022 4:15:00 AM 1.38 34.484 0.244 7.67 13.88 13.47
1/3/2022 4:30:00 AM 1.33 34.394 0.244 7.67 14.1 13.49
1/3/2022 4:45:00 AM 1.28 34.304 0.244 7.67 14.25 13.52
1/3/2022 5:00:00 AM 1.22 34.196 0.244 7.66 13.78 13.54
1/3/2022 5:15:00 AM 1.15 34.07 0.244 7.67 13.65 13.56
1/3/2022 5:30:00 AM 1.1 33.98 0.245 7.66 13.03 13.58
1/3/2022 5:45:00 AM 1.04 33.872 0.245 7.67 13.8 13.6
1/3/2022 6:00:00 AM 1 33.8 0.245 7.66 12.98 13.62
1/3/2022 6:15:00 AM 0.96 33.728 0.246 7.67 13.22 13.65
1/3/2022 6:30:00 AM 0.92 33.656 0.246 7.66 12.41 13.65
1/3/2022 6:45:00 AM 0.88 33.584 0.246 7.66 12.62 13.68
1/3/2022 7:00:00 AM 0.84 33.512 0.246 7.66 12.19 13.69
1/3/2022 7:15:00 AM 0.79 33.422 0.246 7.67 11.46 13.71
1/3/2022 7:30:00 AM 0.72 33.296 0.247 7.66 12.07 13.73
1/3/2022 7:45:00 AM 0.67 33.206 0.247 7.66 11.45 13.76
1/3/2022 8:00:00 AM 0.65 33.17 0.247 7.66 11.63 13.8
1/3/2022 8:15:00 AM 0.62 33.116 0.248 7.68 11.54 13.85
1/3/2022 8:30:00 AM 0.59 33.062 0.249 7.68 11.26 13.91
1/3/2022 8:45:00 AM 0.57 33.026 0.25 7.7 10.57 13.99
1/3/2022 9:00:00 AM 0.57 33.026 0.25 7.71 10.78 14.07
1/3/2022 9:15:00 AM 0.56 33.008 0.249 7.73 10.85 14.15
1/3/2022 9:30:00 AM 0.55 32.99 0.249 7.75 10.98 14.23
1/3/2022 9:45:00 AM 0.55 32.99 0.248 7.78 9.76 14.31
1/3/2022 10:00:00 AM 0.56 33.008 0.248 7.79 10.6 14.39
1/3/2022 10:15:00 AM 0.58 33.044 0.248 7.82 10.48 14.47
1/3/2022 10:30:00 AM 0.59 33.062 0.248 7.85 10.42 14.52
1/3/2022 10:45:00 AM 0.61 33.098 0.248 7.86 10.18 14.56
1/3/2022 11:00:00 AM 0.64 33.152 0.248 7.89 9.46 14.61
1/3/2022 11:15:00 AM 0.66 33.188 0.248 7.9 9.34 14.63
1/3/2022 11:30:00 AM 0.69 33.242 0.249 7.92 9.57 14.66
1/3/2022 11:45:00 AM 0.71 33.278 0.249 7.94 9.65 14.69
1/3/2022 12:00:00 PM 0.73 33.314 0.249 7.97 9.21 14.72
1/3/2022 12:15:00 PM 0.77 33.386 0.249 7.98 9.79 14.72
1/3/2022 12:30:00 PM 0.79 33.422 0.249 8 9.47 14.73
1/3/2022 12:45:00 PM 0.82 33.476 0.25 7.96 9.73 14.75
1/3/2022 1:00:00 PM 0.9 33.62 0.25 7.95 10.02 14.76
1/3/2022 1:15:00 PM 0.96 33.728 0.251 7.94 9.15 14.76
1/3/2022 1:30:00 PM 1 33.8 0.252 7.9 9.56 14.77
1/3/2022 1:45:00 PM 1.11 33.998 0.252 7.85 9.37 14.78
1/3/2022 2:00:00 PM 1.07 33.926 0.252 7.89 9.18 14.74
1/3/2022 2:15:00 PM 1.08 33.944 0.252 7.91 8.88 14.73
1/3/2022 2:30:00 PM 1.11 33.998 0.253 7.89 9.02 14.74
1/3/2022 2:45:00 PM 1.07 33.926 0.254 7.87 9.29 14.72
1/3/2022 3:00:00 PM 1.07 33.926 0.253 7.9 8.87 14.69
1/3/2022 3:15:00 PM 1.04 33.872 0.253 7.95 8.49 14.66
1/3/2022 3:30:00 PM 1.02 33.836 0.252 7.98 8.61 14.6
1/3/2022 3:45:00 PM 1.04 33.872 0.252 8.01 8.21 14.56
1/3/2022 4:00:00 PM 1.05 33.89 0.252 8.02 8.68 14.54
1/3/2022 4:15:00 PM 1.01 33.818 0.253 8.03 7.74 14.51
1/3/2022 4:30:00 PM 0.96 33.728 0.254 8.01 8.14 14.44
1/3/2022 4:45:00 PM 0.91 33.638 0.254 8 7.6 14.34
1/3/2022 5:00:00 PM 0.85 33.53 0.254 7.96 7.39 14.24
1/3/2022 5:15:00 PM 0.8 33.44 0.254 7.93 7.19 14.16
1/3/2022 5:30:00 PM 0.72 33.296 0.253 7.9 6.89 14.12
1/3/2022 5:45:00 PM 0.66 33.188 0.253 7.87 6.84 14.09
1/3/2022 6:00:00 PM 0.59 33.062 0.253 7.85 7.33 14.08
1/3/2022 6:15:00 PM 0.54 32.972 0.253 7.84 6.94 14.06
1/3/2022 6:30:00 PM 0.48 32.864 0.253 7.81 6.96 14.05
1/3/2022 6:45:00 PM 0.42 32.756 0.253 7.8 6.74 14.05
1/3/2022 7:00:00 PM 0.37 32.666 0.254 7.79 6.74 14.05
1/3/2022 7:15:00 PM 0.3 32.54 0.254 7.78 6.79 14.05
1/3/2022 7:30:00 PM 0.23 32.414 0.254 7.76 6.8 14.05
1/3/2022 7:45:00 PM 0.16 32.288 0.254 7.75 6.83 14.05
1/3/2022 8:00:00 PM 0.11 32.198 0.254 7.74 6.92 14.07
1/3/2022 8:15:00 PM 0.05 32.09 0.255 7.73 7.42 14.08
1/3/2022 8:30:00 PM 0.06 32.108 0.255 7.72 7.59 14.1
1/3/2022 8:45:00 PM 0.06 32.108 0.255 7.71 8.93 14.11
1/3/2022 9:00:00 PM 0.07 32.126 0.256 7.7 9.65 14.11
1/3/2022 9:15:00 PM 0.07 32.126 0.256 7.69 9.36 14.11
1/3/2022 9:30:00 PM 0.07 32.126 0.256 7.69 10.7 14.12
1/3/2022 9:45:00 PM 0.07 32.126 0.257 7.69 10.01 14.11
1/3/2022 10:00:00 PM 0.07 32.126 0.257 7.68 9.83 14.12
1/3/2022 10:15:00 PM 0.07 32.126 0.257 7.69 9.05 14.11
1/3/2022 10:30:00 PM 0.07 32.126 0.258 7.68 9.18 14.12
1/3/2022 10:45:00 PM 0.07 32.126 0.258 7.67 9.03 14.11
1/3/2022 11:00:00 PM 0.07 32.126 0.259 7.67 9.24 14.12
1/3/2022 11:15:00 PM 0.07 32.126 0.259 7.68 10.1 14.11
1/3/2022 11:30:00 PM 0.07 32.126 0.259 7.67 10.51 14.11
1/3/2022 11:45:00 PM 0.07 32.126 0.26 7.67 10.16 14.11
1/4/2022 12:00:00 AM 0.07 32.126 0.26 7.67 9.58 14.1
1/4/2022 12:15:00 AM 0.07 32.126 0.261 7.67 9.71 14.1
1/4/2022 12:30:00 AM 0.07 32.126 0.262 7.66 9.33 14.11
1/4/2022 12:45:00 AM 0.07 32.126 0.264 7.66 9.74 14.1
1/4/2022 1:00:00 AM 0.07 32.126 0.264 7.66 9.48 14.1
1/4/2022 1:15:00 AM 0.07 32.126 0.265 7.66 8.84 14.09
1/4/2022 1:30:00 AM 0.07 32.126 0.265 7.66 9.22 14.1
1/4/2022 1:45:00 AM 0.07 32.126 0.265 7.66 8.12 14.09
1/4/2022 2:00:00 AM 0.07 32.126 0.265 7.65 8.71 14.09
1/4/2022 2:15:00 AM 0.07 32.126 0.265 7.66 8.08 14.08
1/4/2022 2:30:00 AM 0.07 32.126 0.265 7.65 7.92 14.07
1/4/2022 2:45:00 AM 0.07 32.126 0.265 7.64 7.4 14.05
1/4/2022 3:00:00 AM 0.07 32.126 0.265 7.64 7.32 14.05
1/4/2022 3:15:00 AM 0.07 32.126 0.265 7.65 7.39 14.03
1/4/2022 3:30:00 AM 0.07 32.126 0.266 7.64 7.74 14.05
1/4/2022 3:45:00 AM 0.07 32.126 0.266 7.64 7.24 14.05
1/4/2022 4:00:00 AM 0.07 32.126 0.265 7.63 6.47 13.99
1/4/2022 4:15:00 AM 0.07 32.126 0.265 7.63 6.66 13.97
1/4/2022 4:30:00 AM 0.07 32.126 0.266 7.62 6.49 13.97
1/4/2022 4:45:00 AM 0.07 32.126 0.267 7.62 6.12 13.99
1/4/2022 5:00:00 AM 0.07 32.126 0.268 7.62 6.47 13.99
1/4/2022 5:15:00 AM 0.07 32.126 0.268 7.62 5.83 14
1/4/2022 5:30:00 AM 0.07 32.126 0.269 7.63 5.75 14
1/4/2022 5:45:00 AM 0.07 32.126 0.269 7.62 6 14
1/4/2022 6:00:00 AM 0.07 32.126 0.269 7.62 5.65 14
1/4/2022 6:15:00 AM 0.07 32.126 0.27 7.63 5.3 14.01
1/4/2022 6:30:00 AM 0.08 32.144 0.27 7.61 5.18 14.01
1/4/2022 6:45:00 AM 0.09 32.162 0.271 7.62 5.34 14.01
1/4/2022 7:00:00 AM 0.09 32.162 0.272 7.61 5.28 14.02
1/4/2022 7:15:00 AM 0.09 32.162 0.272 7.62 5.6 14.03
1/4/2022 7:30:00 AM 0.1 32.18 0.272 7.62 5.79 14.03
1/4/2022 7:45:00 AM 0.09 32.162 0.272 7.62 5.43 14.03
1/4/2022 8:00:00 AM 0.09 32.162 0.273 7.62 6.06 14.08
1/4/2022 8:15:00 AM 0.09 32.162 0.273 7.63 5.74 14.12
1/4/2022 8:30:00 AM 0.1 32.18 0.272 7.63 5.15 14.16
1/4/2022 8:45:00 AM 0.09 32.162 0.273 7.65 5.48 14.24
1/4/2022 9:00:00 AM 0.07 32.126 0.273